<?xml version="1.0" encoding="UTF-8" standalone="no" ?>
<gpx xmlns="http://www.topografix.com/GPX/1/1" xmlns:xsi="http://www.w3.org/2001/XMLSchema-instance" xsi:schemaLocation="http://www.topografix.com/GPX/1/1 http://www.topografix.com/GPX/1/1/gpx.xsd" version="1.1" creator="VisuGPX - https://www.visugpx.com">
  <metadata>
    <name>Cascade de la Brive</name>
    <desc><![CDATA[Circuit au départ du Port à Bouvesse, avec passage à Verizieu, Chosas, Seillonnaz, Montagnieu, ]]></desc>
  </metadata>
  <trk>
    <name><![CDATA[Cascade du Gros Pertuis]]></name>
    <trkseg>
      <trkpt lat="45.78724" lon="5.44341">
        <ele>227.572</ele>
        <time>2019-06-16T07:01:08Z</time>
      </trkpt>
      <trkpt lat="45.78724" lon="5.44351">
        <ele>219.683</ele>
        <time>2019-06-16T07:03:49Z</time>
      </trkpt>
      <trkpt lat="45.78716" lon="5.44355">
        <ele>218.923</ele>
        <time>2019-06-16T07:04:46Z</time>
      </trkpt>
      <trkpt lat="45.7871" lon="5.44359">
        <ele>219.564</ele>
        <time>2019-06-16T07:05:10Z</time>
      </trkpt>
      <trkpt lat="45.78691" lon="5.4437">
        <ele>219.063</ele>
        <time>2019-06-16T07:05:19Z</time>
      </trkpt>
      <trkpt lat="45.7869" lon="5.44387">
        <ele>217.505</ele>
        <time>2019-06-16T07:05:23Z</time>
      </trkpt>
      <trkpt lat="45.7869" lon="5.44411">
        <ele>216.184</ele>
        <time>2019-06-16T07:05:26Z</time>
      </trkpt>
      <trkpt lat="45.7869" lon="5.44422">
        <ele>214.261</ele>
        <time>2019-06-16T07:05:27Z</time>
      </trkpt>
      <trkpt lat="45.7869" lon="5.44443">
        <ele>213.174</ele>
        <time>2019-06-16T07:05:29Z</time>
      </trkpt>
      <trkpt lat="45.78684" lon="5.44465">
        <ele>211.475</ele>
        <time>2019-06-16T07:05:31Z</time>
      </trkpt>
      <trkpt lat="45.7868" lon="5.44476">
        <ele>209.484</ele>
        <time>2019-06-16T07:05:32Z</time>
      </trkpt>
      <trkpt lat="45.78661" lon="5.44507">
        <ele>207.359</ele>
        <time>2019-06-16T07:05:35Z</time>
      </trkpt>
      <trkpt lat="45.78655" lon="5.44519">
        <ele>206.765</ele>
        <time>2019-06-16T07:05:36Z</time>
      </trkpt>
      <trkpt lat="45.78643" lon="5.44539">
        <ele>205.58</ele>
        <time>2019-06-16T07:05:38Z</time>
      </trkpt>
      <trkpt lat="45.78624" lon="5.44563">
        <ele>205.207</ele>
        <time>2019-06-16T07:05:41Z</time>
      </trkpt>
      <trkpt lat="45.78598" lon="5.44574">
        <ele>206.399</ele>
        <time>2019-06-16T07:05:45Z</time>
      </trkpt>
      <trkpt lat="45.7859" lon="5.44582">
        <ele>207.657</ele>
        <time>2019-06-16T07:05:47Z</time>
      </trkpt>
      <trkpt lat="45.78576" lon="5.44597">
        <ele>210.212</ele>
        <time>2019-06-16T07:05:52Z</time>
      </trkpt>
      <trkpt lat="45.78565" lon="5.44616">
        <ele>212.344</ele>
        <time>2019-06-16T07:06:00Z</time>
      </trkpt>
      <trkpt lat="45.78554" lon="5.44632">
        <ele>213.679</ele>
        <time>2019-06-16T07:06:09Z</time>
      </trkpt>
      <trkpt lat="45.7855" lon="5.44638">
        <ele>214.022</ele>
        <time>2019-06-16T07:06:13Z</time>
      </trkpt>
      <trkpt lat="45.78532" lon="5.44662">
        <ele>215.292</ele>
        <time>2019-06-16T07:06:24Z</time>
      </trkpt>
      <trkpt lat="45.78518" lon="5.44684">
        <ele>217.869</ele>
        <time>2019-06-16T07:06:35Z</time>
      </trkpt>
      <trkpt lat="45.78505" lon="5.44703">
        <ele>219.24</ele>
        <time>2019-06-16T07:06:45Z</time>
      </trkpt>
      <trkpt lat="45.78484" lon="5.44719">
        <ele>220.433</ele>
        <time>2019-06-16T07:06:56Z</time>
      </trkpt>
      <trkpt lat="45.78462" lon="5.44733">
        <ele>220.87</ele>
        <time>2019-06-16T07:07:07Z</time>
      </trkpt>
      <trkpt lat="45.78443" lon="5.44746">
        <ele>220.868</ele>
        <time>2019-06-16T07:07:15Z</time>
      </trkpt>
      <trkpt lat="45.78435" lon="5.44751">
        <ele>221.185</ele>
        <time>2019-06-16T07:07:19Z</time>
      </trkpt>
      <trkpt lat="45.78418" lon="5.44763">
        <ele>220.901</ele>
        <time>2019-06-16T07:07:28Z</time>
      </trkpt>
      <trkpt lat="45.78414" lon="5.44766">
        <ele>220.87</ele>
        <time>2019-06-16T07:07:36Z</time>
      </trkpt>
      <trkpt lat="45.78412" lon="5.44769">
        <ele>220.917</ele>
        <time>2019-06-16T07:07:55Z</time>
      </trkpt>
      <trkpt lat="45.78412" lon="5.44782">
        <ele>219.017</ele>
        <time>2019-06-16T07:08:00Z</time>
      </trkpt>
      <trkpt lat="45.78359" lon="5.44889">
        <ele>212.312</ele>
        <time>2019-06-16T07:08:31Z</time>
      </trkpt>
      <trkpt lat="45.78349" lon="5.44913">
        <ele>211.576</ele>
        <time>2019-06-16T07:10:45Z</time>
      </trkpt>
      <trkpt lat="45.78356" lon="5.44912">
        <ele>210.05</ele>
        <time>2019-06-16T07:10:50Z</time>
      </trkpt>
      <trkpt lat="45.7836" lon="5.4491">
        <ele>209.15</ele>
        <time>2019-06-16T07:10:53Z</time>
      </trkpt>
      <trkpt lat="45.78367" lon="5.44914">
        <ele>207.518</ele>
        <time>2019-06-16T07:10:57Z</time>
      </trkpt>
      <trkpt lat="45.7837" lon="5.44915">
        <ele>207.171</ele>
        <time>2019-06-16T07:10:58Z</time>
      </trkpt>
      <trkpt lat="45.78371" lon="5.44922">
        <ele>206.521</ele>
        <time>2019-06-16T07:11:02Z</time>
      </trkpt>
      <trkpt lat="45.78371" lon="5.44926">
        <ele>206.002</ele>
        <time>2019-06-16T07:11:04Z</time>
      </trkpt>
      <trkpt lat="45.78362" lon="5.44936">
        <ele>206.475</ele>
        <time>2019-06-16T07:11:10Z</time>
      </trkpt>
      <trkpt lat="45.78358" lon="5.4494">
        <ele>206.545</ele>
        <time>2019-06-16T07:11:12Z</time>
      </trkpt>
      <trkpt lat="45.78345" lon="5.44966">
        <ele>208.664</ele>
        <time>2019-06-16T07:11:23Z</time>
      </trkpt>
      <trkpt lat="45.78332" lon="5.44992">
        <ele>208.725</ele>
        <time>2019-06-16T07:11:33Z</time>
      </trkpt>
      <trkpt lat="45.7832" lon="5.45012">
        <ele>209.879</ele>
        <time>2019-06-16T07:11:41Z</time>
      </trkpt>
      <trkpt lat="45.78318" lon="5.45014">
        <ele>209.881</ele>
        <time>2019-06-16T07:11:42Z</time>
      </trkpt>
      <trkpt lat="45.78306" lon="5.4504">
        <ele>209.92</ele>
        <time>2019-06-16T07:11:51Z</time>
      </trkpt>
      <trkpt lat="45.78305" lon="5.45046">
        <ele>209.773</ele>
        <time>2019-06-16T07:11:53Z</time>
      </trkpt>
      <trkpt lat="45.783" lon="5.45056">
        <ele>209.673</ele>
        <time>2019-06-16T07:11:57Z</time>
      </trkpt>
      <trkpt lat="45.78296" lon="5.45061">
        <ele>210.5</ele>
        <time>2019-06-16T07:12:04Z</time>
      </trkpt>
      <trkpt lat="45.78294" lon="5.45065">
        <ele>210.919</ele>
        <time>2019-06-16T07:12:12Z</time>
      </trkpt>
      <trkpt lat="45.78289" lon="5.45065">
        <ele>212.011</ele>
        <time>2019-06-16T07:12:21Z</time>
      </trkpt>
      <trkpt lat="45.78287" lon="5.45065">
        <ele>211.577</ele>
        <time>2019-06-16T07:12:30Z</time>
      </trkpt>
      <trkpt lat="45.78283" lon="5.45067">
        <ele>211.622</ele>
        <time>2019-06-16T07:13:36Z</time>
      </trkpt>
      <trkpt lat="45.78269" lon="5.45062">
        <ele>212.143</ele>
        <time>2019-06-16T07:13:55Z</time>
      </trkpt>
      <trkpt lat="45.78251" lon="5.45047">
        <ele>212.89</ele>
        <time>2019-06-16T07:14:02Z</time>
      </trkpt>
      <trkpt lat="45.78229" lon="5.45028">
        <ele>213.639</ele>
        <time>2019-06-16T07:14:10Z</time>
      </trkpt>
      <trkpt lat="45.78218" lon="5.4502">
        <ele>214.662</ele>
        <time>2019-06-16T07:14:14Z</time>
      </trkpt>
      <trkpt lat="45.78195" lon="5.45004">
        <ele>215.793</ele>
        <time>2019-06-16T07:14:22Z</time>
      </trkpt>
      <trkpt lat="45.78185" lon="5.4502">
        <ele>214.89</ele>
        <time>2019-06-16T07:14:28Z</time>
      </trkpt>
      <trkpt lat="45.78182" lon="5.45034">
        <ele>215.56</ele>
        <time>2019-06-16T07:14:35Z</time>
      </trkpt>
      <trkpt lat="45.78184" lon="5.45036">
        <ele>215.416</ele>
        <time>2019-06-16T07:14:38Z</time>
      </trkpt>
      <trkpt lat="45.78201" lon="5.45048">
        <ele>214.807</ele>
        <time>2019-06-16T07:14:44Z</time>
      </trkpt>
      <trkpt lat="45.78245" lon="5.45074">
        <ele>214.381</ele>
        <time>2019-06-16T07:14:55Z</time>
      </trkpt>
      <trkpt lat="45.78294" lon="5.45111">
        <ele>214.833</ele>
        <time>2019-06-16T07:15:07Z</time>
      </trkpt>
      <trkpt lat="45.78331" lon="5.45136">
        <ele>216.304</ele>
        <time>2019-06-16T07:15:18Z</time>
      </trkpt>
      <trkpt lat="45.78372" lon="5.45165">
        <ele>216.799</ele>
        <time>2019-06-16T07:15:30Z</time>
      </trkpt>
      <trkpt lat="45.78423" lon="5.45198">
        <ele>215.637</ele>
        <time>2019-06-16T07:15:43Z</time>
      </trkpt>
      <trkpt lat="45.78468" lon="5.4523">
        <ele>213.628</ele>
        <time>2019-06-16T07:15:52Z</time>
      </trkpt>
      <trkpt lat="45.78496" lon="5.45248">
        <ele>211.497</ele>
        <time>2019-06-16T07:15:58Z</time>
      </trkpt>
      <trkpt lat="45.78494" lon="5.45247">
        <ele>209.588</ele>
        <time>2019-06-16T07:16:31Z</time>
      </trkpt>
      <trkpt lat="45.78469" lon="5.4523">
        <ele>208.782</ele>
        <time>2019-06-16T07:16:39Z</time>
      </trkpt>
      <trkpt lat="45.78435" lon="5.45206">
        <ele>208.416</ele>
        <time>2019-06-16T07:16:51Z</time>
      </trkpt>
      <trkpt lat="45.78422" lon="5.45198">
        <ele>208.143</ele>
        <time>2019-06-16T07:16:56Z</time>
      </trkpt>
      <trkpt lat="45.78414" lon="5.45193">
        <ele>207.553</ele>
        <time>2019-06-16T07:17:00Z</time>
      </trkpt>
      <trkpt lat="45.78412" lon="5.45191">
        <ele>208.151</ele>
        <time>2019-06-16T07:17:04Z</time>
      </trkpt>
      <trkpt lat="45.78408" lon="5.45211">
        <ele>207.628</ele>
        <time>2019-06-16T07:17:13Z</time>
      </trkpt>
      <trkpt lat="45.78402" lon="5.45219">
        <ele>207.797</ele>
        <time>2019-06-16T07:17:24Z</time>
      </trkpt>
      <trkpt lat="45.78391" lon="5.45244">
        <ele>207.467</ele>
        <time>2019-06-16T07:17:30Z</time>
      </trkpt>
      <trkpt lat="45.7837" lon="5.45296">
        <ele>207.899</ele>
        <time>2019-06-16T07:17:41Z</time>
      </trkpt>
      <trkpt lat="45.7835" lon="5.45344">
        <ele>208.352</ele>
        <time>2019-06-16T07:17:52Z</time>
      </trkpt>
      <trkpt lat="45.78324" lon="5.45418">
        <ele>208.012</ele>
        <time>2019-06-16T07:18:07Z</time>
      </trkpt>
      <trkpt lat="45.78311" lon="5.45472">
        <ele>207.9</ele>
        <time>2019-06-16T07:18:18Z</time>
      </trkpt>
      <trkpt lat="45.78296" lon="5.45547">
        <ele>208.13</ele>
        <time>2019-06-16T07:18:34Z</time>
      </trkpt>
      <trkpt lat="45.78283" lon="5.45591">
        <ele>207.915</ele>
        <time>2019-06-16T07:18:45Z</time>
      </trkpt>
      <trkpt lat="45.78269" lon="5.45631">
        <ele>207.683</ele>
        <time>2019-06-16T07:18:54Z</time>
      </trkpt>
      <trkpt lat="45.78255" lon="5.45668">
        <ele>207.885</ele>
        <time>2019-06-16T07:19:03Z</time>
      </trkpt>
      <trkpt lat="45.78245" lon="5.45695">
        <ele>207.854</ele>
        <time>2019-06-16T07:19:11Z</time>
      </trkpt>
      <trkpt lat="45.78242" lon="5.45704">
        <ele>207.609</ele>
        <time>2019-06-16T07:19:15Z</time>
      </trkpt>
      <trkpt lat="45.7824" lon="5.45712">
        <ele>208.014</ele>
        <time>2019-06-16T07:19:18Z</time>
      </trkpt>
      <trkpt lat="45.78237" lon="5.45721">
        <ele>207.886</ele>
        <time>2019-06-16T07:19:22Z</time>
      </trkpt>
      <trkpt lat="45.78237" lon="5.45744">
        <ele>207.775</ele>
        <time>2019-06-16T07:19:32Z</time>
      </trkpt>
      <trkpt lat="45.78212" lon="5.45785">
        <ele>207.708</ele>
        <time>2019-06-16T07:19:41Z</time>
      </trkpt>
      <trkpt lat="45.78192" lon="5.45823">
        <ele>207.656</ele>
        <time>2019-06-16T07:19:51Z</time>
      </trkpt>
      <trkpt lat="45.78171" lon="5.45856">
        <ele>207.683</ele>
        <time>2019-06-16T07:20:00Z</time>
      </trkpt>
      <trkpt lat="45.78151" lon="5.45889">
        <ele>208.474</ele>
        <time>2019-06-16T07:20:09Z</time>
      </trkpt>
      <trkpt lat="45.78133" lon="5.45924">
        <ele>208.253</ele>
        <time>2019-06-16T07:20:18Z</time>
      </trkpt>
      <trkpt lat="45.78092" lon="5.45991">
        <ele>208.091</ele>
        <time>2019-06-16T07:20:35Z</time>
      </trkpt>
      <trkpt lat="45.78088" lon="5.45998">
        <ele>207.977</ele>
        <time>2019-06-16T07:20:37Z</time>
      </trkpt>
      <trkpt lat="45.78088" lon="5.46007">
        <ele>207.547</ele>
        <time>2019-06-16T07:20:41Z</time>
      </trkpt>
      <trkpt lat="45.78095" lon="5.46011">
        <ele>207.173</ele>
        <time>2019-06-16T07:20:47Z</time>
      </trkpt>
      <trkpt lat="45.78102" lon="5.46014">
        <ele>207.18</ele>
        <time>2019-06-16T07:21:29Z</time>
      </trkpt>
      <trkpt lat="45.7812" lon="5.46028">
        <ele>206.948</ele>
        <time>2019-06-16T07:21:36Z</time>
      </trkpt>
      <trkpt lat="45.78145" lon="5.46051">
        <ele>207.482</ele>
        <time>2019-06-16T07:21:44Z</time>
      </trkpt>
      <trkpt lat="45.78171" lon="5.4607">
        <ele>208.025</ele>
        <time>2019-06-16T07:21:52Z</time>
      </trkpt>
      <trkpt lat="45.78174" lon="5.46072">
        <ele>208.024</ele>
        <time>2019-06-16T07:21:53Z</time>
      </trkpt>
      <trkpt lat="45.78191" lon="5.46079">
        <ele>208.22</ele>
        <time>2019-06-16T07:22:00Z</time>
      </trkpt>
      <trkpt lat="45.78213" lon="5.46084">
        <ele>207.775</ele>
        <time>2019-06-16T07:22:07Z</time>
      </trkpt>
      <trkpt lat="45.78237" lon="5.46093">
        <ele>207.398</ele>
        <time>2019-06-16T07:22:14Z</time>
      </trkpt>
      <trkpt lat="45.78252" lon="5.46084">
        <ele>207.697</ele>
        <time>2019-06-16T07:22:20Z</time>
      </trkpt>
      <trkpt lat="45.78267" lon="5.46069">
        <ele>207.684</ele>
        <time>2019-06-16T07:22:41Z</time>
      </trkpt>
      <trkpt lat="45.7829" lon="5.46039">
        <ele>208.067</ele>
        <time>2019-06-16T07:22:49Z</time>
      </trkpt>
      <trkpt lat="45.7831" lon="5.45999">
        <ele>208.413</ele>
        <time>2019-06-16T07:22:57Z</time>
      </trkpt>
      <trkpt lat="45.78346" lon="5.45952">
        <ele>208.763</ele>
        <time>2019-06-16T07:23:08Z</time>
      </trkpt>
      <trkpt lat="45.78368" lon="5.4595">
        <ele>208.651</ele>
        <time>2019-06-16T07:23:13Z</time>
      </trkpt>
      <trkpt lat="45.78377" lon="5.45955">
        <ele>208.876</ele>
        <time>2019-06-16T07:23:15Z</time>
      </trkpt>
      <trkpt lat="45.78413" lon="5.45973">
        <ele>208.42</ele>
        <time>2019-06-16T07:23:24Z</time>
      </trkpt>
      <trkpt lat="45.78435" lon="5.45993">
        <ele>208.348</ele>
        <time>2019-06-16T07:23:30Z</time>
      </trkpt>
      <trkpt lat="45.78448" lon="5.46008">
        <ele>208.773</ele>
        <time>2019-06-16T07:23:34Z</time>
      </trkpt>
      <trkpt lat="45.78483" lon="5.46032">
        <ele>209.524</ele>
        <time>2019-06-16T07:23:44Z</time>
      </trkpt>
      <trkpt lat="45.78519" lon="5.46036">
        <ele>210.248</ele>
        <time>2019-06-16T07:23:54Z</time>
      </trkpt>
      <trkpt lat="45.78563" lon="5.46044">
        <ele>210.584</ele>
        <time>2019-06-16T07:24:06Z</time>
      </trkpt>
      <trkpt lat="45.78587" lon="5.4605">
        <ele>210.99</ele>
        <time>2019-06-16T07:24:14Z</time>
      </trkpt>
      <trkpt lat="45.7859" lon="5.4605">
        <ele>210.985</ele>
        <time>2019-06-16T07:24:15Z</time>
      </trkpt>
      <trkpt lat="45.786" lon="5.46052">
        <ele>211.05</ele>
        <time>2019-06-16T07:24:22Z</time>
      </trkpt>
      <trkpt lat="45.78603" lon="5.46053">
        <ele>211.301</ele>
        <time>2019-06-16T07:24:56Z</time>
      </trkpt>
      <trkpt lat="45.78602" lon="5.46074">
        <ele>210.453</ele>
        <time>2019-06-16T07:25:00Z</time>
      </trkpt>
      <trkpt lat="45.78602" lon="5.46086">
        <ele>210.778</ele>
        <time>2019-06-16T07:25:02Z</time>
      </trkpt>
      <trkpt lat="45.786" lon="5.46119">
        <ele>210.646</ele>
        <time>2019-06-16T07:25:07Z</time>
      </trkpt>
      <trkpt lat="45.78593" lon="5.46179">
        <ele>210.345</ele>
        <time>2019-06-16T07:25:16Z</time>
      </trkpt>
      <trkpt lat="45.78596" lon="5.46227">
        <ele>210.136</ele>
        <time>2019-06-16T07:25:25Z</time>
      </trkpt>
      <trkpt lat="45.786" lon="5.4627">
        <ele>210.114</ele>
        <time>2019-06-16T07:25:34Z</time>
      </trkpt>
      <trkpt lat="45.78607" lon="5.46325">
        <ele>210.221</ele>
        <time>2019-06-16T07:25:43Z</time>
      </trkpt>
      <trkpt lat="45.7861" lon="5.46388">
        <ele>210.988</ele>
        <time>2019-06-16T07:25:55Z</time>
      </trkpt>
      <trkpt lat="45.78607" lon="5.46418">
        <ele>211.712</ele>
        <time>2019-06-16T07:26:03Z</time>
      </trkpt>
      <trkpt lat="45.78606" lon="5.4644">
        <ele>212.293</ele>
        <time>2019-06-16T07:26:10Z</time>
      </trkpt>
      <trkpt lat="45.78604" lon="5.46455">
        <ele>212.286</ele>
        <time>2019-06-16T07:26:14Z</time>
      </trkpt>
      <trkpt lat="45.78598" lon="5.46473">
        <ele>213.628</ele>
        <time>2019-06-16T07:26:20Z</time>
      </trkpt>
      <trkpt lat="45.7859" lon="5.46489">
        <ele>214.107</ele>
        <time>2019-06-16T07:26:27Z</time>
      </trkpt>
      <trkpt lat="45.78578" lon="5.46511">
        <ele>215.141</ele>
        <time>2019-06-16T07:26:36Z</time>
      </trkpt>
      <trkpt lat="45.78576" lon="5.46513">
        <ele>215.143</ele>
        <time>2019-06-16T07:26:37Z</time>
      </trkpt>
      <trkpt lat="45.78572" lon="5.46521">
        <ele>215.488</ele>
        <time>2019-06-16T07:26:40Z</time>
      </trkpt>
      <trkpt lat="45.78562" lon="5.46537">
        <ele>216.781</ele>
        <time>2019-06-16T07:26:48Z</time>
      </trkpt>
      <trkpt lat="45.78558" lon="5.46543">
        <ele>217.232</ele>
        <time>2019-06-16T07:26:51Z</time>
      </trkpt>
      <trkpt lat="45.78555" lon="5.46548">
        <ele>217.991</ele>
        <time>2019-06-16T07:26:54Z</time>
      </trkpt>
      <trkpt lat="45.78548" lon="5.46561">
        <ele>219.492</ele>
        <time>2019-06-16T07:27:03Z</time>
      </trkpt>
      <trkpt lat="45.78532" lon="5.46596">
        <ele>222.072</ele>
        <time>2019-06-16T07:27:16Z</time>
      </trkpt>
      <trkpt lat="45.78532" lon="5.46607">
        <ele>222.617</ele>
        <time>2019-06-16T07:27:21Z</time>
      </trkpt>
      <trkpt lat="45.78535" lon="5.46612">
        <ele>223.039</ele>
        <time>2019-06-16T07:27:58Z</time>
      </trkpt>
      <trkpt lat="45.78538" lon="5.46609">
        <ele>223.039</ele>
        <time>2019-06-16T07:27:59Z</time>
      </trkpt>
      <trkpt lat="45.78566" lon="5.46587">
        <ele>222.78</ele>
        <time>2019-06-16T07:28:07Z</time>
      </trkpt>
      <trkpt lat="45.7858" lon="5.46576">
        <ele>222.726</ele>
        <time>2019-06-16T07:28:11Z</time>
      </trkpt>
      <trkpt lat="45.786" lon="5.46558">
        <ele>221.852</ele>
        <time>2019-06-16T07:28:16Z</time>
      </trkpt>
      <trkpt lat="45.78608" lon="5.4655">
        <ele>222.321</ele>
        <time>2019-06-16T07:28:18Z</time>
      </trkpt>
      <trkpt lat="45.78619" lon="5.46541">
        <ele>222.237</ele>
        <time>2019-06-16T07:28:21Z</time>
      </trkpt>
      <trkpt lat="45.7866" lon="5.46503">
        <ele>222.329</ele>
        <time>2019-06-16T07:28:32Z</time>
      </trkpt>
      <trkpt lat="45.78692" lon="5.46474">
        <ele>223.202</ele>
        <time>2019-06-16T07:28:41Z</time>
      </trkpt>
      <trkpt lat="45.7871" lon="5.46457">
        <ele>223.456</ele>
        <time>2019-06-16T07:28:49Z</time>
      </trkpt>
      <trkpt lat="45.78732" lon="5.4646">
        <ele>225.064</ele>
        <time>2019-06-16T07:28:56Z</time>
      </trkpt>
      <trkpt lat="45.78727" lon="5.46465">
        <ele>226.515</ele>
        <time>2019-06-16T07:29:01Z</time>
      </trkpt>
      <trkpt lat="45.78721" lon="5.46474">
        <ele>227.408</ele>
        <time>2019-06-16T07:29:09Z</time>
      </trkpt>
      <trkpt lat="45.78707" lon="5.46492">
        <ele>227.824</ele>
        <time>2019-06-16T07:29:44Z</time>
      </trkpt>
      <trkpt lat="45.78694" lon="5.46513">
        <ele>228.277</ele>
        <time>2019-06-16T07:29:54Z</time>
      </trkpt>
      <trkpt lat="45.78694" lon="5.46516">
        <ele>228.446</ele>
        <time>2019-06-16T07:29:57Z</time>
      </trkpt>
      <trkpt lat="45.78694" lon="5.46526">
        <ele>228.901</ele>
        <time>2019-06-16T07:30:05Z</time>
      </trkpt>
      <trkpt lat="45.78692" lon="5.46537">
        <ele>228.728</ele>
        <time>2019-06-16T07:30:18Z</time>
      </trkpt>
      <trkpt lat="45.78672" lon="5.46559">
        <ele>228.819</ele>
        <time>2019-06-16T07:30:26Z</time>
      </trkpt>
      <trkpt lat="45.78652" lon="5.46567">
        <ele>230.414</ele>
        <time>2019-06-16T07:30:37Z</time>
      </trkpt>
      <trkpt lat="45.78637" lon="5.46578">
        <ele>231.19</ele>
        <time>2019-06-16T07:30:45Z</time>
      </trkpt>
      <trkpt lat="45.78624" lon="5.46595">
        <ele>231.852</ele>
        <time>2019-06-16T07:30:54Z</time>
      </trkpt>
      <trkpt lat="45.78607" lon="5.46617">
        <ele>233.547</ele>
        <time>2019-06-16T07:31:05Z</time>
      </trkpt>
      <trkpt lat="45.78593" lon="5.46633">
        <ele>234.447</ele>
        <time>2019-06-16T07:31:15Z</time>
      </trkpt>
      <trkpt lat="45.78576" lon="5.46654">
        <ele>235.346</ele>
        <time>2019-06-16T07:31:27Z</time>
      </trkpt>
      <trkpt lat="45.7857" lon="5.46663">
        <ele>236.465</ele>
        <time>2019-06-16T07:31:33Z</time>
      </trkpt>
      <trkpt lat="45.78562" lon="5.46673">
        <ele>237.302</ele>
        <time>2019-06-16T07:31:40Z</time>
      </trkpt>
      <trkpt lat="45.78553" lon="5.46686">
        <ele>238.091</ele>
        <time>2019-06-16T07:31:49Z</time>
      </trkpt>
      <trkpt lat="45.78537" lon="5.46711">
        <ele>239.765</ele>
        <time>2019-06-16T07:32:03Z</time>
      </trkpt>
      <trkpt lat="45.78528" lon="5.46729">
        <ele>240.992</ele>
        <time>2019-06-16T07:32:13Z</time>
      </trkpt>
      <trkpt lat="45.78519" lon="5.46749">
        <ele>241.982</ele>
        <time>2019-06-16T07:32:24Z</time>
      </trkpt>
      <trkpt lat="45.78505" lon="5.46774">
        <ele>242.476</ele>
        <time>2019-06-16T07:32:36Z</time>
      </trkpt>
      <trkpt lat="45.78491" lon="5.46793">
        <ele>244.54</ele>
        <time>2019-06-16T07:32:48Z</time>
      </trkpt>
      <trkpt lat="45.78485" lon="5.46801">
        <ele>245.001</ele>
        <time>2019-06-16T07:32:55Z</time>
      </trkpt>
      <trkpt lat="45.78476" lon="5.46817">
        <ele>246.84</ele>
        <time>2019-06-16T07:33:05Z</time>
      </trkpt>
      <trkpt lat="45.78466" lon="5.46832">
        <ele>247.639</ele>
        <time>2019-06-16T07:33:14Z</time>
      </trkpt>
      <trkpt lat="45.78453" lon="5.46856">
        <ele>249.071</ele>
        <time>2019-06-16T07:33:27Z</time>
      </trkpt>
      <trkpt lat="45.78444" lon="5.46872">
        <ele>250.219</ele>
        <time>2019-06-16T07:33:37Z</time>
      </trkpt>
      <trkpt lat="45.78433" lon="5.46897">
        <ele>251.813</ele>
        <time>2019-06-16T07:33:51Z</time>
      </trkpt>
      <trkpt lat="45.78431" lon="5.46903">
        <ele>251.807</ele>
        <time>2019-06-16T07:33:55Z</time>
      </trkpt>
      <trkpt lat="45.78426" lon="5.46913">
        <ele>252.906</ele>
        <time>2019-06-16T07:34:03Z</time>
      </trkpt>
      <trkpt lat="45.78414" lon="5.46957">
        <ele>256.074</ele>
        <time>2019-06-16T07:34:36Z</time>
      </trkpt>
      <trkpt lat="45.78403" lon="5.46983">
        <ele>258.174</ele>
        <time>2019-06-16T07:34:48Z</time>
      </trkpt>
      <trkpt lat="45.78398" lon="5.47">
        <ele>259.821</ele>
        <time>2019-06-16T07:34:59Z</time>
      </trkpt>
      <trkpt lat="45.78393" lon="5.47019">
        <ele>261.655</ele>
        <time>2019-06-16T07:35:13Z</time>
      </trkpt>
      <trkpt lat="45.78386" lon="5.47042">
        <ele>262.553</ele>
        <time>2019-06-16T07:35:24Z</time>
      </trkpt>
      <trkpt lat="45.7838" lon="5.4706">
        <ele>263.601</ele>
        <time>2019-06-16T07:35:34Z</time>
      </trkpt>
      <trkpt lat="45.78377" lon="5.47071">
        <ele>264.022</ele>
        <time>2019-06-16T07:35:40Z</time>
      </trkpt>
      <trkpt lat="45.78367" lon="5.47097">
        <ele>265.036</ele>
        <time>2019-06-16T07:35:53Z</time>
      </trkpt>
      <trkpt lat="45.7836" lon="5.47114">
        <ele>265.46</ele>
        <time>2019-06-16T07:36:01Z</time>
      </trkpt>
      <trkpt lat="45.78349" lon="5.47131">
        <ele>266.381</ele>
        <time>2019-06-16T07:36:10Z</time>
      </trkpt>
      <trkpt lat="45.78336" lon="5.47152">
        <ele>266.81</ele>
        <time>2019-06-16T07:36:19Z</time>
      </trkpt>
      <trkpt lat="45.78318" lon="5.47181">
        <ele>267.538</ele>
        <time>2019-06-16T07:36:31Z</time>
      </trkpt>
      <trkpt lat="45.78302" lon="5.47202">
        <ele>267.984</ele>
        <time>2019-06-16T07:36:43Z</time>
      </trkpt>
      <trkpt lat="45.78287" lon="5.47223">
        <ele>269.816</ele>
        <time>2019-06-16T07:36:56Z</time>
      </trkpt>
      <trkpt lat="45.7828" lon="5.47233">
        <ele>270.349</ele>
        <time>2019-06-16T07:37:02Z</time>
      </trkpt>
      <trkpt lat="45.78268" lon="5.47251">
        <ele>270.965</ele>
        <time>2019-06-16T07:37:13Z</time>
      </trkpt>
      <trkpt lat="45.78253" lon="5.47273">
        <ele>272.199</ele>
        <time>2019-06-16T07:37:25Z</time>
      </trkpt>
      <trkpt lat="45.78243" lon="5.47287">
        <ele>272.495</ele>
        <time>2019-06-16T07:37:32Z</time>
      </trkpt>
      <trkpt lat="45.78236" lon="5.47295">
        <ele>272.905</ele>
        <time>2019-06-16T07:37:37Z</time>
      </trkpt>
      <trkpt lat="45.78231" lon="5.47302">
        <ele>273.336</ele>
        <time>2019-06-16T07:37:41Z</time>
      </trkpt>
      <trkpt lat="45.78221" lon="5.47315">
        <ele>274.216</ele>
        <time>2019-06-16T07:37:50Z</time>
      </trkpt>
      <trkpt lat="45.78206" lon="5.47331">
        <ele>276.056</ele>
        <time>2019-06-16T07:38:03Z</time>
      </trkpt>
      <trkpt lat="45.78201" lon="5.47335">
        <ele>276.592</ele>
        <time>2019-06-16T07:38:07Z</time>
      </trkpt>
      <trkpt lat="45.7818" lon="5.47351">
        <ele>276.82</ele>
        <time>2019-06-16T07:38:19Z</time>
      </trkpt>
      <trkpt lat="45.78162" lon="5.47361">
        <ele>277.206</ele>
        <time>2019-06-16T07:38:27Z</time>
      </trkpt>
      <trkpt lat="45.78142" lon="5.47373">
        <ele>277.57</ele>
        <time>2019-06-16T07:38:37Z</time>
      </trkpt>
      <trkpt lat="45.78118" lon="5.47389">
        <ele>278.234</ele>
        <time>2019-06-16T07:38:48Z</time>
      </trkpt>
      <trkpt lat="45.78091" lon="5.47407">
        <ele>277.052</ele>
        <time>2019-06-16T07:38:57Z</time>
      </trkpt>
      <trkpt lat="45.78081" lon="5.47414">
        <ele>276.834</ele>
        <time>2019-06-16T07:39:03Z</time>
      </trkpt>
      <trkpt lat="45.78063" lon="5.47425">
        <ele>275.755</ele>
        <time>2019-06-16T07:43:39Z</time>
      </trkpt>
      <trkpt lat="45.7804" lon="5.47441">
        <ele>275.246</ele>
        <time>2019-06-16T07:43:46Z</time>
      </trkpt>
      <trkpt lat="45.78005" lon="5.47463">
        <ele>273.734</ele>
        <time>2019-06-16T07:43:55Z</time>
      </trkpt>
      <trkpt lat="45.77985" lon="5.47473">
        <ele>274.948</ele>
        <time>2019-06-16T07:44:02Z</time>
      </trkpt>
      <trkpt lat="45.77955" lon="5.47489">
        <ele>276.367</ele>
        <time>2019-06-16T07:44:12Z</time>
      </trkpt>
      <trkpt lat="45.77923" lon="5.4751">
        <ele>276.769</ele>
        <time>2019-06-16T07:44:21Z</time>
      </trkpt>
      <trkpt lat="45.77894" lon="5.47527">
        <ele>278.042</ele>
        <time>2019-06-16T07:44:29Z</time>
      </trkpt>
      <trkpt lat="45.77872" lon="5.4754">
        <ele>278.525</ele>
        <time>2019-06-16T07:44:35Z</time>
      </trkpt>
      <trkpt lat="45.77829" lon="5.47566">
        <ele>279.72</ele>
        <time>2019-06-16T07:44:46Z</time>
      </trkpt>
      <trkpt lat="45.77798" lon="5.47601">
        <ele>278.267</ele>
        <time>2019-06-16T07:44:53Z</time>
      </trkpt>
      <trkpt lat="45.77782" lon="5.47623">
        <ele>276.141</ele>
        <time>2019-06-16T07:44:56Z</time>
      </trkpt>
      <trkpt lat="45.77758" lon="5.47654">
        <ele>273.629</ele>
        <time>2019-06-16T07:45:00Z</time>
      </trkpt>
      <trkpt lat="45.77724" lon="5.47703">
        <ele>273.185</ele>
        <time>2019-06-16T07:45:07Z</time>
      </trkpt>
      <trkpt lat="45.77715" lon="5.47724">
        <ele>271.25</ele>
        <time>2019-06-16T07:45:12Z</time>
      </trkpt>
      <trkpt lat="45.77715" lon="5.47745">
        <ele>271.45</ele>
        <time>2019-06-16T07:45:16Z</time>
      </trkpt>
      <trkpt lat="45.77716" lon="5.47763">
        <ele>270.771</ele>
        <time>2019-06-16T07:45:19Z</time>
      </trkpt>
      <trkpt lat="45.77724" lon="5.47816">
        <ele>269.757</ele>
        <time>2019-06-16T07:45:28Z</time>
      </trkpt>
      <trkpt lat="45.7773" lon="5.47832">
        <ele>269.1</ele>
        <time>2019-06-16T07:45:31Z</time>
      </trkpt>
      <trkpt lat="45.77735" lon="5.4785">
        <ele>268.804</ele>
        <time>2019-06-16T07:45:34Z</time>
      </trkpt>
      <trkpt lat="45.77741" lon="5.47868">
        <ele>268.783</ele>
        <time>2019-06-16T07:45:37Z</time>
      </trkpt>
      <trkpt lat="45.77761" lon="5.47923">
        <ele>267.802</ele>
        <time>2019-06-16T07:45:46Z</time>
      </trkpt>
      <trkpt lat="45.77777" lon="5.47975">
        <ele>267.437</ele>
        <time>2019-06-16T07:45:55Z</time>
      </trkpt>
      <trkpt lat="45.77786" lon="5.47997">
        <ele>267.726</ele>
        <time>2019-06-16T07:46:01Z</time>
      </trkpt>
      <trkpt lat="45.77796" lon="5.48026">
        <ele>267.419</ele>
        <time>2019-06-16T07:46:08Z</time>
      </trkpt>
      <trkpt lat="45.77809" lon="5.48056">
        <ele>267.961</ele>
        <time>2019-06-16T07:46:15Z</time>
      </trkpt>
      <trkpt lat="45.7781" lon="5.4806">
        <ele>268.046</ele>
        <time>2019-06-16T07:46:16Z</time>
      </trkpt>
      <trkpt lat="45.778" lon="5.48069">
        <ele>268.232</ele>
        <time>2019-06-16T07:46:21Z</time>
      </trkpt>
      <trkpt lat="45.77772" lon="5.48097">
        <ele>268.307</ele>
        <time>2019-06-16T07:46:30Z</time>
      </trkpt>
      <trkpt lat="45.77734" lon="5.48138">
        <ele>268.4</ele>
        <time>2019-06-16T07:46:41Z</time>
      </trkpt>
      <trkpt lat="45.77706" lon="5.48172">
        <ele>268.565</ele>
        <time>2019-06-16T07:46:50Z</time>
      </trkpt>
      <trkpt lat="45.77703" lon="5.48176">
        <ele>268.565</ele>
        <time>2019-06-16T07:46:51Z</time>
      </trkpt>
      <trkpt lat="45.77675" lon="5.48217">
        <ele>268.298</ele>
        <time>2019-06-16T07:47:01Z</time>
      </trkpt>
      <trkpt lat="45.77666" lon="5.4824">
        <ele>268.63</ele>
        <time>2019-06-16T07:47:07Z</time>
      </trkpt>
      <trkpt lat="45.77646" lon="5.48282">
        <ele>268.633</ele>
        <time>2019-06-16T07:47:17Z</time>
      </trkpt>
      <trkpt lat="45.77636" lon="5.48296">
        <ele>268.711</ele>
        <time>2019-06-16T07:47:23Z</time>
      </trkpt>
      <trkpt lat="45.77621" lon="5.48321">
        <ele>269.18</ele>
        <time>2019-06-16T07:47:33Z</time>
      </trkpt>
      <trkpt lat="45.77604" lon="5.48352">
        <ele>268.738</ele>
        <time>2019-06-16T07:47:42Z</time>
      </trkpt>
      <trkpt lat="45.77594" lon="5.48377">
        <ele>268.972</ele>
        <time>2019-06-16T07:47:50Z</time>
      </trkpt>
      <trkpt lat="45.77588" lon="5.48393">
        <ele>268.894</ele>
        <time>2019-06-16T07:47:55Z</time>
      </trkpt>
      <trkpt lat="45.77578" lon="5.48413">
        <ele>268.837</ele>
        <time>2019-06-16T07:48:02Z</time>
      </trkpt>
      <trkpt lat="45.77566" lon="5.48433">
        <ele>268.811</ele>
        <time>2019-06-16T07:48:09Z</time>
      </trkpt>
      <trkpt lat="45.77548" lon="5.48459">
        <ele>269.069</ele>
        <time>2019-06-16T07:48:17Z</time>
      </trkpt>
      <trkpt lat="45.77535" lon="5.48484">
        <ele>269.224</ele>
        <time>2019-06-16T07:48:25Z</time>
      </trkpt>
      <trkpt lat="45.77519" lon="5.48505">
        <ele>269.094</ele>
        <time>2019-06-16T07:48:32Z</time>
      </trkpt>
      <trkpt lat="45.77506" lon="5.48518">
        <ele>268.816</ele>
        <time>2019-06-16T07:48:38Z</time>
      </trkpt>
      <trkpt lat="45.77493" lon="5.48529">
        <ele>268.853</ele>
        <time>2019-06-16T07:48:43Z</time>
      </trkpt>
      <trkpt lat="45.77487" lon="5.48539">
        <ele>268.837</ele>
        <time>2019-06-16T07:48:48Z</time>
      </trkpt>
      <trkpt lat="45.77478" lon="5.48562">
        <ele>269.97</ele>
        <time>2019-06-16T07:48:56Z</time>
      </trkpt>
      <trkpt lat="45.77474" lon="5.48572">
        <ele>270.559</ele>
        <time>2019-06-16T07:49:00Z</time>
      </trkpt>
      <trkpt lat="45.77473" lon="5.48579">
        <ele>270.794</ele>
        <time>2019-06-16T07:49:03Z</time>
      </trkpt>
      <trkpt lat="45.77475" lon="5.48585">
        <ele>272.092</ele>
        <time>2019-06-16T07:49:06Z</time>
      </trkpt>
      <trkpt lat="45.77479" lon="5.48586">
        <ele>271.511</ele>
        <time>2019-06-16T07:49:13Z</time>
      </trkpt>
      <trkpt lat="45.77481" lon="5.48585">
        <ele>271.509</ele>
        <time>2019-06-16T07:49:14Z</time>
      </trkpt>
      <trkpt lat="45.77493" lon="5.48586">
        <ele>272.656</ele>
        <time>2019-06-16T07:49:21Z</time>
      </trkpt>
      <trkpt lat="45.77507" lon="5.48586">
        <ele>273.384</ele>
        <time>2019-06-16T07:49:28Z</time>
      </trkpt>
      <trkpt lat="45.77517" lon="5.48586">
        <ele>274.921</ele>
        <time>2019-06-16T07:49:34Z</time>
      </trkpt>
      <trkpt lat="45.77529" lon="5.48589">
        <ele>276.422</ele>
        <time>2019-06-16T07:49:40Z</time>
      </trkpt>
      <trkpt lat="45.77538" lon="5.48588">
        <ele>277.633</ele>
        <time>2019-06-16T07:49:47Z</time>
      </trkpt>
      <trkpt lat="45.77545" lon="5.48587">
        <ele>278.498</ele>
        <time>2019-06-16T07:50:38Z</time>
      </trkpt>
      <trkpt lat="45.77562" lon="5.48586">
        <ele>281.145</ele>
        <time>2019-06-16T07:50:48Z</time>
      </trkpt>
      <trkpt lat="45.77583" lon="5.48598">
        <ele>282.322</ele>
        <time>2019-06-16T07:50:59Z</time>
      </trkpt>
      <trkpt lat="45.77599" lon="5.4861">
        <ele>282.388</ele>
        <time>2019-06-16T07:51:07Z</time>
      </trkpt>
      <trkpt lat="45.7761" lon="5.48633">
        <ele>282.813</ele>
        <time>2019-06-16T07:51:15Z</time>
      </trkpt>
      <trkpt lat="45.77623" lon="5.48654">
        <ele>282.051</ele>
        <time>2019-06-16T07:51:21Z</time>
      </trkpt>
      <trkpt lat="45.77642" lon="5.48679">
        <ele>281.607</ele>
        <time>2019-06-16T07:51:29Z</time>
      </trkpt>
      <trkpt lat="45.77658" lon="5.48696">
        <ele>281.375</ele>
        <time>2019-06-16T07:51:37Z</time>
      </trkpt>
      <trkpt lat="45.77671" lon="5.48711">
        <ele>281.616</ele>
        <time>2019-06-16T07:51:47Z</time>
      </trkpt>
      <trkpt lat="45.77674" lon="5.48713">
        <ele>281.795</ele>
        <time>2019-06-16T07:51:49Z</time>
      </trkpt>
      <trkpt lat="45.77689" lon="5.48738">
        <ele>283.296</ele>
        <time>2019-06-16T07:52:00Z</time>
      </trkpt>
      <trkpt lat="45.77703" lon="5.48764">
        <ele>285.118</ele>
        <time>2019-06-16T07:52:10Z</time>
      </trkpt>
      <trkpt lat="45.77713" lon="5.48784">
        <ele>286.22</ele>
        <time>2019-06-16T07:52:18Z</time>
      </trkpt>
      <trkpt lat="45.77723" lon="5.48796">
        <ele>287.858</ele>
        <time>2019-06-16T07:52:26Z</time>
      </trkpt>
      <trkpt lat="45.77723" lon="5.48807">
        <ele>288.45</ele>
        <time>2019-06-16T07:52:32Z</time>
      </trkpt>
      <trkpt lat="45.77709" lon="5.48822">
        <ele>289.693</ele>
        <time>2019-06-16T07:52:41Z</time>
      </trkpt>
      <trkpt lat="45.77696" lon="5.48834">
        <ele>290.559</ele>
        <time>2019-06-16T07:52:49Z</time>
      </trkpt>
      <trkpt lat="45.77688" lon="5.48844">
        <ele>290.883</ele>
        <time>2019-06-16T07:52:55Z</time>
      </trkpt>
      <trkpt lat="45.7767" lon="5.4886">
        <ele>292.228</ele>
        <time>2019-06-16T07:53:05Z</time>
      </trkpt>
      <trkpt lat="45.77648" lon="5.48879">
        <ele>293.45</ele>
        <time>2019-06-16T07:53:16Z</time>
      </trkpt>
      <trkpt lat="45.77644" lon="5.48886">
        <ele>294.224</ele>
        <time>2019-06-16T07:53:20Z</time>
      </trkpt>
      <trkpt lat="45.77649" lon="5.48896">
        <ele>295.424</ele>
        <time>2019-06-16T07:53:26Z</time>
      </trkpt>
      <trkpt lat="45.77653" lon="5.48896">
        <ele>295.682</ele>
        <time>2019-06-16T07:53:28Z</time>
      </trkpt>
      <trkpt lat="45.7766" lon="5.48894">
        <ele>296.241</ele>
        <time>2019-06-16T07:53:33Z</time>
      </trkpt>
      <trkpt lat="45.77677" lon="5.48896">
        <ele>297.942</ele>
        <time>2019-06-16T07:53:42Z</time>
      </trkpt>
      <trkpt lat="45.77681" lon="5.48898">
        <ele>298.236</ele>
        <time>2019-06-16T07:53:44Z</time>
      </trkpt>
      <trkpt lat="45.77685" lon="5.48902">
        <ele>298.713</ele>
        <time>2019-06-16T07:53:47Z</time>
      </trkpt>
      <trkpt lat="45.77692" lon="5.4891">
        <ele>299.939</ele>
        <time>2019-06-16T07:53:53Z</time>
      </trkpt>
      <trkpt lat="45.77695" lon="5.48913">
        <ele>300.204</ele>
        <time>2019-06-16T07:53:55Z</time>
      </trkpt>
      <trkpt lat="45.77701" lon="5.48922">
        <ele>300.932</ele>
        <time>2019-06-16T07:54:00Z</time>
      </trkpt>
      <trkpt lat="45.77707" lon="5.48924">
        <ele>301.875</ele>
        <time>2019-06-16T07:54:04Z</time>
      </trkpt>
      <trkpt lat="45.7771" lon="5.48926">
        <ele>302.687</ele>
        <time>2019-06-16T07:54:06Z</time>
      </trkpt>
      <trkpt lat="45.77714" lon="5.48925">
        <ele>302.615</ele>
        <time>2019-06-16T07:54:11Z</time>
      </trkpt>
      <trkpt lat="45.77728" lon="5.48919">
        <ele>302.556</ele>
        <time>2019-06-16T07:54:20Z</time>
      </trkpt>
      <trkpt lat="45.77746" lon="5.48912">
        <ele>302.515</ele>
        <time>2019-06-16T07:54:28Z</time>
      </trkpt>
      <trkpt lat="45.77765" lon="5.48907">
        <ele>303.701</ele>
        <time>2019-06-16T07:54:37Z</time>
      </trkpt>
      <trkpt lat="45.7779" lon="5.48908">
        <ele>304.842</ele>
        <time>2019-06-16T07:54:48Z</time>
      </trkpt>
      <trkpt lat="45.77799" lon="5.48905">
        <ele>305.245</ele>
        <time>2019-06-16T07:54:54Z</time>
      </trkpt>
      <trkpt lat="45.77802" lon="5.48903">
        <ele>305.386</ele>
        <time>2019-06-16T07:54:56Z</time>
      </trkpt>
      <trkpt lat="45.77807" lon="5.4891">
        <ele>305.872</ele>
        <time>2019-06-16T07:55:02Z</time>
      </trkpt>
      <trkpt lat="45.77812" lon="5.48923">
        <ele>307.022</ele>
        <time>2019-06-16T07:55:09Z</time>
      </trkpt>
      <trkpt lat="45.77822" lon="5.48944">
        <ele>309.459</ele>
        <time>2019-06-16T07:55:23Z</time>
      </trkpt>
      <trkpt lat="45.77829" lon="5.48958">
        <ele>310.764</ele>
        <time>2019-06-16T07:55:34Z</time>
      </trkpt>
      <trkpt lat="45.77836" lon="5.48964">
        <ele>312.199</ele>
        <time>2019-06-16T07:56:31Z</time>
      </trkpt>
      <trkpt lat="45.77845" lon="5.48981">
        <ele>314.116</ele>
        <time>2019-06-16T07:56:44Z</time>
      </trkpt>
      <trkpt lat="45.77855" lon="5.48999">
        <ele>316.413</ele>
        <time>2019-06-16T07:56:57Z</time>
      </trkpt>
      <trkpt lat="45.77861" lon="5.49007">
        <ele>317.401</ele>
        <time>2019-06-16T07:57:02Z</time>
      </trkpt>
      <trkpt lat="45.77863" lon="5.49032">
        <ele>319.595</ele>
        <time>2019-06-16T07:57:14Z</time>
      </trkpt>
      <trkpt lat="45.77865" lon="5.4904">
        <ele>321.24</ele>
        <time>2019-06-16T07:57:18Z</time>
      </trkpt>
      <trkpt lat="45.77868" lon="5.49061">
        <ele>324.169</ele>
        <time>2019-06-16T07:57:29Z</time>
      </trkpt>
      <trkpt lat="45.7787" lon="5.49078">
        <ele>326.282</ele>
        <time>2019-06-16T07:57:37Z</time>
      </trkpt>
      <trkpt lat="45.7787" lon="5.491">
        <ele>328.634</ele>
        <time>2019-06-16T07:57:46Z</time>
      </trkpt>
      <trkpt lat="45.77865" lon="5.49121">
        <ele>330.88</ele>
        <time>2019-06-16T07:57:55Z</time>
      </trkpt>
      <trkpt lat="45.77864" lon="5.49135">
        <ele>331.867</ele>
        <time>2019-06-16T07:58:01Z</time>
      </trkpt>
      <trkpt lat="45.77871" lon="5.49155">
        <ele>333.563</ele>
        <time>2019-06-16T07:58:12Z</time>
      </trkpt>
      <trkpt lat="45.77879" lon="5.49164">
        <ele>334.956</ele>
        <time>2019-06-16T07:58:19Z</time>
      </trkpt>
      <trkpt lat="45.77891" lon="5.49184">
        <ele>337.789</ele>
        <time>2019-06-16T07:58:33Z</time>
      </trkpt>
      <trkpt lat="45.77901" lon="5.49206">
        <ele>339.829</ele>
        <time>2019-06-16T07:58:47Z</time>
      </trkpt>
      <trkpt lat="45.77908" lon="5.49216">
        <ele>340.886</ele>
        <time>2019-06-16T07:58:54Z</time>
      </trkpt>
      <trkpt lat="45.77919" lon="5.4923">
        <ele>342.478</ele>
        <time>2019-06-16T07:59:06Z</time>
      </trkpt>
      <trkpt lat="45.77932" lon="5.49251">
        <ele>344.966</ele>
        <time>2019-06-16T07:59:20Z</time>
      </trkpt>
      <trkpt lat="45.77942" lon="5.49268">
        <ele>347.03</ele>
        <time>2019-06-16T07:59:32Z</time>
      </trkpt>
      <trkpt lat="45.77944" lon="5.49277">
        <ele>347.347</ele>
        <time>2019-06-16T07:59:40Z</time>
      </trkpt>
      <trkpt lat="45.77948" lon="5.49279">
        <ele>346.822</ele>
        <time>2019-06-16T08:01:58Z</time>
      </trkpt>
      <trkpt lat="45.77958" lon="5.49294">
        <ele>346.123</ele>
        <time>2019-06-16T08:03:20Z</time>
      </trkpt>
      <trkpt lat="45.77963" lon="5.49315">
        <ele>346.161</ele>
        <time>2019-06-16T08:03:28Z</time>
      </trkpt>
      <trkpt lat="45.77969" lon="5.49343">
        <ele>345.864</ele>
        <time>2019-06-16T08:03:37Z</time>
      </trkpt>
      <trkpt lat="45.77979" lon="5.49383">
        <ele>345.442</ele>
        <time>2019-06-16T08:03:47Z</time>
      </trkpt>
      <trkpt lat="45.77977" lon="5.49416">
        <ele>345.881</ele>
        <time>2019-06-16T08:03:56Z</time>
      </trkpt>
      <trkpt lat="45.77971" lon="5.49456">
        <ele>344.638</ele>
        <time>2019-06-16T08:04:05Z</time>
      </trkpt>
      <trkpt lat="45.7798" lon="5.49459">
        <ele>343.897</ele>
        <time>2019-06-16T08:04:06Z</time>
      </trkpt>
      <trkpt lat="45.77984" lon="5.49488">
        <ele>343.178</ele>
        <time>2019-06-16T08:04:12Z</time>
      </trkpt>
      <trkpt lat="45.77987" lon="5.49493">
        <ele>342.96</ele>
        <time>2019-06-16T08:04:17Z</time>
      </trkpt>
      <trkpt lat="45.77991" lon="5.49499">
        <ele>343.483</ele>
        <time>2019-06-16T08:04:21Z</time>
      </trkpt>
      <trkpt lat="45.78" lon="5.49527">
        <ele>341.981</ele>
        <time>2019-06-16T08:04:28Z</time>
      </trkpt>
      <trkpt lat="45.77997" lon="5.4956">
        <ele>340.486</ele>
        <time>2019-06-16T08:04:34Z</time>
      </trkpt>
      <trkpt lat="45.77991" lon="5.49585">
        <ele>340.512</ele>
        <time>2019-06-16T08:04:40Z</time>
      </trkpt>
      <trkpt lat="45.77988" lon="5.496">
        <ele>340.353</ele>
        <time>2019-06-16T08:04:45Z</time>
      </trkpt>
      <trkpt lat="45.77972" lon="5.49628">
        <ele>339.954</ele>
        <time>2019-06-16T08:04:54Z</time>
      </trkpt>
      <trkpt lat="45.77961" lon="5.49643">
        <ele>340.315</ele>
        <time>2019-06-16T08:05:01Z</time>
      </trkpt>
      <trkpt lat="45.77947" lon="5.49663">
        <ele>340.979</ele>
        <time>2019-06-16T08:05:09Z</time>
      </trkpt>
      <trkpt lat="45.77941" lon="5.49677">
        <ele>339.976</ele>
        <time>2019-06-16T08:05:13Z</time>
      </trkpt>
      <trkpt lat="45.77931" lon="5.49698">
        <ele>339.309</ele>
        <time>2019-06-16T08:05:19Z</time>
      </trkpt>
      <trkpt lat="45.77922" lon="5.49729">
        <ele>339.091</ele>
        <time>2019-06-16T08:05:26Z</time>
      </trkpt>
      <trkpt lat="45.77911" lon="5.49753">
        <ele>339.654</ele>
        <time>2019-06-16T08:05:32Z</time>
      </trkpt>
      <trkpt lat="45.77895" lon="5.49768">
        <ele>338.902</ele>
        <time>2019-06-16T08:05:38Z</time>
      </trkpt>
      <trkpt lat="45.77879" lon="5.49785">
        <ele>338.585</ele>
        <time>2019-06-16T08:05:45Z</time>
      </trkpt>
      <trkpt lat="45.77863" lon="5.49807">
        <ele>338.576</ele>
        <time>2019-06-16T08:05:51Z</time>
      </trkpt>
      <trkpt lat="45.77856" lon="5.49833">
        <ele>339.567</ele>
        <time>2019-06-16T08:05:59Z</time>
      </trkpt>
      <trkpt lat="45.77848" lon="5.49851">
        <ele>339.745</ele>
        <time>2019-06-16T08:06:06Z</time>
      </trkpt>
      <trkpt lat="45.77839" lon="5.49866">
        <ele>339.91</ele>
        <time>2019-06-16T08:06:12Z</time>
      </trkpt>
      <trkpt lat="45.77826" lon="5.49888">
        <ele>339.705</ele>
        <time>2019-06-16T08:06:19Z</time>
      </trkpt>
      <trkpt lat="45.7781" lon="5.49911">
        <ele>339.71</ele>
        <time>2019-06-16T08:06:27Z</time>
      </trkpt>
      <trkpt lat="45.77795" lon="5.49927">
        <ele>339.687</ele>
        <time>2019-06-16T08:06:34Z</time>
      </trkpt>
      <trkpt lat="45.77776" lon="5.49946">
        <ele>339.595</ele>
        <time>2019-06-16T08:06:41Z</time>
      </trkpt>
      <trkpt lat="45.77754" lon="5.49967">
        <ele>339.357</ele>
        <time>2019-06-16T08:06:49Z</time>
      </trkpt>
      <trkpt lat="45.77734" lon="5.49986">
        <ele>339.477</ele>
        <time>2019-06-16T08:06:59Z</time>
      </trkpt>
      <trkpt lat="45.7772" lon="5.50001">
        <ele>339.366</ele>
        <time>2019-06-16T08:07:07Z</time>
      </trkpt>
      <trkpt lat="45.77705" lon="5.50015">
        <ele>339.22</ele>
        <time>2019-06-16T08:07:14Z</time>
      </trkpt>
      <trkpt lat="45.77692" lon="5.50026">
        <ele>339.061</ele>
        <time>2019-06-16T08:07:21Z</time>
      </trkpt>
      <trkpt lat="45.77676" lon="5.50035">
        <ele>339.399</ele>
        <time>2019-06-16T08:07:27Z</time>
      </trkpt>
      <trkpt lat="45.77663" lon="5.50045">
        <ele>338.623</ele>
        <time>2019-06-16T08:07:33Z</time>
      </trkpt>
      <trkpt lat="45.77644" lon="5.50056">
        <ele>337.017</ele>
        <time>2019-06-16T08:07:39Z</time>
      </trkpt>
      <trkpt lat="45.77624" lon="5.50067">
        <ele>335.551</ele>
        <time>2019-06-16T08:07:44Z</time>
      </trkpt>
      <trkpt lat="45.77601" lon="5.50088">
        <ele>334.829</ele>
        <time>2019-06-16T08:07:50Z</time>
      </trkpt>
      <trkpt lat="45.77575" lon="5.50094">
        <ele>334.143</ele>
        <time>2019-06-16T08:07:55Z</time>
      </trkpt>
      <trkpt lat="45.77572" lon="5.50097">
        <ele>333.541</ele>
        <time>2019-06-16T08:07:56Z</time>
      </trkpt>
      <trkpt lat="45.7756" lon="5.50105">
        <ele>332.792</ele>
        <time>2019-06-16T08:07:59Z</time>
      </trkpt>
      <trkpt lat="45.77552" lon="5.50146">
        <ele>333.269</ele>
        <time>2019-06-16T08:08:06Z</time>
      </trkpt>
      <trkpt lat="45.77557" lon="5.50157">
        <ele>333.05</ele>
        <time>2019-06-16T08:08:12Z</time>
      </trkpt>
      <trkpt lat="45.77563" lon="5.50153">
        <ele>332.256</ele>
        <time>2019-06-16T08:08:21Z</time>
      </trkpt>
      <trkpt lat="45.77579" lon="5.50144">
        <ele>331.367</ele>
        <time>2019-06-16T08:08:27Z</time>
      </trkpt>
      <trkpt lat="45.77596" lon="5.50124">
        <ele>330.791</ele>
        <time>2019-06-16T08:08:33Z</time>
      </trkpt>
      <trkpt lat="45.7761" lon="5.50118">
        <ele>330.38</ele>
        <time>2019-06-16T08:08:38Z</time>
      </trkpt>
      <trkpt lat="45.77624" lon="5.50112">
        <ele>330.549</ele>
        <time>2019-06-16T08:08:43Z</time>
      </trkpt>
      <trkpt lat="45.77654" lon="5.50098">
        <ele>329.398</ele>
        <time>2019-06-16T08:08:51Z</time>
      </trkpt>
      <trkpt lat="45.7767" lon="5.50095">
        <ele>329.262</ele>
        <time>2019-06-16T08:08:55Z</time>
      </trkpt>
      <trkpt lat="45.77694" lon="5.50096">
        <ele>328.816</ele>
        <time>2019-06-16T08:09:01Z</time>
      </trkpt>
      <trkpt lat="45.77715" lon="5.50097">
        <ele>329.294</ele>
        <time>2019-06-16T08:09:05Z</time>
      </trkpt>
      <trkpt lat="45.77731" lon="5.50096">
        <ele>329.635</ele>
        <time>2019-06-16T08:09:10Z</time>
      </trkpt>
      <trkpt lat="45.77742" lon="5.50094">
        <ele>329.601</ele>
        <time>2019-06-16T08:09:15Z</time>
      </trkpt>
      <trkpt lat="45.77762" lon="5.50084">
        <ele>329.87</ele>
        <time>2019-06-16T08:09:20Z</time>
      </trkpt>
      <trkpt lat="45.77776" lon="5.50081">
        <ele>329.897</ele>
        <time>2019-06-16T08:09:23Z</time>
      </trkpt>
      <trkpt lat="45.77794" lon="5.5008">
        <ele>329.23</ele>
        <time>2019-06-16T08:09:29Z</time>
      </trkpt>
      <trkpt lat="45.77806" lon="5.5008">
        <ele>329.921</ele>
        <time>2019-06-16T08:09:35Z</time>
      </trkpt>
      <trkpt lat="45.77821" lon="5.50077">
        <ele>330.084</ele>
        <time>2019-06-16T08:09:40Z</time>
      </trkpt>
      <trkpt lat="45.7784" lon="5.50072">
        <ele>329.199</ele>
        <time>2019-06-16T08:09:47Z</time>
      </trkpt>
      <trkpt lat="45.77853" lon="5.50069">
        <ele>329.668</ele>
        <time>2019-06-16T08:09:51Z</time>
      </trkpt>
      <trkpt lat="45.77858" lon="5.50068">
        <ele>329.675</ele>
        <time>2019-06-16T08:09:56Z</time>
      </trkpt>
      <trkpt lat="45.77871" lon="5.50064">
        <ele>329.676</ele>
        <time>2019-06-16T08:10:00Z</time>
      </trkpt>
      <trkpt lat="45.77889" lon="5.50055">
        <ele>329.595</ele>
        <time>2019-06-16T08:10:05Z</time>
      </trkpt>
      <trkpt lat="45.77901" lon="5.50043">
        <ele>329.778</ele>
        <time>2019-06-16T08:10:10Z</time>
      </trkpt>
      <trkpt lat="45.77914" lon="5.50029">
        <ele>329.087</ele>
        <time>2019-06-16T08:10:15Z</time>
      </trkpt>
      <trkpt lat="45.77924" lon="5.50019">
        <ele>329.683</ele>
        <time>2019-06-16T08:10:20Z</time>
      </trkpt>
      <trkpt lat="45.77941" lon="5.50008">
        <ele>329.585</ele>
        <time>2019-06-16T08:10:26Z</time>
      </trkpt>
      <trkpt lat="45.77957" lon="5.49994">
        <ele>330.19</ele>
        <time>2019-06-16T08:10:32Z</time>
      </trkpt>
      <trkpt lat="45.77976" lon="5.49988">
        <ele>330.651</ele>
        <time>2019-06-16T08:10:38Z</time>
      </trkpt>
      <trkpt lat="45.77992" lon="5.49982">
        <ele>330.493</ele>
        <time>2019-06-16T08:10:43Z</time>
      </trkpt>
      <trkpt lat="45.77994" lon="5.4998">
        <ele>330.678</ele>
        <time>2019-06-16T08:10:44Z</time>
      </trkpt>
      <trkpt lat="45.78024" lon="5.49969">
        <ele>331.051</ele>
        <time>2019-06-16T08:10:52Z</time>
      </trkpt>
      <trkpt lat="45.78039" lon="5.49967">
        <ele>332.332</ele>
        <time>2019-06-16T08:10:56Z</time>
      </trkpt>
      <trkpt lat="45.78056" lon="5.49988">
        <ele>332.973</ele>
        <time>2019-06-16T08:11:02Z</time>
      </trkpt>
      <trkpt lat="45.78074" lon="5.50025">
        <ele>334.182</ele>
        <time>2019-06-16T08:11:11Z</time>
      </trkpt>
      <trkpt lat="45.78075" lon="5.50029">
        <ele>334.457</ele>
        <time>2019-06-16T08:11:12Z</time>
      </trkpt>
      <trkpt lat="45.78069" lon="5.50068">
        <ele>335.258</ele>
        <time>2019-06-16T08:11:21Z</time>
      </trkpt>
      <trkpt lat="45.78069" lon="5.50071">
        <ele>335.92</ele>
        <time>2019-06-16T08:11:22Z</time>
      </trkpt>
      <trkpt lat="45.78073" lon="5.50108">
        <ele>335.935</ele>
        <time>2019-06-16T08:11:30Z</time>
      </trkpt>
      <trkpt lat="45.78078" lon="5.50119">
        <ele>336.086</ele>
        <time>2019-06-16T08:11:33Z</time>
      </trkpt>
      <trkpt lat="45.78089" lon="5.50146">
        <ele>337.403</ele>
        <time>2019-06-16T08:11:42Z</time>
      </trkpt>
      <trkpt lat="45.7809" lon="5.50169">
        <ele>337.429</ele>
        <time>2019-06-16T08:11:48Z</time>
      </trkpt>
      <trkpt lat="45.78095" lon="5.50191">
        <ele>337.498</ele>
        <time>2019-06-16T08:11:53Z</time>
      </trkpt>
      <trkpt lat="45.78099" lon="5.50208">
        <ele>338.321</ele>
        <time>2019-06-16T08:11:57Z</time>
      </trkpt>
      <trkpt lat="45.78105" lon="5.50234">
        <ele>338.439</ele>
        <time>2019-06-16T08:12:03Z</time>
      </trkpt>
      <trkpt lat="45.78114" lon="5.50247">
        <ele>338.571</ele>
        <time>2019-06-16T08:12:07Z</time>
      </trkpt>
      <trkpt lat="45.78132" lon="5.5027">
        <ele>339.478</ele>
        <time>2019-06-16T08:12:14Z</time>
      </trkpt>
      <trkpt lat="45.78138" lon="5.50302">
        <ele>339.827</ele>
        <time>2019-06-16T08:12:21Z</time>
      </trkpt>
      <trkpt lat="45.78141" lon="5.50331">
        <ele>340.651</ele>
        <time>2019-06-16T08:12:28Z</time>
      </trkpt>
      <trkpt lat="45.78139" lon="5.50346">
        <ele>341.511</ele>
        <time>2019-06-16T08:12:32Z</time>
      </trkpt>
      <trkpt lat="45.7814" lon="5.50357">
        <ele>341.884</ele>
        <time>2019-06-16T08:12:35Z</time>
      </trkpt>
      <trkpt lat="45.78142" lon="5.50375">
        <ele>343.45</ele>
        <time>2019-06-16T08:12:41Z</time>
      </trkpt>
      <trkpt lat="45.78143" lon="5.5038">
        <ele>343.858</ele>
        <time>2019-06-16T08:12:43Z</time>
      </trkpt>
      <trkpt lat="45.78139" lon="5.50407">
        <ele>344.277</ele>
        <time>2019-06-16T08:12:50Z</time>
      </trkpt>
      <trkpt lat="45.78141" lon="5.50427">
        <ele>345.364</ele>
        <time>2019-06-16T08:12:56Z</time>
      </trkpt>
      <trkpt lat="45.78142" lon="5.50437">
        <ele>346.325</ele>
        <time>2019-06-16T08:13:00Z</time>
      </trkpt>
      <trkpt lat="45.78141" lon="5.5046">
        <ele>346.758</ele>
        <time>2019-06-16T08:13:06Z</time>
      </trkpt>
      <trkpt lat="45.78134" lon="5.50499">
        <ele>347.054</ele>
        <time>2019-06-16T08:13:16Z</time>
      </trkpt>
      <trkpt lat="45.78128" lon="5.50521">
        <ele>347.91</ele>
        <time>2019-06-16T08:13:22Z</time>
      </trkpt>
      <trkpt lat="45.78127" lon="5.50529">
        <ele>347.559</ele>
        <time>2019-06-16T08:13:24Z</time>
      </trkpt>
      <trkpt lat="45.78122" lon="5.50557">
        <ele>347.988</ele>
        <time>2019-06-16T08:13:31Z</time>
      </trkpt>
      <trkpt lat="45.7812" lon="5.50585">
        <ele>348.451</ele>
        <time>2019-06-16T08:13:38Z</time>
      </trkpt>
      <trkpt lat="45.78115" lon="5.50602">
        <ele>349.492</ele>
        <time>2019-06-16T08:13:43Z</time>
      </trkpt>
      <trkpt lat="45.78104" lon="5.50628">
        <ele>350.341</ele>
        <time>2019-06-16T08:13:50Z</time>
      </trkpt>
      <trkpt lat="45.78101" lon="5.50649">
        <ele>351.98</ele>
        <time>2019-06-16T08:13:57Z</time>
      </trkpt>
      <trkpt lat="45.78101" lon="5.50652">
        <ele>352.671</ele>
        <time>2019-06-16T08:13:58Z</time>
      </trkpt>
      <trkpt lat="45.78102" lon="5.50664">
        <ele>353.202</ele>
        <time>2019-06-16T08:14:02Z</time>
      </trkpt>
      <trkpt lat="45.78102" lon="5.50671">
        <ele>353.423</ele>
        <time>2019-06-16T08:14:04Z</time>
      </trkpt>
      <trkpt lat="45.78094" lon="5.50687">
        <ele>354.874</ele>
        <time>2019-06-16T08:14:09Z</time>
      </trkpt>
      <trkpt lat="45.78092" lon="5.50697">
        <ele>354.815</ele>
        <time>2019-06-16T08:14:12Z</time>
      </trkpt>
      <trkpt lat="45.78091" lon="5.50704">
        <ele>354.591</ele>
        <time>2019-06-16T08:14:14Z</time>
      </trkpt>
      <trkpt lat="45.78086" lon="5.50724">
        <ele>354.224</ele>
        <time>2019-06-16T08:14:18Z</time>
      </trkpt>
      <trkpt lat="45.78091" lon="5.50769">
        <ele>352.401</ele>
        <time>2019-06-16T08:14:26Z</time>
      </trkpt>
      <trkpt lat="45.78096" lon="5.50793">
        <ele>351.841</ele>
        <time>2019-06-16T08:14:33Z</time>
      </trkpt>
      <trkpt lat="45.78097" lon="5.50797">
        <ele>353.804</ele>
        <time>2019-06-16T08:14:41Z</time>
      </trkpt>
      <trkpt lat="45.78141" lon="5.50877">
        <ele>347.211</ele>
        <time>2019-06-16T08:16:14Z</time>
      </trkpt>
      <trkpt lat="45.78136" lon="5.50882">
        <ele>346.898</ele>
        <time>2019-06-16T08:16:20Z</time>
      </trkpt>
      <trkpt lat="45.78135" lon="5.50888">
        <ele>345.702</ele>
        <time>2019-06-16T08:16:33Z</time>
      </trkpt>
      <trkpt lat="45.78131" lon="5.50894">
        <ele>344.594</ele>
        <time>2019-06-16T08:16:36Z</time>
      </trkpt>
      <trkpt lat="45.78133" lon="5.50899">
        <ele>343.882</ele>
        <time>2019-06-16T08:16:38Z</time>
      </trkpt>
      <trkpt lat="45.78134" lon="5.50903">
        <ele>343.379</ele>
        <time>2019-06-16T08:16:40Z</time>
      </trkpt>
      <trkpt lat="45.78133" lon="5.50911">
        <ele>341.689</ele>
        <time>2019-06-16T08:16:44Z</time>
      </trkpt>
      <trkpt lat="45.78132" lon="5.50922">
        <ele>342.162</ele>
        <time>2019-06-16T08:16:51Z</time>
      </trkpt>
      <trkpt lat="45.78134" lon="5.5093">
        <ele>342.286</ele>
        <time>2019-06-16T08:16:56Z</time>
      </trkpt>
      <trkpt lat="45.78135" lon="5.50939">
        <ele>342.907</ele>
        <time>2019-06-16T08:17:03Z</time>
      </trkpt>
      <trkpt lat="45.78133" lon="5.50949">
        <ele>341.568</ele>
        <time>2019-06-16T08:17:17Z</time>
      </trkpt>
      <trkpt lat="45.78132" lon="5.50953">
        <ele>341.133</ele>
        <time>2019-06-16T08:17:19Z</time>
      </trkpt>
      <trkpt lat="45.7813" lon="5.50962">
        <ele>339.642</ele>
        <time>2019-06-16T08:17:22Z</time>
      </trkpt>
      <trkpt lat="45.78128" lon="5.50968">
        <ele>339.212</ele>
        <time>2019-06-16T08:17:24Z</time>
      </trkpt>
      <trkpt lat="45.78133" lon="5.5099">
        <ele>339.494</ele>
        <time>2019-06-16T08:17:30Z</time>
      </trkpt>
      <trkpt lat="45.78135" lon="5.51001">
        <ele>339.957</ele>
        <time>2019-06-16T08:17:33Z</time>
      </trkpt>
      <trkpt lat="45.78137" lon="5.51011">
        <ele>341.085</ele>
        <time>2019-06-16T08:17:39Z</time>
      </trkpt>
      <trkpt lat="45.78138" lon="5.51017">
        <ele>341.894</ele>
        <time>2019-06-16T08:17:44Z</time>
      </trkpt>
      <trkpt lat="45.78138" lon="5.51031">
        <ele>341.772</ele>
        <time>2019-06-16T08:17:52Z</time>
      </trkpt>
      <trkpt lat="45.78132" lon="5.5104">
        <ele>341.603</ele>
        <time>2019-06-16T08:17:59Z</time>
      </trkpt>
      <trkpt lat="45.7813" lon="5.51042">
        <ele>341.424</ele>
        <time>2019-06-16T08:18:01Z</time>
      </trkpt>
      <trkpt lat="45.78124" lon="5.51053">
        <ele>341.507</ele>
        <time>2019-06-16T08:18:07Z</time>
      </trkpt>
      <trkpt lat="45.78114" lon="5.51065">
        <ele>340.895</ele>
        <time>2019-06-16T08:18:13Z</time>
      </trkpt>
      <trkpt lat="45.78109" lon="5.51069">
        <ele>342.152</ele>
        <time>2019-06-16T08:18:15Z</time>
      </trkpt>
      <trkpt lat="45.781" lon="5.51084">
        <ele>343.504</ele>
        <time>2019-06-16T08:18:22Z</time>
      </trkpt>
      <trkpt lat="45.78098" lon="5.51087">
        <ele>343.416</ele>
        <time>2019-06-16T08:18:24Z</time>
      </trkpt>
      <trkpt lat="45.78091" lon="5.51095">
        <ele>343.358</ele>
        <time>2019-06-16T08:18:28Z</time>
      </trkpt>
      <trkpt lat="45.78083" lon="5.51111">
        <ele>345.504</ele>
        <time>2019-06-16T08:18:36Z</time>
      </trkpt>
      <trkpt lat="45.78081" lon="5.51115">
        <ele>345.316</ele>
        <time>2019-06-16T08:18:49Z</time>
      </trkpt>
      <trkpt lat="45.78079" lon="5.51118">
        <ele>346.346</ele>
        <time>2019-06-16T08:26:38Z</time>
      </trkpt>
      <trkpt lat="45.78077" lon="5.51127">
        <ele>345.021</ele>
        <time>2019-06-16T08:26:43Z</time>
      </trkpt>
      <trkpt lat="45.78069" lon="5.5114">
        <ele>343.378</ele>
        <time>2019-06-16T08:26:48Z</time>
      </trkpt>
      <trkpt lat="45.78059" lon="5.51154">
        <ele>343.657</ele>
        <time>2019-06-16T08:26:54Z</time>
      </trkpt>
      <trkpt lat="45.78053" lon="5.51166">
        <ele>342.16</ele>
        <time>2019-06-16T08:26:59Z</time>
      </trkpt>
      <trkpt lat="45.78049" lon="5.51178">
        <ele>342.269</ele>
        <time>2019-06-16T08:27:03Z</time>
      </trkpt>
      <trkpt lat="45.78049" lon="5.51188">
        <ele>342.589</ele>
        <time>2019-06-16T08:27:07Z</time>
      </trkpt>
      <trkpt lat="45.78044" lon="5.51207">
        <ele>341.761</ele>
        <time>2019-06-16T08:27:14Z</time>
      </trkpt>
      <trkpt lat="45.78034" lon="5.5122">
        <ele>342.283</ele>
        <time>2019-06-16T08:27:21Z</time>
      </trkpt>
      <trkpt lat="45.7803" lon="5.51226">
        <ele>342.577</ele>
        <time>2019-06-16T08:27:28Z</time>
      </trkpt>
      <trkpt lat="45.78024" lon="5.51237">
        <ele>342.576</ele>
        <time>2019-06-16T08:27:34Z</time>
      </trkpt>
      <trkpt lat="45.7802" lon="5.5125">
        <ele>343.589</ele>
        <time>2019-06-16T08:27:39Z</time>
      </trkpt>
      <trkpt lat="45.78019" lon="5.5127">
        <ele>343.391</ele>
        <time>2019-06-16T08:27:46Z</time>
      </trkpt>
      <trkpt lat="45.78018" lon="5.51289">
        <ele>343.685</ele>
        <time>2019-06-16T08:27:51Z</time>
      </trkpt>
      <trkpt lat="45.7802" lon="5.5132">
        <ele>343.607</ele>
        <time>2019-06-16T08:27:57Z</time>
      </trkpt>
      <trkpt lat="45.78021" lon="5.51342">
        <ele>342.327</ele>
        <time>2019-06-16T08:28:01Z</time>
      </trkpt>
      <trkpt lat="45.78017" lon="5.51373">
        <ele>343.328</ele>
        <time>2019-06-16T08:28:05Z</time>
      </trkpt>
      <trkpt lat="45.78014" lon="5.5139">
        <ele>344.295</ele>
        <time>2019-06-16T08:28:11Z</time>
      </trkpt>
      <trkpt lat="45.78012" lon="5.51409">
        <ele>345.588</ele>
        <time>2019-06-16T08:28:18Z</time>
      </trkpt>
      <trkpt lat="45.78016" lon="5.5143">
        <ele>344.639</ele>
        <time>2019-06-16T08:28:24Z</time>
      </trkpt>
      <trkpt lat="45.78019" lon="5.51439">
        <ele>343.564</ele>
        <time>2019-06-16T08:28:31Z</time>
      </trkpt>
      <trkpt lat="45.78026" lon="5.51436">
        <ele>340.703</ele>
        <time>2019-06-16T08:29:40Z</time>
      </trkpt>
      <trkpt lat="45.78035" lon="5.51429">
        <ele>338.155</ele>
        <time>2019-06-16T08:29:44Z</time>
      </trkpt>
      <trkpt lat="45.78038" lon="5.51426">
        <ele>336.62</ele>
        <time>2019-06-16T08:29:46Z</time>
      </trkpt>
      <trkpt lat="45.7804" lon="5.51423">
        <ele>335.35</ele>
        <time>2019-06-16T08:29:48Z</time>
      </trkpt>
      <trkpt lat="45.78049" lon="5.51414">
        <ele>332.542</ele>
        <time>2019-06-16T08:29:53Z</time>
      </trkpt>
      <trkpt lat="45.78051" lon="5.5141">
        <ele>331.61</ele>
        <time>2019-06-16T08:29:55Z</time>
      </trkpt>
      <trkpt lat="45.78055" lon="5.51396">
        <ele>328.654</ele>
        <time>2019-06-16T08:30:00Z</time>
      </trkpt>
      <trkpt lat="45.78054" lon="5.51394">
        <ele>328.655</ele>
        <time>2019-06-16T08:30:01Z</time>
      </trkpt>
      <trkpt lat="45.78056" lon="5.51384">
        <ele>326.088</ele>
        <time>2019-06-16T08:30:08Z</time>
      </trkpt>
      <trkpt lat="45.78058" lon="5.51377">
        <ele>325.62</ele>
        <time>2019-06-16T08:30:15Z</time>
      </trkpt>
      <trkpt lat="45.78058" lon="5.51371">
        <ele>325.13</ele>
        <time>2019-06-16T08:30:22Z</time>
      </trkpt>
      <trkpt lat="45.78059" lon="5.51368">
        <ele>325.266</ele>
        <time>2019-06-16T08:33:14Z</time>
      </trkpt>
      <trkpt lat="45.78065" lon="5.51367">
        <ele>324.249</ele>
        <time>2019-06-16T08:33:20Z</time>
      </trkpt>
      <trkpt lat="45.78064" lon="5.51374">
        <ele>324.187</ele>
        <time>2019-06-16T08:33:29Z</time>
      </trkpt>
      <trkpt lat="45.78066" lon="5.51382">
        <ele>324.346</ele>
        <time>2019-06-16T08:33:33Z</time>
      </trkpt>
      <trkpt lat="45.78072" lon="5.51382">
        <ele>324.555</ele>
        <time>2019-06-16T08:33:39Z</time>
      </trkpt>
      <trkpt lat="45.78077" lon="5.51382">
        <ele>324.68</ele>
        <time>2019-06-16T08:33:44Z</time>
      </trkpt>
      <trkpt lat="45.78079" lon="5.51382">
        <ele>325.013</ele>
        <time>2019-06-16T08:35:10Z</time>
      </trkpt>
      <trkpt lat="45.78084" lon="5.51382">
        <ele>324.75</ele>
        <time>2019-06-16T08:35:23Z</time>
      </trkpt>
      <trkpt lat="45.78089" lon="5.51382">
        <ele>325.131</ele>
        <time>2019-06-16T08:35:30Z</time>
      </trkpt>
      <trkpt lat="45.78093" lon="5.51381">
        <ele>325.553</ele>
        <time>2019-06-16T08:35:39Z</time>
      </trkpt>
      <trkpt lat="45.78094" lon="5.51384">
        <ele>325.534</ele>
        <time>2019-06-16T08:35:47Z</time>
      </trkpt>
      <trkpt lat="45.78097" lon="5.5139">
        <ele>326.235</ele>
        <time>2019-06-16T08:35:53Z</time>
      </trkpt>
      <trkpt lat="45.78096" lon="5.51395">
        <ele>326.156</ele>
        <time>2019-06-16T08:40:12Z</time>
      </trkpt>
      <trkpt lat="45.78096" lon="5.51402">
        <ele>326.029</ele>
        <time>2019-06-16T08:40:16Z</time>
      </trkpt>
      <trkpt lat="45.78098" lon="5.5142">
        <ele>325.997</ele>
        <time>2019-06-16T08:40:21Z</time>
      </trkpt>
      <trkpt lat="45.78104" lon="5.51453">
        <ele>326.998</ele>
        <time>2019-06-16T08:40:30Z</time>
      </trkpt>
      <trkpt lat="45.7811" lon="5.51473">
        <ele>327.125</ele>
        <time>2019-06-16T08:40:38Z</time>
      </trkpt>
      <trkpt lat="45.78121" lon="5.51482">
        <ele>328.264</ele>
        <time>2019-06-16T08:40:46Z</time>
      </trkpt>
      <trkpt lat="45.78134" lon="5.51489">
        <ele>331.852</ele>
        <time>2019-06-16T08:40:56Z</time>
      </trkpt>
      <trkpt lat="45.78147" lon="5.51495">
        <ele>335.699</ele>
        <time>2019-06-16T08:41:06Z</time>
      </trkpt>
      <trkpt lat="45.78159" lon="5.51497">
        <ele>337.846</ele>
        <time>2019-06-16T08:41:16Z</time>
      </trkpt>
      <trkpt lat="45.78162" lon="5.51496">
        <ele>337.918</ele>
        <time>2019-06-16T08:41:18Z</time>
      </trkpt>
      <trkpt lat="45.7817" lon="5.51502">
        <ele>340.115</ele>
        <time>2019-06-16T08:41:25Z</time>
      </trkpt>
      <trkpt lat="45.78179" lon="5.51504">
        <ele>340.676</ele>
        <time>2019-06-16T08:41:32Z</time>
      </trkpt>
      <trkpt lat="45.7818" lon="5.51496">
        <ele>341.334</ele>
        <time>2019-06-16T08:41:37Z</time>
      </trkpt>
      <trkpt lat="45.78181" lon="5.51492">
        <ele>341.628</ele>
        <time>2019-06-16T08:41:39Z</time>
      </trkpt>
      <trkpt lat="45.78182" lon="5.51487">
        <ele>342.799</ele>
        <time>2019-06-16T08:41:42Z</time>
      </trkpt>
      <trkpt lat="45.78182" lon="5.51479">
        <ele>343.567</ele>
        <time>2019-06-16T08:41:46Z</time>
      </trkpt>
      <trkpt lat="45.7818" lon="5.51458">
        <ele>345.601</ele>
        <time>2019-06-16T08:41:57Z</time>
      </trkpt>
      <trkpt lat="45.78177" lon="5.51445">
        <ele>346.219</ele>
        <time>2019-06-16T08:42:06Z</time>
      </trkpt>
      <trkpt lat="45.78174" lon="5.51436">
        <ele>347.319</ele>
        <time>2019-06-16T08:42:14Z</time>
      </trkpt>
      <trkpt lat="45.78168" lon="5.51426">
        <ele>348.551</ele>
        <time>2019-06-16T08:42:21Z</time>
      </trkpt>
      <trkpt lat="45.78161" lon="5.51417">
        <ele>349.824</ele>
        <time>2019-06-16T08:42:29Z</time>
      </trkpt>
      <trkpt lat="45.78156" lon="5.51404">
        <ele>351.435</ele>
        <time>2019-06-16T08:42:38Z</time>
      </trkpt>
      <trkpt lat="45.78156" lon="5.51396">
        <ele>352.269</ele>
        <time>2019-06-16T08:42:42Z</time>
      </trkpt>
      <trkpt lat="45.78162" lon="5.51381">
        <ele>353.356</ele>
        <time>2019-06-16T08:42:50Z</time>
      </trkpt>
      <trkpt lat="45.78168" lon="5.5136">
        <ele>355.052</ele>
        <time>2019-06-16T08:43:01Z</time>
      </trkpt>
      <trkpt lat="45.78171" lon="5.51355">
        <ele>355.869</ele>
        <time>2019-06-16T08:43:05Z</time>
      </trkpt>
      <trkpt lat="45.7818" lon="5.51341">
        <ele>356.713</ele>
        <time>2019-06-16T08:43:14Z</time>
      </trkpt>
      <trkpt lat="45.78185" lon="5.51333">
        <ele>356.899</ele>
        <time>2019-06-16T08:43:18Z</time>
      </trkpt>
      <trkpt lat="45.78191" lon="5.51318">
        <ele>356.831</ele>
        <time>2019-06-16T08:43:26Z</time>
      </trkpt>
      <trkpt lat="45.78197" lon="5.51298">
        <ele>358.194</ele>
        <time>2019-06-16T08:43:34Z</time>
      </trkpt>
      <trkpt lat="45.78198" lon="5.51281">
        <ele>358.972</ele>
        <time>2019-06-16T08:43:41Z</time>
      </trkpt>
      <trkpt lat="45.78199" lon="5.51263">
        <ele>360.837</ele>
        <time>2019-06-16T08:43:50Z</time>
      </trkpt>
      <trkpt lat="45.78201" lon="5.51266">
        <ele>360.69</ele>
        <time>2019-06-16T08:48:00Z</time>
      </trkpt>
      <trkpt lat="45.78206" lon="5.51284">
        <ele>360.925</ele>
        <time>2019-06-16T08:48:09Z</time>
      </trkpt>
      <trkpt lat="45.78208" lon="5.51311">
        <ele>360.953</ele>
        <time>2019-06-16T08:48:18Z</time>
      </trkpt>
      <trkpt lat="45.7821" lon="5.51337">
        <ele>362.599</ele>
        <time>2019-06-16T08:48:28Z</time>
      </trkpt>
      <trkpt lat="45.7821" lon="5.51359">
        <ele>363.688</ele>
        <time>2019-06-16T08:48:38Z</time>
      </trkpt>
      <trkpt lat="45.78211" lon="5.51367">
        <ele>364.249</ele>
        <time>2019-06-16T08:48:42Z</time>
      </trkpt>
      <trkpt lat="45.78215" lon="5.5139">
        <ele>366.71</ele>
        <time>2019-06-16T08:48:52Z</time>
      </trkpt>
      <trkpt lat="45.78224" lon="5.51411">
        <ele>368.935</ele>
        <time>2019-06-16T08:49:03Z</time>
      </trkpt>
      <trkpt lat="45.78231" lon="5.51439">
        <ele>371.504</ele>
        <time>2019-06-16T08:49:13Z</time>
      </trkpt>
      <trkpt lat="45.78235" lon="5.51456">
        <ele>372.812</ele>
        <time>2019-06-16T08:49:19Z</time>
      </trkpt>
      <trkpt lat="45.78249" lon="5.51493">
        <ele>375.493</ele>
        <time>2019-06-16T08:49:33Z</time>
      </trkpt>
      <trkpt lat="45.78258" lon="5.51512">
        <ele>376.746</ele>
        <time>2019-06-16T08:49:41Z</time>
      </trkpt>
      <trkpt lat="45.7826" lon="5.51521">
        <ele>376.59</ele>
        <time>2019-06-16T08:49:44Z</time>
      </trkpt>
      <trkpt lat="45.78276" lon="5.51537">
        <ele>375.734</ele>
        <time>2019-06-16T08:49:51Z</time>
      </trkpt>
      <trkpt lat="45.7828" lon="5.51539">
        <ele>375.73</ele>
        <time>2019-06-16T08:49:52Z</time>
      </trkpt>
      <trkpt lat="45.78305" lon="5.5156">
        <ele>375.584</ele>
        <time>2019-06-16T08:50:00Z</time>
      </trkpt>
      <trkpt lat="45.78321" lon="5.51574">
        <ele>375.355</ele>
        <time>2019-06-16T08:50:07Z</time>
      </trkpt>
      <trkpt lat="45.78338" lon="5.51596">
        <ele>373.458</ele>
        <time>2019-06-16T08:50:11Z</time>
      </trkpt>
      <trkpt lat="45.78342" lon="5.51602">
        <ele>371.587</ele>
        <time>2019-06-16T08:50:12Z</time>
      </trkpt>
      <trkpt lat="45.7837" lon="5.51627">
        <ele>372.131</ele>
        <time>2019-06-16T08:50:18Z</time>
      </trkpt>
      <trkpt lat="45.78385" lon="5.51653">
        <ele>372.792</ele>
        <time>2019-06-16T08:50:24Z</time>
      </trkpt>
      <trkpt lat="45.78402" lon="5.51686">
        <ele>373.694</ele>
        <time>2019-06-16T08:50:33Z</time>
      </trkpt>
      <trkpt lat="45.78417" lon="5.51725">
        <ele>373.106</ele>
        <time>2019-06-16T08:50:43Z</time>
      </trkpt>
      <trkpt lat="45.78435" lon="5.51757">
        <ele>374.151</ele>
        <time>2019-06-16T08:50:52Z</time>
      </trkpt>
      <trkpt lat="45.78455" lon="5.51773">
        <ele>376.196</ele>
        <time>2019-06-16T08:51:02Z</time>
      </trkpt>
      <trkpt lat="45.78482" lon="5.51784">
        <ele>379.594</ele>
        <time>2019-06-16T08:51:16Z</time>
      </trkpt>
      <trkpt lat="45.78498" lon="5.51786">
        <ele>381.564</ele>
        <time>2019-06-16T08:51:27Z</time>
      </trkpt>
      <trkpt lat="45.78517" lon="5.51785">
        <ele>383.262</ele>
        <time>2019-06-16T08:51:38Z</time>
      </trkpt>
      <trkpt lat="45.78528" lon="5.51783">
        <ele>385.44</ele>
        <time>2019-06-16T08:51:47Z</time>
      </trkpt>
      <trkpt lat="45.7853" lon="5.51782">
        <ele>386.315</ele>
        <time>2019-06-16T08:51:52Z</time>
      </trkpt>
      <trkpt lat="45.78538" lon="5.51781">
        <ele>387.818</ele>
        <time>2019-06-16T08:51:58Z</time>
      </trkpt>
      <trkpt lat="45.78542" lon="5.51781">
        <ele>388.337</ele>
        <time>2019-06-16T08:52:00Z</time>
      </trkpt>
      <trkpt lat="45.78552" lon="5.51779">
        <ele>389.486</ele>
        <time>2019-06-16T08:52:07Z</time>
      </trkpt>
      <trkpt lat="45.78558" lon="5.51778">
        <ele>391.193</ele>
        <time>2019-06-16T08:52:15Z</time>
      </trkpt>
      <trkpt lat="45.78574" lon="5.51775">
        <ele>392.879</ele>
        <time>2019-06-16T08:52:27Z</time>
      </trkpt>
      <trkpt lat="45.78579" lon="5.51774">
        <ele>393.404</ele>
        <time>2019-06-16T08:52:29Z</time>
      </trkpt>
      <trkpt lat="45.78583" lon="5.51774">
        <ele>394.243</ele>
        <time>2019-06-16T08:52:34Z</time>
      </trkpt>
      <trkpt lat="45.78588" lon="5.51773">
        <ele>395.139</ele>
        <time>2019-06-16T08:52:44Z</time>
      </trkpt>
      <trkpt lat="45.78606" lon="5.51766">
        <ele>396.228</ele>
        <time>2019-06-16T08:52:53Z</time>
      </trkpt>
      <trkpt lat="45.78611" lon="5.51763">
        <ele>396.496</ele>
        <time>2019-06-16T08:52:57Z</time>
      </trkpt>
      <trkpt lat="45.78617" lon="5.51759">
        <ele>397.624</ele>
        <time>2019-06-16T08:53:04Z</time>
      </trkpt>
      <trkpt lat="45.78627" lon="5.51751">
        <ele>399.443</ele>
        <time>2019-06-16T08:53:15Z</time>
      </trkpt>
      <trkpt lat="45.78636" lon="5.51745">
        <ele>399.843</ele>
        <time>2019-06-16T08:53:22Z</time>
      </trkpt>
      <trkpt lat="45.78642" lon="5.51741">
        <ele>400.86</ele>
        <time>2019-06-16T08:53:28Z</time>
      </trkpt>
      <trkpt lat="45.78647" lon="5.51738">
        <ele>401.905</ele>
        <time>2019-06-16T08:53:34Z</time>
      </trkpt>
      <trkpt lat="45.78658" lon="5.5173">
        <ele>402.888</ele>
        <time>2019-06-16T08:54:21Z</time>
      </trkpt>
      <trkpt lat="45.7866" lon="5.51729">
        <ele>403.583</ele>
        <time>2019-06-16T08:54:22Z</time>
      </trkpt>
      <trkpt lat="45.78667" lon="5.51723">
        <ele>404.443</ele>
        <time>2019-06-16T08:54:26Z</time>
      </trkpt>
      <trkpt lat="45.78674" lon="5.51719">
        <ele>405.845</ele>
        <time>2019-06-16T08:54:32Z</time>
      </trkpt>
      <trkpt lat="45.78682" lon="5.51712">
        <ele>406.693</ele>
        <time>2019-06-16T08:54:37Z</time>
      </trkpt>
      <trkpt lat="45.78686" lon="5.5171">
        <ele>408.629</ele>
        <time>2019-06-16T08:54:42Z</time>
      </trkpt>
      <trkpt lat="45.78698" lon="5.51702">
        <ele>410.592</ele>
        <time>2019-06-16T08:54:51Z</time>
      </trkpt>
      <trkpt lat="45.78703" lon="5.51698">
        <ele>411.71</ele>
        <time>2019-06-16T08:54:58Z</time>
      </trkpt>
      <trkpt lat="45.78719" lon="5.51687">
        <ele>413.932</ele>
        <time>2019-06-16T08:55:08Z</time>
      </trkpt>
      <trkpt lat="45.78724" lon="5.51683">
        <ele>414.654</ele>
        <time>2019-06-16T08:55:12Z</time>
      </trkpt>
      <trkpt lat="45.78727" lon="5.51681">
        <ele>415.207</ele>
        <time>2019-06-16T08:55:14Z</time>
      </trkpt>
      <trkpt lat="45.78733" lon="5.51676">
        <ele>417.011</ele>
        <time>2019-06-16T08:55:23Z</time>
      </trkpt>
      <trkpt lat="45.78731" lon="5.51637">
        <ele>417.834</ele>
        <time>2019-06-16T08:55:33Z</time>
      </trkpt>
      <trkpt lat="45.78749" lon="5.51626">
        <ele>419.342</ele>
        <time>2019-06-16T08:55:44Z</time>
      </trkpt>
      <trkpt lat="45.78767" lon="5.51618">
        <ele>419.591</ele>
        <time>2019-06-16T08:55:53Z</time>
      </trkpt>
      <trkpt lat="45.78786" lon="5.5161">
        <ele>418.415</ele>
        <time>2019-06-16T08:56:01Z</time>
      </trkpt>
      <trkpt lat="45.78804" lon="5.51606">
        <ele>418.442</ele>
        <time>2019-06-16T08:56:07Z</time>
      </trkpt>
      <trkpt lat="45.78814" lon="5.51612">
        <ele>419.569</ele>
        <time>2019-06-16T08:56:13Z</time>
      </trkpt>
      <trkpt lat="45.78814" lon="5.51629">
        <ele>420.86</ele>
        <time>2019-06-16T08:56:21Z</time>
      </trkpt>
      <trkpt lat="45.78808" lon="5.51647">
        <ele>420.722</ele>
        <time>2019-06-16T08:56:30Z</time>
      </trkpt>
      <trkpt lat="45.78797" lon="5.51673">
        <ele>420.689</ele>
        <time>2019-06-16T08:56:41Z</time>
      </trkpt>
      <trkpt lat="45.78789" lon="5.5169">
        <ele>420.467</ele>
        <time>2019-06-16T08:56:48Z</time>
      </trkpt>
      <trkpt lat="45.78783" lon="5.5171">
        <ele>421.914</ele>
        <time>2019-06-16T08:57:04Z</time>
      </trkpt>
      <trkpt lat="45.78776" lon="5.51723">
        <ele>421.051</ele>
        <time>2019-06-16T09:01:18Z</time>
      </trkpt>
      <trkpt lat="45.78762" lon="5.51741">
        <ele>419.705</ele>
        <time>2019-06-16T09:01:24Z</time>
      </trkpt>
      <trkpt lat="45.78741" lon="5.51767">
        <ele>417.185</ele>
        <time>2019-06-16T09:01:29Z</time>
      </trkpt>
      <trkpt lat="45.78731" lon="5.5178">
        <ele>415.444</ele>
        <time>2019-06-16T09:01:31Z</time>
      </trkpt>
      <trkpt lat="45.78703" lon="5.51807">
        <ele>413.646</ele>
        <time>2019-06-16T09:01:36Z</time>
      </trkpt>
      <trkpt lat="45.78691" lon="5.51822">
        <ele>410.748</ele>
        <time>2019-06-16T09:01:38Z</time>
      </trkpt>
      <trkpt lat="45.78685" lon="5.51829">
        <ele>410.169</ele>
        <time>2019-06-16T09:01:39Z</time>
      </trkpt>
      <trkpt lat="45.78661" lon="5.51848">
        <ele>407.965</ele>
        <time>2019-06-16T09:01:43Z</time>
      </trkpt>
      <trkpt lat="45.7864" lon="5.5186">
        <ele>406.048</ele>
        <time>2019-06-16T09:01:46Z</time>
      </trkpt>
      <trkpt lat="45.78628" lon="5.51894">
        <ele>403.708</ele>
        <time>2019-06-16T09:01:50Z</time>
      </trkpt>
      <trkpt lat="45.78632" lon="5.51942">
        <ele>400.613</ele>
        <time>2019-06-16T09:01:55Z</time>
      </trkpt>
      <trkpt lat="45.78644" lon="5.51978">
        <ele>397.865</ele>
        <time>2019-06-16T09:01:59Z</time>
      </trkpt>
      <trkpt lat="45.78658" lon="5.52012">
        <ele>396.135</ele>
        <time>2019-06-16T09:02:03Z</time>
      </trkpt>
      <trkpt lat="45.78664" lon="5.52042">
        <ele>393.283</ele>
        <time>2019-06-16T09:02:06Z</time>
      </trkpt>
      <trkpt lat="45.78656" lon="5.52063">
        <ele>394.592</ele>
        <time>2019-06-16T09:02:09Z</time>
      </trkpt>
      <trkpt lat="45.7865" lon="5.52069">
        <ele>396.587</ele>
        <time>2019-06-16T09:02:12Z</time>
      </trkpt>
      <trkpt lat="45.78638" lon="5.52084">
        <ele>397.809</ele>
        <time>2019-06-16T09:02:19Z</time>
      </trkpt>
      <trkpt lat="45.78636" lon="5.5209">
        <ele>398.298</ele>
        <time>2019-06-16T09:02:21Z</time>
      </trkpt>
      <trkpt lat="45.78634" lon="5.52117">
        <ele>398.442</ele>
        <time>2019-06-16T09:02:28Z</time>
      </trkpt>
      <trkpt lat="45.78645" lon="5.52158">
        <ele>397.127</ele>
        <time>2019-06-16T09:02:37Z</time>
      </trkpt>
      <trkpt lat="45.78647" lon="5.52169">
        <ele>396.573</ele>
        <time>2019-06-16T09:02:39Z</time>
      </trkpt>
      <trkpt lat="45.78651" lon="5.52188">
        <ele>396.761</ele>
        <time>2019-06-16T09:02:42Z</time>
      </trkpt>
      <trkpt lat="45.78654" lon="5.52208">
        <ele>396.092</ele>
        <time>2019-06-16T09:02:45Z</time>
      </trkpt>
      <trkpt lat="45.78657" lon="5.52253">
        <ele>396.595</ele>
        <time>2019-06-16T09:02:54Z</time>
      </trkpt>
      <trkpt lat="45.7866" lon="5.523">
        <ele>398.017</ele>
        <time>2019-06-16T09:03:04Z</time>
      </trkpt>
      <trkpt lat="45.78658" lon="5.52348">
        <ele>400.151</ele>
        <time>2019-06-16T09:03:15Z</time>
      </trkpt>
      <trkpt lat="45.78662" lon="5.5237">
        <ele>399.998</ele>
        <time>2019-06-16T09:03:20Z</time>
      </trkpt>
      <trkpt lat="45.7868" lon="5.52382">
        <ele>397.833</ele>
        <time>2019-06-16T09:03:25Z</time>
      </trkpt>
      <trkpt lat="45.7869" lon="5.52387">
        <ele>398.392</ele>
        <time>2019-06-16T09:03:30Z</time>
      </trkpt>
      <trkpt lat="45.78702" lon="5.5241">
        <ele>398.168</ele>
        <time>2019-06-16T09:03:35Z</time>
      </trkpt>
      <trkpt lat="45.7871" lon="5.52439">
        <ele>398.463</ele>
        <time>2019-06-16T09:03:44Z</time>
      </trkpt>
      <trkpt lat="45.78709" lon="5.52449">
        <ele>398.139</ele>
        <time>2019-06-16T09:03:47Z</time>
      </trkpt>
      <trkpt lat="45.78667" lon="5.52486">
        <ele>397.81</ele>
        <time>2019-06-16T09:03:55Z</time>
      </trkpt>
      <trkpt lat="45.78668" lon="5.52499">
        <ele>396.982</ele>
        <time>2019-06-16T09:03:56Z</time>
      </trkpt>
      <trkpt lat="45.78673" lon="5.52519">
        <ele>395.594</ele>
        <time>2019-06-16T09:03:59Z</time>
      </trkpt>
      <trkpt lat="45.78681" lon="5.52545">
        <ele>395.125</ele>
        <time>2019-06-16T09:04:04Z</time>
      </trkpt>
      <trkpt lat="45.78682" lon="5.52549">
        <ele>394.463</ele>
        <time>2019-06-16T09:04:05Z</time>
      </trkpt>
      <trkpt lat="45.78681" lon="5.52581">
        <ele>393.066</ele>
        <time>2019-06-16T09:04:08Z</time>
      </trkpt>
      <trkpt lat="45.78682" lon="5.52594">
        <ele>391.605</ele>
        <time>2019-06-16T09:04:11Z</time>
      </trkpt>
      <trkpt lat="45.78685" lon="5.52603">
        <ele>388.897</ele>
        <time>2019-06-16T09:04:19Z</time>
      </trkpt>
      <trkpt lat="45.78689" lon="5.52614">
        <ele>387.405</ele>
        <time>2019-06-16T09:04:27Z</time>
      </trkpt>
      <trkpt lat="45.78693" lon="5.52625">
        <ele>385.911</ele>
        <time>2019-06-16T09:04:31Z</time>
      </trkpt>
      <trkpt lat="45.78697" lon="5.52628">
        <ele>384.455</ele>
        <time>2019-06-16T09:04:33Z</time>
      </trkpt>
      <trkpt lat="45.78704" lon="5.52642">
        <ele>381.931</ele>
        <time>2019-06-16T09:04:39Z</time>
      </trkpt>
      <trkpt lat="45.78702" lon="5.52673">
        <ele>379.363</ele>
        <time>2019-06-16T09:04:43Z</time>
      </trkpt>
      <trkpt lat="45.78706" lon="5.527">
        <ele>375.92</ele>
        <time>2019-06-16T09:04:48Z</time>
      </trkpt>
      <trkpt lat="45.78709" lon="5.52707">
        <ele>375.122</ele>
        <time>2019-06-16T09:04:50Z</time>
      </trkpt>
      <trkpt lat="45.78709" lon="5.52715">
        <ele>373.806</ele>
        <time>2019-06-16T09:04:51Z</time>
      </trkpt>
      <trkpt lat="45.78708" lon="5.52743">
        <ele>373.199</ele>
        <time>2019-06-16T09:04:55Z</time>
      </trkpt>
      <trkpt lat="45.7871" lon="5.52778">
        <ele>373.629</ele>
        <time>2019-06-16T09:05:01Z</time>
      </trkpt>
      <trkpt lat="45.78711" lon="5.52793">
        <ele>374.372</ele>
        <time>2019-06-16T09:05:06Z</time>
      </trkpt>
      <trkpt lat="45.78713" lon="5.52794">
        <ele>374.853</ele>
        <time>2019-06-16T09:05:07Z</time>
      </trkpt>
      <trkpt lat="45.78715" lon="5.52799">
        <ele>375.574</ele>
        <time>2019-06-16T09:05:09Z</time>
      </trkpt>
      <trkpt lat="45.78717" lon="5.52803">
        <ele>375.426</ele>
        <time>2019-06-16T09:05:11Z</time>
      </trkpt>
      <trkpt lat="45.78713" lon="5.52825">
        <ele>374.377</ele>
        <time>2019-06-16T09:05:16Z</time>
      </trkpt>
      <trkpt lat="45.78726" lon="5.52842">
        <ele>374.644</ele>
        <time>2019-06-16T09:05:23Z</time>
      </trkpt>
      <trkpt lat="45.78732" lon="5.52845">
        <ele>374.898</ele>
        <time>2019-06-16T09:05:25Z</time>
      </trkpt>
      <trkpt lat="45.78742" lon="5.52856">
        <ele>375.299</ele>
        <time>2019-06-16T09:05:31Z</time>
      </trkpt>
      <trkpt lat="45.78744" lon="5.52859">
        <ele>375.064</ele>
        <time>2019-06-16T09:05:32Z</time>
      </trkpt>
      <trkpt lat="45.78744" lon="5.52869">
        <ele>376.026</ele>
        <time>2019-06-16T09:05:35Z</time>
      </trkpt>
      <trkpt lat="45.78748" lon="5.52873">
        <ele>376.47</ele>
        <time>2019-06-16T09:05:42Z</time>
      </trkpt>
      <trkpt lat="45.78747" lon="5.52876">
        <ele>376.29</ele>
        <time>2019-06-16T09:05:57Z</time>
      </trkpt>
      <trkpt lat="45.78754" lon="5.52878">
        <ele>376.507</ele>
        <time>2019-06-16T09:06:00Z</time>
      </trkpt>
      <trkpt lat="45.78754" lon="5.52909">
        <ele>376.964</ele>
        <time>2019-06-16T09:06:08Z</time>
      </trkpt>
      <trkpt lat="45.78758" lon="5.52929">
        <ele>377.915</ele>
        <time>2019-06-16T09:06:14Z</time>
      </trkpt>
      <trkpt lat="45.78764" lon="5.52953">
        <ele>378.282</ele>
        <time>2019-06-16T09:06:20Z</time>
      </trkpt>
      <trkpt lat="45.78765" lon="5.52956">
        <ele>378.417</ele>
        <time>2019-06-16T09:06:21Z</time>
      </trkpt>
      <trkpt lat="45.78762" lon="5.5297">
        <ele>378.613</ele>
        <time>2019-06-16T09:06:24Z</time>
      </trkpt>
      <trkpt lat="45.78765" lon="5.52976">
        <ele>379.453</ele>
        <time>2019-06-16T09:06:27Z</time>
      </trkpt>
      <trkpt lat="45.78765" lon="5.52988">
        <ele>380.029</ele>
        <time>2019-06-16T09:06:31Z</time>
      </trkpt>
      <trkpt lat="45.78773" lon="5.53001">
        <ele>380.391</ele>
        <time>2019-06-16T09:06:38Z</time>
      </trkpt>
      <trkpt lat="45.78781" lon="5.53006">
        <ele>380.386</ele>
        <time>2019-06-16T09:06:46Z</time>
      </trkpt>
      <trkpt lat="45.78788" lon="5.53009">
        <ele>380.697</ele>
        <time>2019-06-16T09:06:53Z</time>
      </trkpt>
      <trkpt lat="45.78793" lon="5.53012">
        <ele>380.909</ele>
        <time>2019-06-16T09:07:00Z</time>
      </trkpt>
      <trkpt lat="45.78798" lon="5.53026">
        <ele>381.366</ele>
        <time>2019-06-16T09:07:11Z</time>
      </trkpt>
      <trkpt lat="45.78799" lon="5.53042">
        <ele>381.503</ele>
        <time>2019-06-16T09:07:19Z</time>
      </trkpt>
      <trkpt lat="45.78804" lon="5.53053">
        <ele>382.308</ele>
        <time>2019-06-16T09:07:26Z</time>
      </trkpt>
      <trkpt lat="45.78806" lon="5.53054">
        <ele>381.959</ele>
        <time>2019-06-16T09:07:29Z</time>
      </trkpt>
      <trkpt lat="45.78812" lon="5.53062">
        <ele>383.574</ele>
        <time>2019-06-16T09:07:39Z</time>
      </trkpt>
      <trkpt lat="45.78816" lon="5.53069">
        <ele>384.276</ele>
        <time>2019-06-16T09:07:46Z</time>
      </trkpt>
      <trkpt lat="45.78817" lon="5.53071">
        <ele>384.034</ele>
        <time>2019-06-16T09:07:48Z</time>
      </trkpt>
      <trkpt lat="45.78825" lon="5.53078">
        <ele>384.922</ele>
        <time>2019-06-16T09:08:00Z</time>
      </trkpt>
      <trkpt lat="45.7883" lon="5.53083">
        <ele>385.827</ele>
        <time>2019-06-16T09:08:08Z</time>
      </trkpt>
      <trkpt lat="45.78832" lon="5.53087">
        <ele>386.587</ele>
        <time>2019-06-16T09:08:14Z</time>
      </trkpt>
      <trkpt lat="45.78837" lon="5.53096">
        <ele>387.339</ele>
        <time>2019-06-16T09:08:21Z</time>
      </trkpt>
      <trkpt lat="45.78842" lon="5.531">
        <ele>387.891</ele>
        <time>2019-06-16T09:08:26Z</time>
      </trkpt>
      <trkpt lat="45.78849" lon="5.53108">
        <ele>389.536</ele>
        <time>2019-06-16T09:08:35Z</time>
      </trkpt>
      <trkpt lat="45.78851" lon="5.53113">
        <ele>389.796</ele>
        <time>2019-06-16T09:08:41Z</time>
      </trkpt>
      <trkpt lat="45.78857" lon="5.53116">
        <ele>390.271</ele>
        <time>2019-06-16T09:08:47Z</time>
      </trkpt>
      <trkpt lat="45.78871" lon="5.53122">
        <ele>391.316</ele>
        <time>2019-06-16T09:08:54Z</time>
      </trkpt>
      <trkpt lat="45.78877" lon="5.53116">
        <ele>392.113</ele>
        <time>2019-06-16T09:08:58Z</time>
      </trkpt>
      <trkpt lat="45.78883" lon="5.53104">
        <ele>391.796</ele>
        <time>2019-06-16T09:09:04Z</time>
      </trkpt>
      <trkpt lat="45.78893" lon="5.53105">
        <ele>391.654</ele>
        <time>2019-06-16T09:09:12Z</time>
      </trkpt>
      <trkpt lat="45.78896" lon="5.53113">
        <ele>391.911</ele>
        <time>2019-06-16T09:12:15Z</time>
      </trkpt>
      <trkpt lat="45.789" lon="5.53116">
        <ele>391.606</ele>
        <time>2019-06-16T09:12:22Z</time>
      </trkpt>
      <trkpt lat="45.78907" lon="5.53126">
        <ele>391.495</ele>
        <time>2019-06-16T09:12:34Z</time>
      </trkpt>
      <trkpt lat="45.78924" lon="5.53127">
        <ele>391.823</ele>
        <time>2019-06-16T09:12:49Z</time>
      </trkpt>
      <trkpt lat="45.78934" lon="5.53138">
        <ele>392.969</ele>
        <time>2019-06-16T09:13:08Z</time>
      </trkpt>
      <trkpt lat="45.7895" lon="5.53161">
        <ele>392.887</ele>
        <time>2019-06-16T09:13:26Z</time>
      </trkpt>
      <trkpt lat="45.78954" lon="5.53173">
        <ele>392.967</ele>
        <time>2019-06-16T09:13:40Z</time>
      </trkpt>
      <trkpt lat="45.78959" lon="5.53181">
        <ele>392.887</ele>
        <time>2019-06-16T09:13:58Z</time>
      </trkpt>
      <trkpt lat="45.78966" lon="5.532">
        <ele>393.051</ele>
        <time>2019-06-16T09:14:14Z</time>
      </trkpt>
      <trkpt lat="45.7896" lon="5.53197">
        <ele>393.655</ele>
        <time>2019-06-16T09:15:34Z</time>
      </trkpt>
      <trkpt lat="45.78956" lon="5.53196">
        <ele>394.485</ele>
        <time>2019-06-16T09:15:44Z</time>
      </trkpt>
      <trkpt lat="45.78949" lon="5.53206">
        <ele>394.259</ele>
        <time>2019-06-16T09:16:10Z</time>
      </trkpt>
      <trkpt lat="45.78945" lon="5.53209">
        <ele>394.395</ele>
        <time>2019-06-16T09:16:25Z</time>
      </trkpt>
      <trkpt lat="45.78948" lon="5.53214">
        <ele>394.275</ele>
        <time>2019-06-16T09:16:55Z</time>
      </trkpt>
      <trkpt lat="45.78952" lon="5.53209">
        <ele>394.51</ele>
        <time>2019-06-16T09:17:05Z</time>
      </trkpt>
      <trkpt lat="45.7896" lon="5.53209">
        <ele>394.407</ele>
        <time>2019-06-16T09:20:12Z</time>
      </trkpt>
      <trkpt lat="45.78951" lon="5.53196">
        <ele>396.817</ele>
        <time>2019-06-16T09:24:12Z</time>
      </trkpt>
      <trkpt lat="45.78945" lon="5.53191">
        <ele>398.002</ele>
        <time>2019-06-16T09:25:31Z</time>
      </trkpt>
      <trkpt lat="45.7896" lon="5.53179">
        <ele>398.468</ele>
        <time>2019-06-16T09:26:58Z</time>
      </trkpt>
      <trkpt lat="45.78958" lon="5.53176">
        <ele>398.669</ele>
        <time>2019-06-16T09:27:22Z</time>
      </trkpt>
      <trkpt lat="45.78944" lon="5.53159">
        <ele>398.356</ele>
        <time>2019-06-16T09:28:26Z</time>
      </trkpt>
      <trkpt lat="45.78935" lon="5.53147">
        <ele>398.421</ele>
        <time>2019-06-16T09:28:48Z</time>
      </trkpt>
      <trkpt lat="45.78925" lon="5.53117">
        <ele>397.065</ele>
        <time>2019-06-16T09:29:29Z</time>
      </trkpt>
      <trkpt lat="45.78916" lon="5.53108">
        <ele>397.779</ele>
        <time>2019-06-16T09:29:55Z</time>
      </trkpt>
      <trkpt lat="45.78908" lon="5.53101">
        <ele>400.125</ele>
        <time>2019-06-16T09:32:24Z</time>
      </trkpt>
      <trkpt lat="45.78901" lon="5.53103">
        <ele>399.829</ele>
        <time>2019-06-16T09:32:30Z</time>
      </trkpt>
      <trkpt lat="45.78898" lon="5.53102">
        <ele>399.636</ele>
        <time>2019-06-16T09:32:32Z</time>
      </trkpt>
      <trkpt lat="45.78898" lon="5.53106">
        <ele>400.309</ele>
        <time>2019-06-16T09:32:40Z</time>
      </trkpt>
      <trkpt lat="45.78893" lon="5.53108">
        <ele>399.846</ele>
        <time>2019-06-16T09:32:50Z</time>
      </trkpt>
      <trkpt lat="45.78884" lon="5.53105">
        <ele>398.558</ele>
        <time>2019-06-16T09:32:57Z</time>
      </trkpt>
      <trkpt lat="45.78876" lon="5.53103">
        <ele>397.366</ele>
        <time>2019-06-16T09:33:01Z</time>
      </trkpt>
      <trkpt lat="45.78849" lon="5.53081">
        <ele>395.013</ele>
        <time>2019-06-16T09:33:07Z</time>
      </trkpt>
      <trkpt lat="45.78846" lon="5.53081">
        <ele>395.026</ele>
        <time>2019-06-16T09:33:08Z</time>
      </trkpt>
      <trkpt lat="45.78841" lon="5.5308">
        <ele>394.475</ele>
        <time>2019-06-16T09:33:16Z</time>
      </trkpt>
      <trkpt lat="45.78837" lon="5.53078">
        <ele>393.396</ele>
        <time>2019-06-16T09:33:24Z</time>
      </trkpt>
      <trkpt lat="45.78835" lon="5.53072">
        <ele>392.899</ele>
        <time>2019-06-16T09:33:29Z</time>
      </trkpt>
      <trkpt lat="45.78834" lon="5.53068">
        <ele>392.789</ele>
        <time>2019-06-16T09:33:33Z</time>
      </trkpt>
      <trkpt lat="45.7883" lon="5.53065">
        <ele>392.263</ele>
        <time>2019-06-16T09:33:37Z</time>
      </trkpt>
      <trkpt lat="45.78829" lon="5.53059">
        <ele>391.778</ele>
        <time>2019-06-16T09:33:40Z</time>
      </trkpt>
      <trkpt lat="45.78827" lon="5.53051">
        <ele>391.842</ele>
        <time>2019-06-16T09:33:49Z</time>
      </trkpt>
      <trkpt lat="45.78824" lon="5.53048">
        <ele>391.794</ele>
        <time>2019-06-16T09:33:56Z</time>
      </trkpt>
      <trkpt lat="45.78827" lon="5.53044">
        <ele>391.905</ele>
        <time>2019-06-16T09:34:01Z</time>
      </trkpt>
      <trkpt lat="45.7882" lon="5.53042">
        <ele>392.718</ele>
        <time>2019-06-16T09:34:38Z</time>
      </trkpt>
      <trkpt lat="45.78818" lon="5.53043">
        <ele>392.706</ele>
        <time>2019-06-16T09:34:45Z</time>
      </trkpt>
      <trkpt lat="45.78814" lon="5.53034">
        <ele>392.705</ele>
        <time>2019-06-16T09:34:55Z</time>
      </trkpt>
      <trkpt lat="45.78818" lon="5.5303">
        <ele>390.291</ele>
        <time>2019-06-16T09:35:27Z</time>
      </trkpt>
      <trkpt lat="45.78822" lon="5.53026">
        <ele>390.005</ele>
        <time>2019-06-16T09:35:32Z</time>
      </trkpt>
      <trkpt lat="45.78812" lon="5.5302">
        <ele>390.017</ele>
        <time>2019-06-16T09:35:39Z</time>
      </trkpt>
      <trkpt lat="45.78809" lon="5.53019">
        <ele>390.038</ele>
        <time>2019-06-16T09:35:41Z</time>
      </trkpt>
      <trkpt lat="45.78803" lon="5.53018">
        <ele>389.83</ele>
        <time>2019-06-16T09:35:46Z</time>
      </trkpt>
      <trkpt lat="45.78797" lon="5.53015">
        <ele>390.081</ele>
        <time>2019-06-16T09:35:52Z</time>
      </trkpt>
      <trkpt lat="45.78796" lon="5.52999">
        <ele>389.928</ele>
        <time>2019-06-16T09:35:59Z</time>
      </trkpt>
      <trkpt lat="45.78788" lon="5.52992">
        <ele>390.144</ele>
        <time>2019-06-16T09:36:06Z</time>
      </trkpt>
      <trkpt lat="45.78778" lon="5.52981">
        <ele>389.837</ele>
        <time>2019-06-16T09:36:10Z</time>
      </trkpt>
      <trkpt lat="45.78768" lon="5.52954">
        <ele>388.731</ele>
        <time>2019-06-16T09:36:15Z</time>
      </trkpt>
      <trkpt lat="45.78765" lon="5.52951">
        <ele>388.127</ele>
        <time>2019-06-16T09:36:16Z</time>
      </trkpt>
      <trkpt lat="45.78751" lon="5.52921">
        <ele>387.246</ele>
        <time>2019-06-16T09:36:23Z</time>
      </trkpt>
      <trkpt lat="45.7875" lon="5.52919">
        <ele>386.715</ele>
        <time>2019-06-16T09:36:24Z</time>
      </trkpt>
      <trkpt lat="45.78739" lon="5.52894">
        <ele>385.739</ele>
        <time>2019-06-16T09:36:32Z</time>
      </trkpt>
      <trkpt lat="45.7873" lon="5.52882">
        <ele>385.28</ele>
        <time>2019-06-16T09:36:36Z</time>
      </trkpt>
      <trkpt lat="45.78725" lon="5.52868">
        <ele>384.769</ele>
        <time>2019-06-16T09:36:41Z</time>
      </trkpt>
      <trkpt lat="45.7872" lon="5.52848">
        <ele>384.37</ele>
        <time>2019-06-16T09:36:47Z</time>
      </trkpt>
      <trkpt lat="45.78717" lon="5.52839">
        <ele>384.499</ele>
        <time>2019-06-16T09:36:50Z</time>
      </trkpt>
      <trkpt lat="45.78713" lon="5.52838">
        <ele>384.934</ele>
        <time>2019-06-16T09:36:52Z</time>
      </trkpt>
      <trkpt lat="45.78705" lon="5.52825">
        <ele>385.022</ele>
        <time>2019-06-16T09:36:58Z</time>
      </trkpt>
      <trkpt lat="45.78692" lon="5.52812">
        <ele>383.63</ele>
        <time>2019-06-16T09:37:03Z</time>
      </trkpt>
      <trkpt lat="45.78683" lon="5.528">
        <ele>383.524</ele>
        <time>2019-06-16T09:37:07Z</time>
      </trkpt>
      <trkpt lat="45.78683" lon="5.52792">
        <ele>383.436</ele>
        <time>2019-06-16T09:37:09Z</time>
      </trkpt>
      <trkpt lat="45.78686" lon="5.52777">
        <ele>383.898</ele>
        <time>2019-06-16T09:37:13Z</time>
      </trkpt>
      <trkpt lat="45.78692" lon="5.52762">
        <ele>384.688</ele>
        <time>2019-06-16T09:37:18Z</time>
      </trkpt>
      <trkpt lat="45.78695" lon="5.52755">
        <ele>385.008</ele>
        <time>2019-06-16T09:37:21Z</time>
      </trkpt>
      <trkpt lat="45.78696" lon="5.52739">
        <ele>386.111</ele>
        <time>2019-06-16T09:37:29Z</time>
      </trkpt>
      <trkpt lat="45.78696" lon="5.52734">
        <ele>386.153</ele>
        <time>2019-06-16T09:37:31Z</time>
      </trkpt>
      <trkpt lat="45.78689" lon="5.52727">
        <ele>387.953</ele>
        <time>2019-06-16T09:37:39Z</time>
      </trkpt>
      <trkpt lat="45.78689" lon="5.5272">
        <ele>389.095</ele>
        <time>2019-06-16T09:37:46Z</time>
      </trkpt>
      <trkpt lat="45.7869" lon="5.52712">
        <ele>390.009</ele>
        <time>2019-06-16T09:37:50Z</time>
      </trkpt>
      <trkpt lat="45.7869" lon="5.52708">
        <ele>390.3</ele>
        <time>2019-06-16T09:37:52Z</time>
      </trkpt>
      <trkpt lat="45.78689" lon="5.52705">
        <ele>391.284</ele>
        <time>2019-06-16T09:37:54Z</time>
      </trkpt>
      <trkpt lat="45.7869" lon="5.52695">
        <ele>391.917</ele>
        <time>2019-06-16T09:37:59Z</time>
      </trkpt>
      <trkpt lat="45.78689" lon="5.52687">
        <ele>393.182</ele>
        <time>2019-06-16T09:38:03Z</time>
      </trkpt>
      <trkpt lat="45.78687" lon="5.52681">
        <ele>393.529</ele>
        <time>2019-06-16T09:38:06Z</time>
      </trkpt>
      <trkpt lat="45.78679" lon="5.52678">
        <ele>394.437</ele>
        <time>2019-06-16T09:38:10Z</time>
      </trkpt>
      <trkpt lat="45.78673" lon="5.52672">
        <ele>394.915</ele>
        <time>2019-06-16T09:38:14Z</time>
      </trkpt>
      <trkpt lat="45.78666" lon="5.52667">
        <ele>395.298</ele>
        <time>2019-06-16T09:38:18Z</time>
      </trkpt>
      <trkpt lat="45.78672" lon="5.5265">
        <ele>396.867</ele>
        <time>2019-06-16T09:38:23Z</time>
      </trkpt>
      <trkpt lat="45.78672" lon="5.52645">
        <ele>397.309</ele>
        <time>2019-06-16T09:38:28Z</time>
      </trkpt>
      <trkpt lat="45.78673" lon="5.52635">
        <ele>398.215</ele>
        <time>2019-06-16T09:38:34Z</time>
      </trkpt>
      <trkpt lat="45.78675" lon="5.52628">
        <ele>398.224</ele>
        <time>2019-06-16T09:38:39Z</time>
      </trkpt>
      <trkpt lat="45.78673" lon="5.52622">
        <ele>399.454</ele>
        <time>2019-06-16T09:38:45Z</time>
      </trkpt>
      <trkpt lat="45.78674" lon="5.52613">
        <ele>400.487</ele>
        <time>2019-06-16T09:38:52Z</time>
      </trkpt>
      <trkpt lat="45.78673" lon="5.52608">
        <ele>401.913</ele>
        <time>2019-06-16T09:39:00Z</time>
      </trkpt>
      <trkpt lat="45.78672" lon="5.52603">
        <ele>401.694</ele>
        <time>2019-06-16T09:39:28Z</time>
      </trkpt>
      <trkpt lat="45.7867" lon="5.52597">
        <ele>402.243</ele>
        <time>2019-06-16T09:39:31Z</time>
      </trkpt>
      <trkpt lat="45.7867" lon="5.52587">
        <ele>403.476</ele>
        <time>2019-06-16T09:39:37Z</time>
      </trkpt>
      <trkpt lat="45.78669" lon="5.52577">
        <ele>405.159</ele>
        <time>2019-06-16T09:39:42Z</time>
      </trkpt>
      <trkpt lat="45.78666" lon="5.52552">
        <ele>405.411</ele>
        <time>2019-06-16T09:39:52Z</time>
      </trkpt>
      <trkpt lat="45.78665" lon="5.52536">
        <ele>405.738</ele>
        <time>2019-06-16T09:39:57Z</time>
      </trkpt>
      <trkpt lat="45.78662" lon="5.52507">
        <ele>406.914</ele>
        <time>2019-06-16T09:40:05Z</time>
      </trkpt>
      <trkpt lat="45.78669" lon="5.5249">
        <ele>408.203</ele>
        <time>2019-06-16T09:40:11Z</time>
      </trkpt>
      <trkpt lat="45.78678" lon="5.52475">
        <ele>408.323</ele>
        <time>2019-06-16T09:40:18Z</time>
      </trkpt>
      <trkpt lat="45.78685" lon="5.52464">
        <ele>408.546</ele>
        <time>2019-06-16T09:40:24Z</time>
      </trkpt>
      <trkpt lat="45.78695" lon="5.52455">
        <ele>408.526</ele>
        <time>2019-06-16T09:40:26Z</time>
      </trkpt>
      <trkpt lat="45.78696" lon="5.5244">
        <ele>408.671</ele>
        <time>2019-06-16T09:40:31Z</time>
      </trkpt>
      <trkpt lat="45.78702" lon="5.52429">
        <ele>409.124</ele>
        <time>2019-06-16T09:40:34Z</time>
      </trkpt>
      <trkpt lat="45.78697" lon="5.5241">
        <ele>408.101</ele>
        <time>2019-06-16T09:40:39Z</time>
      </trkpt>
      <trkpt lat="45.78697" lon="5.52406">
        <ele>408.106</ele>
        <time>2019-06-16T09:40:40Z</time>
      </trkpt>
      <trkpt lat="45.78697" lon="5.52403">
        <ele>407.795</ele>
        <time>2019-06-16T09:40:49Z</time>
      </trkpt>
      <trkpt lat="45.78691" lon="5.52395">
        <ele>408.604</ele>
        <time>2019-06-16T09:42:08Z</time>
      </trkpt>
      <trkpt lat="45.78696" lon="5.52392">
        <ele>409.778</ele>
        <time>2019-06-16T09:42:14Z</time>
      </trkpt>
      <trkpt lat="45.78717" lon="5.52388">
        <ele>410.106</ele>
        <time>2019-06-16T09:42:17Z</time>
      </trkpt>
      <trkpt lat="45.7872" lon="5.52364">
        <ele>412.869</ele>
        <time>2019-06-16T09:42:25Z</time>
      </trkpt>
      <trkpt lat="45.78721" lon="5.52341">
        <ele>413.653</ele>
        <time>2019-06-16T09:42:34Z</time>
      </trkpt>
      <trkpt lat="45.78722" lon="5.52323">
        <ele>413.966</ele>
        <time>2019-06-16T09:42:39Z</time>
      </trkpt>
      <trkpt lat="45.78724" lon="5.52289">
        <ele>414.425</ele>
        <time>2019-06-16T09:42:49Z</time>
      </trkpt>
      <trkpt lat="45.78722" lon="5.52245">
        <ele>414.79</ele>
        <time>2019-06-16T09:43:00Z</time>
      </trkpt>
      <trkpt lat="45.78722" lon="5.52235">
        <ele>414.991</ele>
        <time>2019-06-16T09:43:03Z</time>
      </trkpt>
      <trkpt lat="45.78721" lon="5.52229">
        <ele>415.752</ele>
        <time>2019-06-16T09:43:05Z</time>
      </trkpt>
      <trkpt lat="45.7872" lon="5.52215">
        <ele>416.508</ele>
        <time>2019-06-16T09:43:09Z</time>
      </trkpt>
      <trkpt lat="45.7872" lon="5.522">
        <ele>417.524</ele>
        <time>2019-06-16T09:43:13Z</time>
      </trkpt>
      <trkpt lat="45.78719" lon="5.52168">
        <ele>420.44</ele>
        <time>2019-06-16T09:43:24Z</time>
      </trkpt>
      <trkpt lat="45.78718" lon="5.52136">
        <ele>422.479</ele>
        <time>2019-06-16T09:43:37Z</time>
      </trkpt>
      <trkpt lat="45.78718" lon="5.52115">
        <ele>423.971</ele>
        <time>2019-06-16T09:43:46Z</time>
      </trkpt>
      <trkpt lat="45.78723" lon="5.52088">
        <ele>426.402</ele>
        <time>2019-06-16T09:43:59Z</time>
      </trkpt>
      <trkpt lat="45.78726" lon="5.52072">
        <ele>426.94</ele>
        <time>2019-06-16T09:44:07Z</time>
      </trkpt>
      <trkpt lat="45.78728" lon="5.52064">
        <ele>427.476</ele>
        <time>2019-06-16T09:44:11Z</time>
      </trkpt>
      <trkpt lat="45.78725" lon="5.52042">
        <ele>428.998</ele>
        <time>2019-06-16T09:44:21Z</time>
      </trkpt>
      <trkpt lat="45.78723" lon="5.52034">
        <ele>430.743</ele>
        <time>2019-06-16T09:44:28Z</time>
      </trkpt>
      <trkpt lat="45.78725" lon="5.52007">
        <ele>435.127</ele>
        <time>2019-06-16T09:44:45Z</time>
      </trkpt>
      <trkpt lat="45.78732" lon="5.51996">
        <ele>435.928</ele>
        <time>2019-06-16T09:44:52Z</time>
      </trkpt>
      <trkpt lat="45.78737" lon="5.51986">
        <ele>439.267</ele>
        <time>2019-06-16T09:45:04Z</time>
      </trkpt>
      <trkpt lat="45.78745" lon="5.51968">
        <ele>439.734</ele>
        <time>2019-06-16T09:45:10Z</time>
      </trkpt>
      <trkpt lat="45.78751" lon="5.51954">
        <ele>441.689</ele>
        <time>2019-06-16T09:45:22Z</time>
      </trkpt>
      <trkpt lat="45.78763" lon="5.51932">
        <ele>444.071</ele>
        <time>2019-06-16T09:45:35Z</time>
      </trkpt>
      <trkpt lat="45.78772" lon="5.51915">
        <ele>444.987</ele>
        <time>2019-06-16T09:45:47Z</time>
      </trkpt>
      <trkpt lat="45.78775" lon="5.51907">
        <ele>446.042</ele>
        <time>2019-06-16T09:45:55Z</time>
      </trkpt>
      <trkpt lat="45.78777" lon="5.51904">
        <ele>446.321</ele>
        <time>2019-06-16T09:48:20Z</time>
      </trkpt>
      <trkpt lat="45.78787" lon="5.51881">
        <ele>447.05</ele>
        <time>2019-06-16T09:48:32Z</time>
      </trkpt>
      <trkpt lat="45.78796" lon="5.51858">
        <ele>447.785</ele>
        <time>2019-06-16T09:48:45Z</time>
      </trkpt>
      <trkpt lat="45.78814" lon="5.51824">
        <ele>449.146</ele>
        <time>2019-06-16T09:49:04Z</time>
      </trkpt>
      <trkpt lat="45.78827" lon="5.51806">
        <ele>450.806</ele>
        <time>2019-06-16T09:49:17Z</time>
      </trkpt>
      <trkpt lat="45.78837" lon="5.51793">
        <ele>452.067</ele>
        <time>2019-06-16T09:49:31Z</time>
      </trkpt>
      <trkpt lat="45.78867" lon="5.51755">
        <ele>457.104</ele>
        <time>2019-06-16T09:50:04Z</time>
      </trkpt>
      <trkpt lat="45.78879" lon="5.51739">
        <ele>458.88</ele>
        <time>2019-06-16T09:50:17Z</time>
      </trkpt>
      <trkpt lat="45.7889" lon="5.51724">
        <ele>459.449</ele>
        <time>2019-06-16T09:50:30Z</time>
      </trkpt>
      <trkpt lat="45.78906" lon="5.51703">
        <ele>461.652</ele>
        <time>2019-06-16T09:50:47Z</time>
      </trkpt>
      <trkpt lat="45.78913" lon="5.51694">
        <ele>463.813</ele>
        <time>2019-06-16T09:51:02Z</time>
      </trkpt>
      <trkpt lat="45.7892" lon="5.51685">
        <ele>463.582</ele>
        <time>2019-06-16T09:51:05Z</time>
      </trkpt>
      <trkpt lat="45.78925" lon="5.51682">
        <ele>464.325</ele>
        <time>2019-06-16T09:51:10Z</time>
      </trkpt>
      <trkpt lat="45.78943" lon="5.51659">
        <ele>465.495</ele>
        <time>2019-06-16T09:51:28Z</time>
      </trkpt>
      <trkpt lat="45.78955" lon="5.51646">
        <ele>466.719</ele>
        <time>2019-06-16T09:51:40Z</time>
      </trkpt>
      <trkpt lat="45.78967" lon="5.5163">
        <ele>468.015</ele>
        <time>2019-06-16T09:51:52Z</time>
      </trkpt>
      <trkpt lat="45.78977" lon="5.51614">
        <ele>468.839</ele>
        <time>2019-06-16T09:52:02Z</time>
      </trkpt>
      <trkpt lat="45.78991" lon="5.51596">
        <ele>470.817</ele>
        <time>2019-06-16T09:52:14Z</time>
      </trkpt>
      <trkpt lat="45.79005" lon="5.51575">
        <ele>472.382</ele>
        <time>2019-06-16T09:52:26Z</time>
      </trkpt>
      <trkpt lat="45.79019" lon="5.51554">
        <ele>473.426</ele>
        <time>2019-06-16T09:52:37Z</time>
      </trkpt>
      <trkpt lat="45.79029" lon="5.51531">
        <ele>474.812</ele>
        <time>2019-06-16T09:52:49Z</time>
      </trkpt>
      <trkpt lat="45.79037" lon="5.51498">
        <ele>476.711</ele>
        <time>2019-06-16T09:53:03Z</time>
      </trkpt>
      <trkpt lat="45.79048" lon="5.51464">
        <ele>479.218</ele>
        <time>2019-06-16T09:53:21Z</time>
      </trkpt>
      <trkpt lat="45.79063" lon="5.5143">
        <ele>481.389</ele>
        <time>2019-06-16T09:53:39Z</time>
      </trkpt>
      <trkpt lat="45.79074" lon="5.51403">
        <ele>483.225</ele>
        <time>2019-06-16T09:53:54Z</time>
      </trkpt>
      <trkpt lat="45.79092" lon="5.51367">
        <ele>486.297</ele>
        <time>2019-06-16T09:54:12Z</time>
      </trkpt>
      <trkpt lat="45.79106" lon="5.51344">
        <ele>487.51</ele>
        <time>2019-06-16T09:54:25Z</time>
      </trkpt>
      <trkpt lat="45.79125" lon="5.51323">
        <ele>487.934</ele>
        <time>2019-06-16T09:54:38Z</time>
      </trkpt>
      <trkpt lat="45.79143" lon="5.51307">
        <ele>489.918</ele>
        <time>2019-06-16T09:54:50Z</time>
      </trkpt>
      <trkpt lat="45.79156" lon="5.51295">
        <ele>491.372</ele>
        <time>2019-06-16T09:55:00Z</time>
      </trkpt>
      <trkpt lat="45.79159" lon="5.51293">
        <ele>491.891</ele>
        <time>2019-06-16T09:55:03Z</time>
      </trkpt>
      <trkpt lat="45.79173" lon="5.51277">
        <ele>492.705</ele>
        <time>2019-06-16T09:55:17Z</time>
      </trkpt>
      <trkpt lat="45.79184" lon="5.51254">
        <ele>494.35</ele>
        <time>2019-06-16T09:55:31Z</time>
      </trkpt>
      <trkpt lat="45.79188" lon="5.51244">
        <ele>495.319</ele>
        <time>2019-06-16T09:55:38Z</time>
      </trkpt>
      <trkpt lat="45.79195" lon="5.51225">
        <ele>497.044</ele>
        <time>2019-06-16T09:55:50Z</time>
      </trkpt>
      <trkpt lat="45.79202" lon="5.51209">
        <ele>497.925</ele>
        <time>2019-06-16T09:56:01Z</time>
      </trkpt>
      <trkpt lat="45.79204" lon="5.51203">
        <ele>498.505</ele>
        <time>2019-06-16T09:56:05Z</time>
      </trkpt>
      <trkpt lat="45.79218" lon="5.51175">
        <ele>499.873</ele>
        <time>2019-06-16T09:56:20Z</time>
      </trkpt>
      <trkpt lat="45.79227" lon="5.51156">
        <ele>501.213</ele>
        <time>2019-06-16T09:56:31Z</time>
      </trkpt>
      <trkpt lat="45.79238" lon="5.51135">
        <ele>502.533</ele>
        <time>2019-06-16T09:56:43Z</time>
      </trkpt>
      <trkpt lat="45.79252" lon="5.51113">
        <ele>504.109</ele>
        <time>2019-06-16T09:56:56Z</time>
      </trkpt>
      <trkpt lat="45.79264" lon="5.51105">
        <ele>504.593</ele>
        <time>2019-06-16T09:57:05Z</time>
      </trkpt>
      <trkpt lat="45.79268" lon="5.51102">
        <ele>505.843</ele>
        <time>2019-06-16T09:57:08Z</time>
      </trkpt>
      <trkpt lat="45.79283" lon="5.51096">
        <ele>506.134</ele>
        <time>2019-06-16T09:57:19Z</time>
      </trkpt>
      <trkpt lat="45.79295" lon="5.51092">
        <ele>507.506</ele>
        <time>2019-06-16T09:57:28Z</time>
      </trkpt>
      <trkpt lat="45.79314" lon="5.51083">
        <ele>509.096</ele>
        <time>2019-06-16T09:57:43Z</time>
      </trkpt>
      <trkpt lat="45.79329" lon="5.51068">
        <ele>510.66</ele>
        <time>2019-06-16T09:57:55Z</time>
      </trkpt>
      <trkpt lat="45.79343" lon="5.51047">
        <ele>511.262</ele>
        <time>2019-06-16T09:58:10Z</time>
      </trkpt>
      <trkpt lat="45.7935" lon="5.51028">
        <ele>512.253</ele>
        <time>2019-06-16T09:58:20Z</time>
      </trkpt>
      <trkpt lat="45.79362" lon="5.51004">
        <ele>514.381</ele>
        <time>2019-06-16T09:58:34Z</time>
      </trkpt>
      <trkpt lat="45.79369" lon="5.5099">
        <ele>515.062</ele>
        <time>2019-06-16T09:58:42Z</time>
      </trkpt>
      <trkpt lat="45.79385" lon="5.50969">
        <ele>516.255</ele>
        <time>2019-06-16T09:58:56Z</time>
      </trkpt>
      <trkpt lat="45.79399" lon="5.50955">
        <ele>517.669</ele>
        <time>2019-06-16T09:59:09Z</time>
      </trkpt>
      <trkpt lat="45.79415" lon="5.50935">
        <ele>518.665</ele>
        <time>2019-06-16T09:59:22Z</time>
      </trkpt>
      <trkpt lat="45.79417" lon="5.50935">
        <ele>519.001</ele>
        <time>2019-06-16T09:59:24Z</time>
      </trkpt>
      <trkpt lat="45.79432" lon="5.50933">
        <ele>519.713</ele>
        <time>2019-06-16T09:59:35Z</time>
      </trkpt>
      <trkpt lat="45.79449" lon="5.50925">
        <ele>521.709</ele>
        <time>2019-06-16T09:59:48Z</time>
      </trkpt>
      <trkpt lat="45.79458" lon="5.50914">
        <ele>522.66</ele>
        <time>2019-06-16T09:59:59Z</time>
      </trkpt>
      <trkpt lat="45.79463" lon="5.5091">
        <ele>523.415</ele>
        <time>2019-06-16T10:00:07Z</time>
      </trkpt>
      <trkpt lat="45.79484" lon="5.50891">
        <ele>526.011</ele>
        <time>2019-06-16T10:00:25Z</time>
      </trkpt>
      <trkpt lat="45.79508" lon="5.50882">
        <ele>528.827</ele>
        <time>2019-06-16T10:00:46Z</time>
      </trkpt>
      <trkpt lat="45.79512" lon="5.50882">
        <ele>529.01</ele>
        <time>2019-06-16T10:00:49Z</time>
      </trkpt>
      <trkpt lat="45.7952" lon="5.50882">
        <ele>530.17</ele>
        <time>2019-06-16T10:01:00Z</time>
      </trkpt>
      <trkpt lat="45.79532" lon="5.50888">
        <ele>531.165</ele>
        <time>2019-06-16T10:01:08Z</time>
      </trkpt>
      <trkpt lat="45.79538" lon="5.50899">
        <ele>532.368</ele>
        <time>2019-06-16T10:01:18Z</time>
      </trkpt>
      <trkpt lat="45.79541" lon="5.50913">
        <ele>532.892</ele>
        <time>2019-06-16T10:01:27Z</time>
      </trkpt>
      <trkpt lat="45.79544" lon="5.50916">
        <ele>534.05</ele>
        <time>2019-06-16T10:01:34Z</time>
      </trkpt>
      <trkpt lat="45.79554" lon="5.50913">
        <ele>532.115</ele>
        <time>2019-06-16T10:04:29Z</time>
      </trkpt>
      <trkpt lat="45.79559" lon="5.50911">
        <ele>533.927</ele>
        <time>2019-06-16T10:06:17Z</time>
      </trkpt>
      <trkpt lat="45.79562" lon="5.50909">
        <ele>533.965</ele>
        <time>2019-06-16T10:06:19Z</time>
      </trkpt>
      <trkpt lat="45.79582" lon="5.50899">
        <ele>536.332</ele>
        <time>2019-06-16T10:06:30Z</time>
      </trkpt>
      <trkpt lat="45.79596" lon="5.50889">
        <ele>536.887</ele>
        <time>2019-06-16T10:06:37Z</time>
      </trkpt>
      <trkpt lat="45.7961" lon="5.50872">
        <ele>537.815</ele>
        <time>2019-06-16T10:06:44Z</time>
      </trkpt>
      <trkpt lat="45.79626" lon="5.50863">
        <ele>538.63</ele>
        <time>2019-06-16T10:06:52Z</time>
      </trkpt>
      <trkpt lat="45.79646" lon="5.50854">
        <ele>540.809</ele>
        <time>2019-06-16T10:07:02Z</time>
      </trkpt>
      <trkpt lat="45.7966" lon="5.50862">
        <ele>542.822</ele>
        <time>2019-06-16T10:07:10Z</time>
      </trkpt>
      <trkpt lat="45.79667" lon="5.50881">
        <ele>544.279</ele>
        <time>2019-06-16T10:07:18Z</time>
      </trkpt>
      <trkpt lat="45.79671" lon="5.50889">
        <ele>545.624</ele>
        <time>2019-06-16T10:07:22Z</time>
      </trkpt>
      <trkpt lat="45.79681" lon="5.50889">
        <ele>547.87</ele>
        <time>2019-06-16T10:07:29Z</time>
      </trkpt>
      <trkpt lat="45.79697" lon="5.5087">
        <ele>547.442</ele>
        <time>2019-06-16T10:07:36Z</time>
      </trkpt>
      <trkpt lat="45.79725" lon="5.50833">
        <ele>548.174</ele>
        <time>2019-06-16T10:07:46Z</time>
      </trkpt>
      <trkpt lat="45.79744" lon="5.50811">
        <ele>547.909</ele>
        <time>2019-06-16T10:07:52Z</time>
      </trkpt>
      <trkpt lat="45.79758" lon="5.50797">
        <ele>548.05</ele>
        <time>2019-06-16T10:07:56Z</time>
      </trkpt>
      <trkpt lat="45.79801" lon="5.50759">
        <ele>548.745</ele>
        <time>2019-06-16T10:08:08Z</time>
      </trkpt>
      <trkpt lat="45.79836" lon="5.50721">
        <ele>549.596</ele>
        <time>2019-06-16T10:08:19Z</time>
      </trkpt>
      <trkpt lat="45.7988" lon="5.50678">
        <ele>550.639</ele>
        <time>2019-06-16T10:08:32Z</time>
      </trkpt>
      <trkpt lat="45.79904" lon="5.50653">
        <ele>550.94</ele>
        <time>2019-06-16T10:08:41Z</time>
      </trkpt>
      <trkpt lat="45.79939" lon="5.50618">
        <ele>550.294</ele>
        <time>2019-06-16T10:08:51Z</time>
      </trkpt>
      <trkpt lat="45.7996" lon="5.50598">
        <ele>550.474</ele>
        <time>2019-06-16T10:08:57Z</time>
      </trkpt>
      <trkpt lat="45.79989" lon="5.50559">
        <ele>550.591</ele>
        <time>2019-06-16T10:09:07Z</time>
      </trkpt>
      <trkpt lat="45.80004" lon="5.50516">
        <ele>550.767</ele>
        <time>2019-06-16T10:09:16Z</time>
      </trkpt>
      <trkpt lat="45.80017" lon="5.50471">
        <ele>550.964</ele>
        <time>2019-06-16T10:09:25Z</time>
      </trkpt>
      <trkpt lat="45.80033" lon="5.50433">
        <ele>551.168</ele>
        <time>2019-06-16T10:09:34Z</time>
      </trkpt>
      <trkpt lat="45.8005" lon="5.50403">
        <ele>552.555</ele>
        <time>2019-06-16T10:09:43Z</time>
      </trkpt>
      <trkpt lat="45.80072" lon="5.5037">
        <ele>553.153</ele>
        <time>2019-06-16T10:09:53Z</time>
      </trkpt>
      <trkpt lat="45.80099" lon="5.50332">
        <ele>554.374</ele>
        <time>2019-06-16T10:10:04Z</time>
      </trkpt>
      <trkpt lat="45.80117" lon="5.50306">
        <ele>554.022</ele>
        <time>2019-06-16T10:10:11Z</time>
      </trkpt>
      <trkpt lat="45.80136" lon="5.50269">
        <ele>554.378</ele>
        <time>2019-06-16T10:10:19Z</time>
      </trkpt>
      <trkpt lat="45.80162" lon="5.5022">
        <ele>553.321</ele>
        <time>2019-06-16T10:10:30Z</time>
      </trkpt>
      <trkpt lat="45.80184" lon="5.5016">
        <ele>553.445</ele>
        <time>2019-06-16T10:10:42Z</time>
      </trkpt>
      <trkpt lat="45.80206" lon="5.50096">
        <ele>553.354</ele>
        <time>2019-06-16T10:10:54Z</time>
      </trkpt>
      <trkpt lat="45.80212" lon="5.50079">
        <ele>553.505</ele>
        <time>2019-06-16T10:10:57Z</time>
      </trkpt>
      <trkpt lat="45.80223" lon="5.50058">
        <ele>553.313</ele>
        <time>2019-06-16T10:11:01Z</time>
      </trkpt>
      <trkpt lat="45.80247" lon="5.50028">
        <ele>554.498</ele>
        <time>2019-06-16T10:11:10Z</time>
      </trkpt>
      <trkpt lat="45.80263" lon="5.50011">
        <ele>554.51</ele>
        <time>2019-06-16T10:11:16Z</time>
      </trkpt>
      <trkpt lat="45.80278" lon="5.49996">
        <ele>554.856</ele>
        <time>2019-06-16T10:11:20Z</time>
      </trkpt>
      <trkpt lat="45.80302" lon="5.49972">
        <ele>554.855</ele>
        <time>2019-06-16T10:11:28Z</time>
      </trkpt>
      <trkpt lat="45.80335" lon="5.49946">
        <ele>555.157</ele>
        <time>2019-06-16T10:11:37Z</time>
      </trkpt>
      <trkpt lat="45.80345" lon="5.49939">
        <ele>555.116</ele>
        <time>2019-06-16T10:11:40Z</time>
      </trkpt>
      <trkpt lat="45.80374" lon="5.49915">
        <ele>555.221</ele>
        <time>2019-06-16T10:11:48Z</time>
      </trkpt>
      <trkpt lat="45.80414" lon="5.49876">
        <ele>555.271</ele>
        <time>2019-06-16T10:11:59Z</time>
      </trkpt>
      <trkpt lat="45.8044" lon="5.4984">
        <ele>554.746</ele>
        <time>2019-06-16T10:12:08Z</time>
      </trkpt>
      <trkpt lat="45.80473" lon="5.49796">
        <ele>554.018</ele>
        <time>2019-06-16T10:12:18Z</time>
      </trkpt>
      <trkpt lat="45.80484" lon="5.49773">
        <ele>554.348</ele>
        <time>2019-06-16T10:12:22Z</time>
      </trkpt>
      <trkpt lat="45.80492" lon="5.49718">
        <ele>553.264</ele>
        <time>2019-06-16T10:12:31Z</time>
      </trkpt>
      <trkpt lat="45.80492" lon="5.49646">
        <ele>552.478</ele>
        <time>2019-06-16T10:12:41Z</time>
      </trkpt>
      <trkpt lat="45.8049" lon="5.49609">
        <ele>551.31</ele>
        <time>2019-06-16T10:12:46Z</time>
      </trkpt>
      <trkpt lat="45.80491" lon="5.49587">
        <ele>552.274</ele>
        <time>2019-06-16T10:12:49Z</time>
      </trkpt>
      <trkpt lat="45.80498" lon="5.49481">
        <ele>550.674</ele>
        <time>2019-06-16T10:13:03Z</time>
      </trkpt>
      <trkpt lat="45.80508" lon="5.49422">
        <ele>550.129</ele>
        <time>2019-06-16T10:13:12Z</time>
      </trkpt>
      <trkpt lat="45.8052" lon="5.49357">
        <ele>548.343</ele>
        <time>2019-06-16T10:13:20Z</time>
      </trkpt>
      <trkpt lat="45.80521" lon="5.49348">
        <ele>548.196</ele>
        <time>2019-06-16T10:13:21Z</time>
      </trkpt>
      <trkpt lat="45.80531" lon="5.49281">
        <ele>546.231</ele>
        <time>2019-06-16T10:13:28Z</time>
      </trkpt>
      <trkpt lat="45.80538" lon="5.49248">
        <ele>544.474</ele>
        <time>2019-06-16T10:13:32Z</time>
      </trkpt>
      <trkpt lat="45.80554" lon="5.4922">
        <ele>544.495</ele>
        <time>2019-06-16T10:13:36Z</time>
      </trkpt>
      <trkpt lat="45.80574" lon="5.49199">
        <ele>543.658</ele>
        <time>2019-06-16T10:13:40Z</time>
      </trkpt>
      <trkpt lat="45.80584" lon="5.49165">
        <ele>543.063</ele>
        <time>2019-06-16T10:13:45Z</time>
      </trkpt>
      <trkpt lat="45.80582" lon="5.4915">
        <ele>542.346</ele>
        <time>2019-06-16T10:13:47Z</time>
      </trkpt>
      <trkpt lat="45.8057" lon="5.49095">
        <ele>542.144</ele>
        <time>2019-06-16T10:13:55Z</time>
      </trkpt>
      <trkpt lat="45.80575" lon="5.49063">
        <ele>541.611</ele>
        <time>2019-06-16T10:14:00Z</time>
      </trkpt>
      <trkpt lat="45.80593" lon="5.49045">
        <ele>541.004</ele>
        <time>2019-06-16T10:14:04Z</time>
      </trkpt>
      <trkpt lat="45.80645" lon="5.49001">
        <ele>540.032</ele>
        <time>2019-06-16T10:14:15Z</time>
      </trkpt>
      <trkpt lat="45.80668" lon="5.48983">
        <ele>539.325</ele>
        <time>2019-06-16T10:14:23Z</time>
      </trkpt>
      <trkpt lat="45.80675" lon="5.48976">
        <ele>538.978</ele>
        <time>2019-06-16T10:14:30Z</time>
      </trkpt>
      <trkpt lat="45.80684" lon="5.48972">
        <ele>538.601</ele>
        <time>2019-06-16T10:14:57Z</time>
      </trkpt>
      <trkpt lat="45.80712" lon="5.48965">
        <ele>537.61</ele>
        <time>2019-06-16T10:15:03Z</time>
      </trkpt>
      <trkpt lat="45.80754" lon="5.48957">
        <ele>534.6</ele>
        <time>2019-06-16T10:15:09Z</time>
      </trkpt>
      <trkpt lat="45.80762" lon="5.48955">
        <ele>534.599</ele>
        <time>2019-06-16T10:15:10Z</time>
      </trkpt>
      <trkpt lat="45.80792" lon="5.48929">
        <ele>532.71</ele>
        <time>2019-06-16T10:15:14Z</time>
      </trkpt>
      <trkpt lat="45.80802" lon="5.48905">
        <ele>531.36</ele>
        <time>2019-06-16T10:15:16Z</time>
      </trkpt>
      <trkpt lat="45.80818" lon="5.48863">
        <ele>529.157</ele>
        <time>2019-06-16T10:15:19Z</time>
      </trkpt>
      <trkpt lat="45.80828" lon="5.48836">
        <ele>527.398</ele>
        <time>2019-06-16T10:15:21Z</time>
      </trkpt>
      <trkpt lat="45.80855" lon="5.48792">
        <ele>525.176</ele>
        <time>2019-06-16T10:15:25Z</time>
      </trkpt>
      <trkpt lat="45.80872" lon="5.48771">
        <ele>523.806</ele>
        <time>2019-06-16T10:15:28Z</time>
      </trkpt>
      <trkpt lat="45.80899" lon="5.48736">
        <ele>522.559</ele>
        <time>2019-06-16T10:15:35Z</time>
      </trkpt>
      <trkpt lat="45.80918" lon="5.48722">
        <ele>521.98</ele>
        <time>2019-06-16T10:15:41Z</time>
      </trkpt>
      <trkpt lat="45.80943" lon="5.48703">
        <ele>521.8</ele>
        <time>2019-06-16T10:15:48Z</time>
      </trkpt>
      <trkpt lat="45.80965" lon="5.48689">
        <ele>522.573</ele>
        <time>2019-06-16T10:15:54Z</time>
      </trkpt>
      <trkpt lat="45.80989" lon="5.48676">
        <ele>521.948</ele>
        <time>2019-06-16T10:16:00Z</time>
      </trkpt>
      <trkpt lat="45.81014" lon="5.48656">
        <ele>520.298</ele>
        <time>2019-06-16T10:16:06Z</time>
      </trkpt>
      <trkpt lat="45.81047" lon="5.48647">
        <ele>519.802</ele>
        <time>2019-06-16T10:16:12Z</time>
      </trkpt>
      <trkpt lat="45.81066" lon="5.48649">
        <ele>519.736</ele>
        <time>2019-06-16T10:16:16Z</time>
      </trkpt>
      <trkpt lat="45.81103" lon="5.4864">
        <ele>517.356</ele>
        <time>2019-06-16T10:16:22Z</time>
      </trkpt>
      <trkpt lat="45.81119" lon="5.48637">
        <ele>516.506</ele>
        <time>2019-06-16T10:16:24Z</time>
      </trkpt>
      <trkpt lat="45.81126" lon="5.48637">
        <ele>516.044</ele>
        <time>2019-06-16T10:16:25Z</time>
      </trkpt>
      <trkpt lat="45.81143" lon="5.4864">
        <ele>515.054</ele>
        <time>2019-06-16T10:16:27Z</time>
      </trkpt>
      <trkpt lat="45.81171" lon="5.48665">
        <ele>515.697</ele>
        <time>2019-06-16T10:16:33Z</time>
      </trkpt>
      <trkpt lat="45.81178" lon="5.48672">
        <ele>515.678</ele>
        <time>2019-06-16T10:16:35Z</time>
      </trkpt>
      <trkpt lat="45.81201" lon="5.48679">
        <ele>515.839</ele>
        <time>2019-06-16T10:16:40Z</time>
      </trkpt>
      <trkpt lat="45.8122" lon="5.48679">
        <ele>513.521</ele>
        <time>2019-06-16T10:16:46Z</time>
      </trkpt>
      <trkpt lat="45.8123" lon="5.48674">
        <ele>514.295</ele>
        <time>2019-06-16T10:16:49Z</time>
      </trkpt>
      <trkpt lat="45.81232" lon="5.48647">
        <ele>514.178</ele>
        <time>2019-06-16T10:16:55Z</time>
      </trkpt>
      <trkpt lat="45.81232" lon="5.48641">
        <ele>514.179</ele>
        <time>2019-06-16T10:16:56Z</time>
      </trkpt>
      <trkpt lat="45.81232" lon="5.48616">
        <ele>511.833</ele>
        <time>2019-06-16T10:17:00Z</time>
      </trkpt>
      <trkpt lat="45.81229" lon="5.48605">
        <ele>510.6</ele>
        <time>2019-06-16T10:17:02Z</time>
      </trkpt>
      <trkpt lat="45.81222" lon="5.48591">
        <ele>509.271</ele>
        <time>2019-06-16T10:17:05Z</time>
      </trkpt>
      <trkpt lat="45.81214" lon="5.48564">
        <ele>507.728</ele>
        <time>2019-06-16T10:17:08Z</time>
      </trkpt>
      <trkpt lat="45.81215" lon="5.4854">
        <ele>505.575</ele>
        <time>2019-06-16T10:17:12Z</time>
      </trkpt>
      <trkpt lat="45.81217" lon="5.48512">
        <ele>503.279</ele>
        <time>2019-06-16T10:17:15Z</time>
      </trkpt>
      <trkpt lat="45.81217" lon="5.48471">
        <ele>500.117</ele>
        <time>2019-06-16T10:17:21Z</time>
      </trkpt>
      <trkpt lat="45.81228" lon="5.48447">
        <ele>498.845</ele>
        <time>2019-06-16T10:17:26Z</time>
      </trkpt>
      <trkpt lat="45.81238" lon="5.48429">
        <ele>498.926</ele>
        <time>2019-06-16T10:17:32Z</time>
      </trkpt>
      <trkpt lat="45.81256" lon="5.48413">
        <ele>497.485</ele>
        <time>2019-06-16T10:17:37Z</time>
      </trkpt>
      <trkpt lat="45.81267" lon="5.48405">
        <ele>496.088</ele>
        <time>2019-06-16T10:17:41Z</time>
      </trkpt>
      <trkpt lat="45.8129" lon="5.48397">
        <ele>495.117</ele>
        <time>2019-06-16T10:17:45Z</time>
      </trkpt>
      <trkpt lat="45.81299" lon="5.48394">
        <ele>493.76</ele>
        <time>2019-06-16T10:17:47Z</time>
      </trkpt>
      <trkpt lat="45.81315" lon="5.48388">
        <ele>490.133</ele>
        <time>2019-06-16T10:17:51Z</time>
      </trkpt>
      <trkpt lat="45.8132" lon="5.48385">
        <ele>490.139</ele>
        <time>2019-06-16T10:17:52Z</time>
      </trkpt>
      <trkpt lat="45.81352" lon="5.48366">
        <ele>488.469</ele>
        <time>2019-06-16T10:17:58Z</time>
      </trkpt>
      <trkpt lat="45.81374" lon="5.48352">
        <ele>488.006</ele>
        <time>2019-06-16T10:18:04Z</time>
      </trkpt>
      <trkpt lat="45.81394" lon="5.48337">
        <ele>488.731</ele>
        <time>2019-06-16T10:18:10Z</time>
      </trkpt>
      <trkpt lat="45.81415" lon="5.48314">
        <ele>488.646</ele>
        <time>2019-06-16T10:18:16Z</time>
      </trkpt>
      <trkpt lat="45.81429" lon="5.48292">
        <ele>489</ele>
        <time>2019-06-16T10:18:22Z</time>
      </trkpt>
      <trkpt lat="45.81435" lon="5.4828">
        <ele>490.29</ele>
        <time>2019-06-16T10:18:30Z</time>
      </trkpt>
      <trkpt lat="45.81446" lon="5.48256">
        <ele>490.035</ele>
        <time>2019-06-16T10:19:57Z</time>
      </trkpt>
      <trkpt lat="45.81457" lon="5.48229">
        <ele>489.29</ele>
        <time>2019-06-16T10:20:03Z</time>
      </trkpt>
      <trkpt lat="45.81466" lon="5.48205">
        <ele>489.085</ele>
        <time>2019-06-16T10:20:09Z</time>
      </trkpt>
      <trkpt lat="45.81467" lon="5.48203">
        <ele>489.286</ele>
        <time>2019-06-16T10:20:10Z</time>
      </trkpt>
      <trkpt lat="45.81478" lon="5.48181">
        <ele>490.044</ele>
        <time>2019-06-16T10:20:17Z</time>
      </trkpt>
      <trkpt lat="45.8148" lon="5.48176">
        <ele>492.071</ele>
        <time>2019-06-16T10:20:25Z</time>
      </trkpt>
      <trkpt lat="45.81485" lon="5.48165">
        <ele>492.477</ele>
        <time>2019-06-16T10:20:27Z</time>
      </trkpt>
      <trkpt lat="45.81495" lon="5.48145">
        <ele>494.327</ele>
        <time>2019-06-16T10:20:34Z</time>
      </trkpt>
      <trkpt lat="45.81501" lon="5.48133">
        <ele>496.15</ele>
        <time>2019-06-16T10:20:41Z</time>
      </trkpt>
      <trkpt lat="45.81512" lon="5.48108">
        <ele>499.697</ele>
        <time>2019-06-16T10:21:43Z</time>
      </trkpt>
      <trkpt lat="45.81523" lon="5.48087">
        <ele>501.416</ele>
        <time>2019-06-16T10:21:57Z</time>
      </trkpt>
      <trkpt lat="45.8153" lon="5.48074">
        <ele>501.93</ele>
        <time>2019-06-16T10:22:03Z</time>
      </trkpt>
      <trkpt lat="45.81532" lon="5.4807">
        <ele>502.78</ele>
        <time>2019-06-16T10:22:09Z</time>
      </trkpt>
      <trkpt lat="45.81541" lon="5.48051">
        <ele>504.621</ele>
        <time>2019-06-16T10:22:15Z</time>
      </trkpt>
      <trkpt lat="45.81545" lon="5.48043">
        <ele>504.856</ele>
        <time>2019-06-16T10:22:21Z</time>
      </trkpt>
      <trkpt lat="45.81549" lon="5.48036">
        <ele>505.06</ele>
        <time>2019-06-16T10:22:27Z</time>
      </trkpt>
      <trkpt lat="45.81572" lon="5.4797">
        <ele>512.384</ele>
        <time>2019-06-16T10:24:39Z</time>
      </trkpt>
      <trkpt lat="45.81574" lon="5.47954">
        <ele>512.795</ele>
        <time>2019-06-16T10:24:46Z</time>
      </trkpt>
      <trkpt lat="45.81574" lon="5.47952">
        <ele>512.065</ele>
        <time>2019-06-16T10:24:53Z</time>
      </trkpt>
      <trkpt lat="45.81575" lon="5.47934">
        <ele>511.919</ele>
        <time>2019-06-16T10:24:59Z</time>
      </trkpt>
      <trkpt lat="45.81576" lon="5.4791">
        <ele>510.223</ele>
        <time>2019-06-16T10:25:05Z</time>
      </trkpt>
      <trkpt lat="45.81576" lon="5.47902">
        <ele>509.233</ele>
        <time>2019-06-16T10:25:07Z</time>
      </trkpt>
      <trkpt lat="45.81576" lon="5.47879">
        <ele>506.24</ele>
        <time>2019-06-16T10:25:13Z</time>
      </trkpt>
      <trkpt lat="45.81576" lon="5.47869">
        <ele>506.083</ele>
        <time>2019-06-16T10:25:16Z</time>
      </trkpt>
      <trkpt lat="45.81576" lon="5.47863">
        <ele>506.35</ele>
        <time>2019-06-16T10:25:25Z</time>
      </trkpt>
      <trkpt lat="45.81571" lon="5.47817">
        <ele>506.051</ele>
        <time>2019-06-16T10:25:53Z</time>
      </trkpt>
      <trkpt lat="45.81569" lon="5.47794">
        <ele>505.017</ele>
        <time>2019-06-16T10:25:59Z</time>
      </trkpt>
      <trkpt lat="45.81566" lon="5.47775">
        <ele>502.96</ele>
        <time>2019-06-16T10:26:06Z</time>
      </trkpt>
      <trkpt lat="45.81566" lon="5.47772">
        <ele>503.058</ele>
        <time>2019-06-16T10:26:07Z</time>
      </trkpt>
      <trkpt lat="45.8156" lon="5.47742">
        <ele>500.805</ele>
        <time>2019-06-16T10:26:13Z</time>
      </trkpt>
      <trkpt lat="45.81558" lon="5.4773">
        <ele>498.593</ele>
        <time>2019-06-16T10:26:17Z</time>
      </trkpt>
      <trkpt lat="45.8155" lon="5.47697">
        <ele>495.196</ele>
        <time>2019-06-16T10:26:24Z</time>
      </trkpt>
      <trkpt lat="45.81549" lon="5.47693">
        <ele>495.203</ele>
        <time>2019-06-16T10:26:25Z</time>
      </trkpt>
      <trkpt lat="45.81544" lon="5.47674">
        <ele>492.479</ele>
        <time>2019-06-16T10:26:30Z</time>
      </trkpt>
      <trkpt lat="45.81543" lon="5.47669">
        <ele>492.487</ele>
        <time>2019-06-16T10:26:31Z</time>
      </trkpt>
      <trkpt lat="45.81535" lon="5.47644">
        <ele>489.961</ele>
        <time>2019-06-16T10:26:36Z</time>
      </trkpt>
      <trkpt lat="45.81525" lon="5.47605">
        <ele>485.721</ele>
        <time>2019-06-16T10:26:44Z</time>
      </trkpt>
      <trkpt lat="45.81522" lon="5.47594">
        <ele>484.568</ele>
        <time>2019-06-16T10:26:46Z</time>
      </trkpt>
      <trkpt lat="45.8151" lon="5.47558">
        <ele>482.156</ele>
        <time>2019-06-16T10:26:51Z</time>
      </trkpt>
      <trkpt lat="45.81503" lon="5.47539">
        <ele>481.672</ele>
        <time>2019-06-16T10:26:58Z</time>
      </trkpt>
      <trkpt lat="45.81501" lon="5.47531">
        <ele>482.294</ele>
        <time>2019-06-16T10:27:04Z</time>
      </trkpt>
      <trkpt lat="45.81486" lon="5.47509">
        <ele>482.979</ele>
        <time>2019-06-16T10:27:10Z</time>
      </trkpt>
      <trkpt lat="45.81478" lon="5.47497">
        <ele>482.913</ele>
        <time>2019-06-16T10:27:13Z</time>
      </trkpt>
      <trkpt lat="45.81471" lon="5.47488">
        <ele>484.08</ele>
        <time>2019-06-16T10:27:21Z</time>
      </trkpt>
      <trkpt lat="45.81447" lon="5.47461">
        <ele>484.13</ele>
        <time>2019-06-16T10:27:27Z</time>
      </trkpt>
      <trkpt lat="45.81437" lon="5.47451">
        <ele>484.559</ele>
        <time>2019-06-16T10:27:32Z</time>
      </trkpt>
      <trkpt lat="45.81423" lon="5.47439">
        <ele>486.14</ele>
        <time>2019-06-16T10:27:38Z</time>
      </trkpt>
      <trkpt lat="45.81411" lon="5.4743">
        <ele>486.098</ele>
        <time>2019-06-16T10:27:42Z</time>
      </trkpt>
      <trkpt lat="45.81388" lon="5.47415">
        <ele>485.991</ele>
        <time>2019-06-16T10:27:48Z</time>
      </trkpt>
      <trkpt lat="45.81373" lon="5.47405">
        <ele>485.116</ele>
        <time>2019-06-16T10:27:53Z</time>
      </trkpt>
      <trkpt lat="45.81362" lon="5.47397">
        <ele>484.367</ele>
        <time>2019-06-16T10:27:56Z</time>
      </trkpt>
      <trkpt lat="45.81354" lon="5.47392">
        <ele>484.091</ele>
        <time>2019-06-16T10:28:00Z</time>
      </trkpt>
      <trkpt lat="45.81339" lon="5.47381">
        <ele>484.866</ele>
        <time>2019-06-16T10:28:06Z</time>
      </trkpt>
      <trkpt lat="45.81324" lon="5.47371">
        <ele>484.327</ele>
        <time>2019-06-16T10:28:11Z</time>
      </trkpt>
      <trkpt lat="45.8131" lon="5.47362">
        <ele>483</ele>
        <time>2019-06-16T10:28:16Z</time>
      </trkpt>
      <trkpt lat="45.81302" lon="5.47357">
        <ele>482.997</ele>
        <time>2019-06-16T10:28:22Z</time>
      </trkpt>
      <trkpt lat="45.81288" lon="5.47348">
        <ele>485.156</ele>
        <time>2019-06-16T10:28:30Z</time>
      </trkpt>
      <trkpt lat="45.81206" lon="5.47292">
        <ele>492.438</ele>
        <time>2019-06-16T10:29:19Z</time>
      </trkpt>
      <trkpt lat="45.81187" lon="5.47275">
        <ele>494.473</ele>
        <time>2019-06-16T10:29:32Z</time>
      </trkpt>
      <trkpt lat="45.81169" lon="5.47258">
        <ele>494.38</ele>
        <time>2019-06-16T10:29:40Z</time>
      </trkpt>
      <trkpt lat="45.81153" lon="5.47238">
        <ele>494.282</ele>
        <time>2019-06-16T10:29:47Z</time>
      </trkpt>
      <trkpt lat="45.81144" lon="5.47225">
        <ele>493.126</ele>
        <time>2019-06-16T10:29:52Z</time>
      </trkpt>
      <trkpt lat="45.81135" lon="5.47214">
        <ele>493.297</ele>
        <time>2019-06-16T10:29:57Z</time>
      </trkpt>
      <trkpt lat="45.81125" lon="5.47201">
        <ele>493.737</ele>
        <time>2019-06-16T10:30:03Z</time>
      </trkpt>
      <trkpt lat="45.81117" lon="5.4719">
        <ele>494.678</ele>
        <time>2019-06-16T10:30:09Z</time>
      </trkpt>
      <trkpt lat="45.81107" lon="5.47176">
        <ele>496.001</ele>
        <time>2019-06-16T10:30:16Z</time>
      </trkpt>
      <trkpt lat="45.81095" lon="5.47163">
        <ele>497.606</ele>
        <time>2019-06-16T10:30:23Z</time>
      </trkpt>
      <trkpt lat="45.81094" lon="5.47161">
        <ele>497.655</ele>
        <time>2019-06-16T10:30:24Z</time>
      </trkpt>
      <trkpt lat="45.8107" lon="5.47139">
        <ele>497.831</ele>
        <time>2019-06-16T10:30:33Z</time>
      </trkpt>
      <trkpt lat="45.81047" lon="5.47122">
        <ele>498.804</ele>
        <time>2019-06-16T10:30:44Z</time>
      </trkpt>
      <trkpt lat="45.81032" lon="5.47116">
        <ele>499.469</ele>
        <time>2019-06-16T10:30:52Z</time>
      </trkpt>
      <trkpt lat="45.81027" lon="5.47114">
        <ele>499.41</ele>
        <time>2019-06-16T10:30:54Z</time>
      </trkpt>
      <trkpt lat="45.8102" lon="5.47112">
        <ele>500.188</ele>
        <time>2019-06-16T10:31:01Z</time>
      </trkpt>
      <trkpt lat="45.81016" lon="5.47111">
        <ele>500.579</ele>
        <time>2019-06-16T10:31:08Z</time>
      </trkpt>
      <trkpt lat="45.8099" lon="5.471">
        <ele>501.339</ele>
        <time>2019-06-16T10:31:15Z</time>
      </trkpt>
      <trkpt lat="45.80987" lon="5.47099">
        <ele>500.971</ele>
        <time>2019-06-16T10:34:36Z</time>
      </trkpt>
      <trkpt lat="45.8098" lon="5.47096">
        <ele>500.228</ele>
        <time>2019-06-16T10:34:38Z</time>
      </trkpt>
      <trkpt lat="45.80964" lon="5.47089">
        <ele>498.243</ele>
        <time>2019-06-16T10:34:42Z</time>
      </trkpt>
      <trkpt lat="45.80942" lon="5.47062">
        <ele>495.173</ele>
        <time>2019-06-16T10:34:48Z</time>
      </trkpt>
      <trkpt lat="45.80921" lon="5.4705">
        <ele>494.421</ele>
        <time>2019-06-16T10:34:54Z</time>
      </trkpt>
      <trkpt lat="45.80904" lon="5.4704">
        <ele>494.215</ele>
        <time>2019-06-16T10:35:00Z</time>
      </trkpt>
      <trkpt lat="45.80876" lon="5.47018">
        <ele>494.069</ele>
        <time>2019-06-16T10:35:07Z</time>
      </trkpt>
      <trkpt lat="45.80855" lon="5.4699">
        <ele>494.637</ele>
        <time>2019-06-16T10:35:14Z</time>
      </trkpt>
      <trkpt lat="45.80835" lon="5.46957">
        <ele>495.158</ele>
        <time>2019-06-16T10:35:21Z</time>
      </trkpt>
      <trkpt lat="45.80809" lon="5.4691">
        <ele>495.425</ele>
        <time>2019-06-16T10:35:28Z</time>
      </trkpt>
      <trkpt lat="45.80809" lon="5.46892">
        <ele>495.474</ele>
        <time>2019-06-16T10:35:30Z</time>
      </trkpt>
      <trkpt lat="45.80814" lon="5.46847">
        <ele>495.635</ele>
        <time>2019-06-16T10:35:39Z</time>
      </trkpt>
      <trkpt lat="45.80811" lon="5.46825">
        <ele>496.039</ele>
        <time>2019-06-16T10:35:44Z</time>
      </trkpt>
      <trkpt lat="45.80788" lon="5.46808">
        <ele>495.803</ele>
        <time>2019-06-16T10:35:49Z</time>
      </trkpt>
      <trkpt lat="45.80753" lon="5.46785">
        <ele>494.756</ele>
        <time>2019-06-16T10:35:55Z</time>
      </trkpt>
      <trkpt lat="45.8072" lon="5.46762">
        <ele>493.872</ele>
        <time>2019-06-16T10:36:01Z</time>
      </trkpt>
      <trkpt lat="45.80661" lon="5.46716">
        <ele>493.535</ele>
        <time>2019-06-16T10:36:12Z</time>
      </trkpt>
      <trkpt lat="45.80646" lon="5.46704">
        <ele>491.976</ele>
        <time>2019-06-16T10:36:15Z</time>
      </trkpt>
      <trkpt lat="45.80603" lon="5.46681">
        <ele>489.941</ele>
        <time>2019-06-16T10:36:23Z</time>
      </trkpt>
      <trkpt lat="45.80577" lon="5.46669">
        <ele>489.404</ele>
        <time>2019-06-16T10:36:28Z</time>
      </trkpt>
      <trkpt lat="45.80545" lon="5.46626">
        <ele>487.503</ele>
        <time>2019-06-16T10:36:34Z</time>
      </trkpt>
      <trkpt lat="45.80526" lon="5.46582">
        <ele>485.148</ele>
        <time>2019-06-16T10:36:38Z</time>
      </trkpt>
      <trkpt lat="45.8051" lon="5.46546">
        <ele>482.656</ele>
        <time>2019-06-16T10:36:41Z</time>
      </trkpt>
      <trkpt lat="45.80495" lon="5.46489">
        <ele>480.143</ele>
        <time>2019-06-16T10:36:45Z</time>
      </trkpt>
      <trkpt lat="45.80489" lon="5.46459">
        <ele>477.429</ele>
        <time>2019-06-16T10:36:47Z</time>
      </trkpt>
      <trkpt lat="45.80485" lon="5.46435">
        <ele>475.288</ele>
        <time>2019-06-16T10:36:49Z</time>
      </trkpt>
      <trkpt lat="45.80482" lon="5.46424">
        <ele>471.27</ele>
        <time>2019-06-16T10:36:51Z</time>
      </trkpt>
      <trkpt lat="45.80477" lon="5.46405">
        <ele>468.333</ele>
        <time>2019-06-16T10:37:36Z</time>
      </trkpt>
      <trkpt lat="45.80475" lon="5.46382">
        <ele>464.446</ele>
        <time>2019-06-16T10:37:43Z</time>
      </trkpt>
      <trkpt lat="45.80474" lon="5.46378">
        <ele>464.439</ele>
        <time>2019-06-16T10:37:44Z</time>
      </trkpt>
      <trkpt lat="45.8042" lon="5.46377">
        <ele>461.88</ele>
        <time>2019-06-16T10:37:48Z</time>
      </trkpt>
      <trkpt lat="45.80406" lon="5.46369">
        <ele>459.971</ele>
        <time>2019-06-16T10:37:51Z</time>
      </trkpt>
      <trkpt lat="45.80397" lon="5.46363">
        <ele>458.616</ele>
        <time>2019-06-16T10:37:53Z</time>
      </trkpt>
      <trkpt lat="45.80387" lon="5.46358">
        <ele>457.092</ele>
        <time>2019-06-16T10:37:55Z</time>
      </trkpt>
      <trkpt lat="45.80368" lon="5.46294">
        <ele>454.937</ele>
        <time>2019-06-16T10:37:58Z</time>
      </trkpt>
      <trkpt lat="45.80354" lon="5.463">
        <ele>452.889</ele>
        <time>2019-06-16T10:38:01Z</time>
      </trkpt>
      <trkpt lat="45.80337" lon="5.46311">
        <ele>450.634</ele>
        <time>2019-06-16T10:38:05Z</time>
      </trkpt>
      <trkpt lat="45.80307" lon="5.46308">
        <ele>449.63</ele>
        <time>2019-06-16T10:38:09Z</time>
      </trkpt>
      <trkpt lat="45.80327" lon="5.4632">
        <ele>447.527</ele>
        <time>2019-06-16T10:38:15Z</time>
      </trkpt>
      <trkpt lat="45.80318" lon="5.4634">
        <ele>447.033</ele>
        <time>2019-06-16T10:39:36Z</time>
      </trkpt>
      <trkpt lat="45.80315" lon="5.46346">
        <ele>446.18</ele>
        <time>2019-06-16T10:39:37Z</time>
      </trkpt>
      <trkpt lat="45.80313" lon="5.46394">
        <ele>445.312</ele>
        <time>2019-06-16T10:39:43Z</time>
      </trkpt>
      <trkpt lat="45.80315" lon="5.46412">
        <ele>444.058</ele>
        <time>2019-06-16T10:39:45Z</time>
      </trkpt>
      <trkpt lat="45.80307" lon="5.46448">
        <ele>442.587</ele>
        <time>2019-06-16T10:39:50Z</time>
      </trkpt>
      <trkpt lat="45.80296" lon="5.46452">
        <ele>441.516</ele>
        <time>2019-06-16T10:39:52Z</time>
      </trkpt>
      <trkpt lat="45.80254" lon="5.46464">
        <ele>438.45</ele>
        <time>2019-06-16T10:39:58Z</time>
      </trkpt>
      <trkpt lat="45.8024" lon="5.46469">
        <ele>437.637</ele>
        <time>2019-06-16T10:40:00Z</time>
      </trkpt>
      <trkpt lat="45.80234" lon="5.46473">
        <ele>436.636</ele>
        <time>2019-06-16T10:40:01Z</time>
      </trkpt>
      <trkpt lat="45.80208" lon="5.46495">
        <ele>434.444</ele>
        <time>2019-06-16T10:40:05Z</time>
      </trkpt>
      <trkpt lat="45.80193" lon="5.46507">
        <ele>433.637</ele>
        <time>2019-06-16T10:40:07Z</time>
      </trkpt>
      <trkpt lat="45.80178" lon="5.46516">
        <ele>432.145</ele>
        <time>2019-06-16T10:40:09Z</time>
      </trkpt>
      <trkpt lat="45.80148" lon="5.46555">
        <ele>429.471</ele>
        <time>2019-06-16T10:40:14Z</time>
      </trkpt>
      <trkpt lat="45.80144" lon="5.46564">
        <ele>427.88</ele>
        <time>2019-06-16T10:40:15Z</time>
      </trkpt>
      <trkpt lat="45.80133" lon="5.46597">
        <ele>427.242</ele>
        <time>2019-06-16T10:40:18Z</time>
      </trkpt>
      <trkpt lat="45.80103" lon="5.46637">
        <ele>425.95</ele>
        <time>2019-06-16T10:40:23Z</time>
      </trkpt>
      <trkpt lat="45.80078" lon="5.46667">
        <ele>426.236</ele>
        <time>2019-06-16T10:40:27Z</time>
      </trkpt>
      <trkpt lat="45.80069" lon="5.46677">
        <ele>425.705</ele>
        <time>2019-06-16T10:40:29Z</time>
      </trkpt>
      <trkpt lat="45.80054" lon="5.4669">
        <ele>426.093</ele>
        <time>2019-06-16T10:40:33Z</time>
      </trkpt>
      <trkpt lat="45.80027" lon="5.4671">
        <ele>424.758</ele>
        <time>2019-06-16T10:40:39Z</time>
      </trkpt>
      <trkpt lat="45.79996" lon="5.46729">
        <ele>423.823</ele>
        <time>2019-06-16T10:40:46Z</time>
      </trkpt>
      <trkpt lat="45.79977" lon="5.46742">
        <ele>424.683</ele>
        <time>2019-06-16T10:40:53Z</time>
      </trkpt>
      <trkpt lat="45.79969" lon="5.46748">
        <ele>425.961</ele>
        <time>2019-06-16T10:40:58Z</time>
      </trkpt>
      <trkpt lat="45.79957" lon="5.4676">
        <ele>427.69</ele>
        <time>2019-06-16T10:41:07Z</time>
      </trkpt>
      <trkpt lat="45.79946" lon="5.46787">
        <ele>429.389</ele>
        <time>2019-06-16T10:41:19Z</time>
      </trkpt>
      <trkpt lat="45.79929" lon="5.46798">
        <ele>430.209</ele>
        <time>2019-06-16T10:41:27Z</time>
      </trkpt>
      <trkpt lat="45.79914" lon="5.468">
        <ele>431.049</ele>
        <time>2019-06-16T10:41:35Z</time>
      </trkpt>
      <trkpt lat="45.79902" lon="5.46814">
        <ele>432.716</ele>
        <time>2019-06-16T10:41:43Z</time>
      </trkpt>
      <trkpt lat="45.79884" lon="5.46835">
        <ele>433.288</ele>
        <time>2019-06-16T10:41:53Z</time>
      </trkpt>
      <trkpt lat="45.79878" lon="5.46839">
        <ele>433.665</ele>
        <time>2019-06-16T10:41:56Z</time>
      </trkpt>
      <trkpt lat="45.79859" lon="5.4685">
        <ele>434.092</ele>
        <time>2019-06-16T10:42:04Z</time>
      </trkpt>
      <trkpt lat="45.79829" lon="5.46874">
        <ele>434.014</ele>
        <time>2019-06-16T10:42:16Z</time>
      </trkpt>
      <trkpt lat="45.79811" lon="5.4689">
        <ele>433.117</ele>
        <time>2019-06-16T10:42:22Z</time>
      </trkpt>
      <trkpt lat="45.79782" lon="5.46909">
        <ele>430.857</ele>
        <time>2019-06-16T10:42:27Z</time>
      </trkpt>
      <trkpt lat="45.79725" lon="5.46926">
        <ele>427.814</ele>
        <time>2019-06-16T10:42:34Z</time>
      </trkpt>
      <trkpt lat="45.79709" lon="5.46934">
        <ele>426.376</ele>
        <time>2019-06-16T10:42:36Z</time>
      </trkpt>
      <trkpt lat="45.79698" lon="5.46945">
        <ele>423.336</ele>
        <time>2019-06-16T10:42:38Z</time>
      </trkpt>
      <trkpt lat="45.79695" lon="5.46949">
        <ele>423.334</ele>
        <time>2019-06-16T10:42:39Z</time>
      </trkpt>
      <trkpt lat="45.7969" lon="5.4696">
        <ele>423.561</ele>
        <time>2019-06-16T10:42:41Z</time>
      </trkpt>
      <trkpt lat="45.79681" lon="5.46991">
        <ele>425.394</ele>
        <time>2019-06-16T10:42:47Z</time>
      </trkpt>
      <trkpt lat="45.7967" lon="5.47005">
        <ele>424.898</ele>
        <time>2019-06-16T10:42:51Z</time>
      </trkpt>
      <trkpt lat="45.79639" lon="5.47024">
        <ele>423.082</ele>
        <time>2019-06-16T10:42:57Z</time>
      </trkpt>
      <trkpt lat="45.79601" lon="5.47046">
        <ele>420.587</ele>
        <time>2019-06-16T10:43:03Z</time>
      </trkpt>
      <trkpt lat="45.79576" lon="5.47075">
        <ele>417.553</ele>
        <time>2019-06-16T10:43:08Z</time>
      </trkpt>
      <trkpt lat="45.79571" lon="5.47084">
        <ele>417.55</ele>
        <time>2019-06-16T10:43:09Z</time>
      </trkpt>
      <trkpt lat="45.79565" lon="5.47092">
        <ele>416.683</ele>
        <time>2019-06-16T10:43:10Z</time>
      </trkpt>
      <trkpt lat="45.79543" lon="5.47114">
        <ele>413.978</ele>
        <time>2019-06-16T10:43:13Z</time>
      </trkpt>
      <trkpt lat="45.79522" lon="5.47127">
        <ele>412.409</ele>
        <time>2019-06-16T10:43:16Z</time>
      </trkpt>
      <trkpt lat="45.79514" lon="5.47132">
        <ele>411.409</ele>
        <time>2019-06-16T10:43:17Z</time>
      </trkpt>
      <trkpt lat="45.79483" lon="5.47145">
        <ele>409.185</ele>
        <time>2019-06-16T10:43:21Z</time>
      </trkpt>
      <trkpt lat="45.79467" lon="5.47157">
        <ele>407.54</ele>
        <time>2019-06-16T10:43:23Z</time>
      </trkpt>
      <trkpt lat="45.79451" lon="5.4717">
        <ele>406.169</ele>
        <time>2019-06-16T10:43:25Z</time>
      </trkpt>
      <trkpt lat="45.79436" lon="5.47185">
        <ele>405.238</ele>
        <time>2019-06-16T10:43:27Z</time>
      </trkpt>
      <trkpt lat="45.79426" lon="5.4722">
        <ele>401.51</ele>
        <time>2019-06-16T10:43:31Z</time>
      </trkpt>
      <trkpt lat="45.79399" lon="5.47269">
        <ele>400.007</ele>
        <time>2019-06-16T10:43:37Z</time>
      </trkpt>
      <trkpt lat="45.79384" lon="5.47277">
        <ele>398.508</ele>
        <time>2019-06-16T10:43:39Z</time>
      </trkpt>
      <trkpt lat="45.79367" lon="5.47282">
        <ele>397.379</ele>
        <time>2019-06-16T10:43:41Z</time>
      </trkpt>
      <trkpt lat="45.7935" lon="5.47288">
        <ele>396.714</ele>
        <time>2019-06-16T10:43:43Z</time>
      </trkpt>
      <trkpt lat="45.79326" lon="5.47299">
        <ele>395.324</ele>
        <time>2019-06-16T10:43:46Z</time>
      </trkpt>
      <trkpt lat="45.79291" lon="5.47314">
        <ele>393.208</ele>
        <time>2019-06-16T10:43:50Z</time>
      </trkpt>
      <trkpt lat="45.79266" lon="5.47336">
        <ele>391.04</ele>
        <time>2019-06-16T10:43:53Z</time>
      </trkpt>
      <trkpt lat="45.79248" lon="5.47348">
        <ele>390.067</ele>
        <time>2019-06-16T10:43:55Z</time>
      </trkpt>
      <trkpt lat="45.7921" lon="5.47356">
        <ele>387.314</ele>
        <time>2019-06-16T10:43:59Z</time>
      </trkpt>
      <trkpt lat="45.7918" lon="5.47371">
        <ele>385.963</ele>
        <time>2019-06-16T10:44:02Z</time>
      </trkpt>
      <trkpt lat="45.79135" lon="5.474">
        <ele>383.455</ele>
        <time>2019-06-16T10:44:07Z</time>
      </trkpt>
      <trkpt lat="45.79083" lon="5.4744">
        <ele>381.038</ele>
        <time>2019-06-16T10:44:13Z</time>
      </trkpt>
      <trkpt lat="45.79058" lon="5.47459">
        <ele>379.099</ele>
        <time>2019-06-16T10:44:16Z</time>
      </trkpt>
      <trkpt lat="45.79042" lon="5.4747">
        <ele>379.018</ele>
        <time>2019-06-16T10:44:18Z</time>
      </trkpt>
      <trkpt lat="45.79011" lon="5.47518">
        <ele>377.493</ele>
        <time>2019-06-16T10:44:24Z</time>
      </trkpt>
      <trkpt lat="45.7898" lon="5.47563">
        <ele>377.389</ele>
        <time>2019-06-16T10:44:31Z</time>
      </trkpt>
      <trkpt lat="45.78959" lon="5.47591">
        <ele>378.234</ele>
        <time>2019-06-16T10:44:38Z</time>
      </trkpt>
      <trkpt lat="45.78933" lon="5.47624">
        <ele>379.41</ele>
        <time>2019-06-16T10:44:48Z</time>
      </trkpt>
      <trkpt lat="45.78924" lon="5.47633">
        <ele>377.015</ele>
        <time>2019-06-16T10:44:54Z</time>
      </trkpt>
      <trkpt lat="45.78917" lon="5.47638">
        <ele>375.441</ele>
        <time>2019-06-16T10:46:58Z</time>
      </trkpt>
      <trkpt lat="45.78907" lon="5.47642">
        <ele>375.471</ele>
        <time>2019-06-16T10:47:01Z</time>
      </trkpt>
      <trkpt lat="45.78891" lon="5.47648">
        <ele>372.98</ele>
        <time>2019-06-16T10:47:06Z</time>
      </trkpt>
      <trkpt lat="45.78888" lon="5.47649">
        <ele>371.539</ele>
        <time>2019-06-16T10:47:11Z</time>
      </trkpt>
      <trkpt lat="45.78887" lon="5.47639">
        <ele>371.422</ele>
        <time>2019-06-16T10:47:14Z</time>
      </trkpt>
      <trkpt lat="45.78897" lon="5.47624">
        <ele>370.672</ele>
        <time>2019-06-16T10:47:19Z</time>
      </trkpt>
      <trkpt lat="45.78916" lon="5.4759">
        <ele>369.616</ele>
        <time>2019-06-16T10:47:25Z</time>
      </trkpt>
      <trkpt lat="45.7892" lon="5.47583">
        <ele>369.615</ele>
        <time>2019-06-16T10:47:26Z</time>
      </trkpt>
      <trkpt lat="45.78966" lon="5.47524">
        <ele>366.906</ele>
        <time>2019-06-16T10:47:34Z</time>
      </trkpt>
      <trkpt lat="45.78977" lon="5.47505">
        <ele>366.298</ele>
        <time>2019-06-16T10:47:36Z</time>
      </trkpt>
      <trkpt lat="45.78998" lon="5.47465">
        <ele>363.935</ele>
        <time>2019-06-16T10:47:40Z</time>
      </trkpt>
      <trkpt lat="45.79041" lon="5.47418">
        <ele>361.141</ele>
        <time>2019-06-16T10:47:46Z</time>
      </trkpt>
      <trkpt lat="45.79065" lon="5.474">
        <ele>357.8</ele>
        <time>2019-06-16T10:47:49Z</time>
      </trkpt>
      <trkpt lat="45.79086" lon="5.47373">
        <ele>356.324</ele>
        <time>2019-06-16T10:47:52Z</time>
      </trkpt>
      <trkpt lat="45.79099" lon="5.47354">
        <ele>355.044</ele>
        <time>2019-06-16T10:47:54Z</time>
      </trkpt>
      <trkpt lat="45.79114" lon="5.47339">
        <ele>354.058</ele>
        <time>2019-06-16T10:47:56Z</time>
      </trkpt>
      <trkpt lat="45.79139" lon="5.4732">
        <ele>352.36</ele>
        <time>2019-06-16T10:47:59Z</time>
      </trkpt>
      <trkpt lat="45.79148" lon="5.47313">
        <ele>351.366</ele>
        <time>2019-06-16T10:48:00Z</time>
      </trkpt>
      <trkpt lat="45.79171" lon="5.47284">
        <ele>349.884</ele>
        <time>2019-06-16T10:48:03Z</time>
      </trkpt>
      <trkpt lat="45.79192" lon="5.47251">
        <ele>347.826</ele>
        <time>2019-06-16T10:48:06Z</time>
      </trkpt>
      <trkpt lat="45.79234" lon="5.4718">
        <ele>344.822</ele>
        <time>2019-06-16T10:48:12Z</time>
      </trkpt>
      <trkpt lat="45.79242" lon="5.4717">
        <ele>344.818</ele>
        <time>2019-06-16T10:48:13Z</time>
      </trkpt>
      <trkpt lat="45.79277" lon="5.47134">
        <ele>343.598</ele>
        <time>2019-06-16T10:48:17Z</time>
      </trkpt>
      <trkpt lat="45.79291" lon="5.47097">
        <ele>341.986</ele>
        <time>2019-06-16T10:48:20Z</time>
      </trkpt>
      <trkpt lat="45.79325" lon="5.4701">
        <ele>341.14</ele>
        <time>2019-06-16T10:48:28Z</time>
      </trkpt>
      <trkpt lat="45.79339" lon="5.46948">
        <ele>339.455</ele>
        <time>2019-06-16T10:48:34Z</time>
      </trkpt>
      <trkpt lat="45.79332" lon="5.46913">
        <ele>339.626</ele>
        <time>2019-06-16T10:48:38Z</time>
      </trkpt>
      <trkpt lat="45.79328" lon="5.46904">
        <ele>338.38</ele>
        <time>2019-06-16T10:48:39Z</time>
      </trkpt>
      <trkpt lat="45.79318" lon="5.46888">
        <ele>336.782</ele>
        <time>2019-06-16T10:48:41Z</time>
      </trkpt>
      <trkpt lat="45.7931" lon="5.46875">
        <ele>335.464</ele>
        <time>2019-06-16T10:48:43Z</time>
      </trkpt>
      <trkpt lat="45.79301" lon="5.46862">
        <ele>334.149</ele>
        <time>2019-06-16T10:48:47Z</time>
      </trkpt>
      <trkpt lat="45.79301" lon="5.46852">
        <ele>333.188</ele>
        <time>2019-06-16T10:48:53Z</time>
      </trkpt>
      <trkpt lat="45.79281" lon="5.46865">
        <ele>333.073</ele>
        <time>2019-06-16T10:49:33Z</time>
      </trkpt>
      <trkpt lat="45.79246" lon="5.46898">
        <ele>332.901</ele>
        <time>2019-06-16T10:49:42Z</time>
      </trkpt>
      <trkpt lat="45.79209" lon="5.46927">
        <ele>331.808</ele>
        <time>2019-06-16T10:49:50Z</time>
      </trkpt>
      <trkpt lat="45.79194" lon="5.46964">
        <ele>332.173</ele>
        <time>2019-06-16T10:49:57Z</time>
      </trkpt>
      <trkpt lat="45.79183" lon="5.46984">
        <ele>332.214</ele>
        <time>2019-06-16T10:50:01Z</time>
      </trkpt>
      <trkpt lat="45.79175" lon="5.46992">
        <ele>332.339</ele>
        <time>2019-06-16T10:50:03Z</time>
      </trkpt>
      <trkpt lat="45.7914" lon="5.47022">
        <ele>331.137</ele>
        <time>2019-06-16T10:50:12Z</time>
      </trkpt>
      <trkpt lat="45.79135" lon="5.47024">
        <ele>331.137</ele>
        <time>2019-06-16T10:50:13Z</time>
      </trkpt>
      <trkpt lat="45.79112" lon="5.47034">
        <ele>329.689</ele>
        <time>2019-06-16T10:50:17Z</time>
      </trkpt>
      <trkpt lat="45.7907" lon="5.47064">
        <ele>327.12</ele>
        <time>2019-06-16T10:50:23Z</time>
      </trkpt>
      <trkpt lat="45.79057" lon="5.47083">
        <ele>325.851</ele>
        <time>2019-06-16T10:50:25Z</time>
      </trkpt>
      <trkpt lat="45.79031" lon="5.47124">
        <ele>323.307</ele>
        <time>2019-06-16T10:50:29Z</time>
      </trkpt>
      <trkpt lat="45.79025" lon="5.47132">
        <ele>321.797</ele>
        <time>2019-06-16T10:50:30Z</time>
      </trkpt>
      <trkpt lat="45.7902" lon="5.47146">
        <ele>320.102</ele>
        <time>2019-06-16T10:50:32Z</time>
      </trkpt>
      <trkpt lat="45.7902" lon="5.47159">
        <ele>318.804</ele>
        <time>2019-06-16T10:50:34Z</time>
      </trkpt>
      <trkpt lat="45.79038" lon="5.47164">
        <ele>318.274</ele>
        <time>2019-06-16T10:50:37Z</time>
      </trkpt>
      <trkpt lat="45.7905" lon="5.47154">
        <ele>316.884</ele>
        <time>2019-06-16T10:50:39Z</time>
      </trkpt>
      <trkpt lat="45.79063" lon="5.47145">
        <ele>316.364</ele>
        <time>2019-06-16T10:50:41Z</time>
      </trkpt>
      <trkpt lat="45.79087" lon="5.47157">
        <ele>314.831</ele>
        <time>2019-06-16T10:50:45Z</time>
      </trkpt>
      <trkpt lat="45.79077" lon="5.47185">
        <ele>312.921</ele>
        <time>2019-06-16T10:50:48Z</time>
      </trkpt>
      <trkpt lat="45.7907" lon="5.47191">
        <ele>312.452</ele>
        <time>2019-06-16T10:50:49Z</time>
      </trkpt>
      <trkpt lat="45.79029" lon="5.47229">
        <ele>309.751</ele>
        <time>2019-06-16T10:50:55Z</time>
      </trkpt>
      <trkpt lat="45.79013" lon="5.47246">
        <ele>308.446</ele>
        <time>2019-06-16T10:50:57Z</time>
      </trkpt>
      <trkpt lat="45.78997" lon="5.47262">
        <ele>306.96</ele>
        <time>2019-06-16T10:50:59Z</time>
      </trkpt>
      <trkpt lat="45.78981" lon="5.4728">
        <ele>304.649</ele>
        <time>2019-06-16T10:51:01Z</time>
      </trkpt>
      <trkpt lat="45.78953" lon="5.47297">
        <ele>303.216</ele>
        <time>2019-06-16T10:51:04Z</time>
      </trkpt>
      <trkpt lat="45.78937" lon="5.47307">
        <ele>301.319</ele>
        <time>2019-06-16T10:51:06Z</time>
      </trkpt>
      <trkpt lat="45.78928" lon="5.47309">
        <ele>299.849</ele>
        <time>2019-06-16T10:51:07Z</time>
      </trkpt>
      <trkpt lat="45.78916" lon="5.47309">
        <ele>298.077</ele>
        <time>2019-06-16T10:51:09Z</time>
      </trkpt>
      <trkpt lat="45.78905" lon="5.47289">
        <ele>296.008</ele>
        <time>2019-06-16T10:51:12Z</time>
      </trkpt>
      <trkpt lat="45.78885" lon="5.47282">
        <ele>293.832</ele>
        <time>2019-06-16T10:51:16Z</time>
      </trkpt>
      <trkpt lat="45.78879" lon="5.47287">
        <ele>292.601</ele>
        <time>2019-06-16T10:51:17Z</time>
      </trkpt>
      <trkpt lat="45.78839" lon="5.47315">
        <ele>289.187</ele>
        <time>2019-06-16T10:51:22Z</time>
      </trkpt>
      <trkpt lat="45.78831" lon="5.47321">
        <ele>289.188</ele>
        <time>2019-06-16T10:51:23Z</time>
      </trkpt>
      <trkpt lat="45.78814" lon="5.47334">
        <ele>287.664</ele>
        <time>2019-06-16T10:51:25Z</time>
      </trkpt>
      <trkpt lat="45.78773" lon="5.47361">
        <ele>283.915</ele>
        <time>2019-06-16T10:51:29Z</time>
      </trkpt>
      <trkpt lat="45.78763" lon="5.47368">
        <ele>283.916</ele>
        <time>2019-06-16T10:51:30Z</time>
      </trkpt>
      <trkpt lat="45.78742" lon="5.47386">
        <ele>281.998</ele>
        <time>2019-06-16T10:51:32Z</time>
      </trkpt>
      <trkpt lat="45.78724" lon="5.47406">
        <ele>280.092</ele>
        <time>2019-06-16T10:51:34Z</time>
      </trkpt>
      <trkpt lat="45.7871" lon="5.47418">
        <ele>278.065</ele>
        <time>2019-06-16T10:51:36Z</time>
      </trkpt>
      <trkpt lat="45.78691" lon="5.47413">
        <ele>274.738</ele>
        <time>2019-06-16T10:51:39Z</time>
      </trkpt>
      <trkpt lat="45.7868" lon="5.47396">
        <ele>273.232</ele>
        <time>2019-06-16T10:51:41Z</time>
      </trkpt>
      <trkpt lat="45.78667" lon="5.47376">
        <ele>272.063</ele>
        <time>2019-06-16T10:51:43Z</time>
      </trkpt>
      <trkpt lat="45.78645" lon="5.47345">
        <ele>270.154</ele>
        <time>2019-06-16T10:51:46Z</time>
      </trkpt>
      <trkpt lat="45.78627" lon="5.4732">
        <ele>267.182</ele>
        <time>2019-06-16T10:51:49Z</time>
      </trkpt>
      <trkpt lat="45.78624" lon="5.47292">
        <ele>264.99</ele>
        <time>2019-06-16T10:51:53Z</time>
      </trkpt>
      <trkpt lat="45.78631" lon="5.47279">
        <ele>264.943</ele>
        <time>2019-06-16T10:51:55Z</time>
      </trkpt>
      <trkpt lat="45.78683" lon="5.47188">
        <ele>265.596</ele>
        <time>2019-06-16T10:52:09Z</time>
      </trkpt>
      <trkpt lat="45.78725" lon="5.47127">
        <ele>264.476</ele>
        <time>2019-06-16T10:52:19Z</time>
      </trkpt>
      <trkpt lat="45.78771" lon="5.47067">
        <ele>264.481</ele>
        <time>2019-06-16T10:52:29Z</time>
      </trkpt>
      <trkpt lat="45.78809" lon="5.47016">
        <ele>262.977</ele>
        <time>2019-06-16T10:52:37Z</time>
      </trkpt>
      <trkpt lat="45.78846" lon="5.46968">
        <ele>260.903</ele>
        <time>2019-06-16T10:52:44Z</time>
      </trkpt>
      <trkpt lat="45.78893" lon="5.46927">
        <ele>258.001</ele>
        <time>2019-06-16T10:52:51Z</time>
      </trkpt>
      <trkpt lat="45.78907" lon="5.46914">
        <ele>256.761</ele>
        <time>2019-06-16T10:52:53Z</time>
      </trkpt>
      <trkpt lat="45.78959" lon="5.46882">
        <ele>254.322</ele>
        <time>2019-06-16T10:53:00Z</time>
      </trkpt>
      <trkpt lat="45.79025" lon="5.46831">
        <ele>252.312</ele>
        <time>2019-06-16T10:53:10Z</time>
      </trkpt>
      <trkpt lat="45.79052" lon="5.46808">
        <ele>252.297</ele>
        <time>2019-06-16T10:53:14Z</time>
      </trkpt>
      <trkpt lat="45.79068" lon="5.46784">
        <ele>251.715</ele>
        <time>2019-06-16T10:53:17Z</time>
      </trkpt>
      <trkpt lat="45.79102" lon="5.46699">
        <ele>250.676</ele>
        <time>2019-06-16T10:53:26Z</time>
      </trkpt>
      <trkpt lat="45.79132" lon="5.46649">
        <ele>249.713</ele>
        <time>2019-06-16T10:53:33Z</time>
      </trkpt>
      <trkpt lat="45.79136" lon="5.46644">
        <ele>249.844</ele>
        <time>2019-06-16T10:53:34Z</time>
      </trkpt>
      <trkpt lat="45.79178" lon="5.4659">
        <ele>246.291</ele>
        <time>2019-06-16T10:53:43Z</time>
      </trkpt>
      <trkpt lat="45.79183" lon="5.46583">
        <ele>246.29</ele>
        <time>2019-06-16T10:53:44Z</time>
      </trkpt>
      <trkpt lat="45.79215" lon="5.46546">
        <ele>244.321</ele>
        <time>2019-06-16T10:53:50Z</time>
      </trkpt>
      <trkpt lat="45.7927" lon="5.46479">
        <ele>242.284</ele>
        <time>2019-06-16T10:54:01Z</time>
      </trkpt>
      <trkpt lat="45.79308" lon="5.46441">
        <ele>241.69</ele>
        <time>2019-06-16T10:54:10Z</time>
      </trkpt>
      <trkpt lat="45.79368" lon="5.46377">
        <ele>239.546</ele>
        <time>2019-06-16T10:54:24Z</time>
      </trkpt>
      <trkpt lat="45.79404" lon="5.46328">
        <ele>239.382</ele>
        <time>2019-06-16T10:54:34Z</time>
      </trkpt>
      <trkpt lat="45.79436" lon="5.46281">
        <ele>238.411</ele>
        <time>2019-06-16T10:54:45Z</time>
      </trkpt>
      <trkpt lat="45.79443" lon="5.46272">
        <ele>238.266</ele>
        <time>2019-06-16T10:54:47Z</time>
      </trkpt>
      <trkpt lat="45.79456" lon="5.46251">
        <ele>237.779</ele>
        <time>2019-06-16T10:54:51Z</time>
      </trkpt>
      <trkpt lat="45.79477" lon="5.46218">
        <ele>237.754</ele>
        <time>2019-06-16T10:54:59Z</time>
      </trkpt>
      <trkpt lat="45.79484" lon="5.46207">
        <ele>238.243</ele>
        <time>2019-06-16T10:57:59Z</time>
      </trkpt>
      <trkpt lat="45.79491" lon="5.46195">
        <ele>238.205</ele>
        <time>2019-06-16T10:58:04Z</time>
      </trkpt>
      <trkpt lat="45.79492" lon="5.46192">
        <ele>238.966</ele>
        <time>2019-06-16T10:58:09Z</time>
      </trkpt>
      <trkpt lat="45.79479" lon="5.46176">
        <ele>238.483</ele>
        <time>2019-06-16T10:58:15Z</time>
      </trkpt>
      <trkpt lat="45.79472" lon="5.46178">
        <ele>238.711</ele>
        <time>2019-06-16T10:58:17Z</time>
      </trkpt>
      <trkpt lat="45.79452" lon="5.4618">
        <ele>239.51</ele>
        <time>2019-06-16T10:58:23Z</time>
      </trkpt>
      <trkpt lat="45.79432" lon="5.46145">
        <ele>239.828</ele>
        <time>2019-06-16T10:58:31Z</time>
      </trkpt>
      <trkpt lat="45.79408" lon="5.46085">
        <ele>240.184</ele>
        <time>2019-06-16T10:58:43Z</time>
      </trkpt>
      <trkpt lat="45.79379" lon="5.46027">
        <ele>239.467</ele>
        <time>2019-06-16T10:58:54Z</time>
      </trkpt>
      <trkpt lat="45.79352" lon="5.45982">
        <ele>238.663</ele>
        <time>2019-06-16T10:59:02Z</time>
      </trkpt>
      <trkpt lat="45.79311" lon="5.45922">
        <ele>237.399</ele>
        <time>2019-06-16T10:59:11Z</time>
      </trkpt>
      <trkpt lat="45.79284" lon="5.45888">
        <ele>237.362</ele>
        <time>2019-06-16T10:59:18Z</time>
      </trkpt>
      <trkpt lat="45.79259" lon="5.45836">
        <ele>236.156</ele>
        <time>2019-06-16T10:59:27Z</time>
      </trkpt>
      <trkpt lat="45.79249" lon="5.45786">
        <ele>235.08</ele>
        <time>2019-06-16T10:59:34Z</time>
      </trkpt>
      <trkpt lat="45.79225" lon="5.45725">
        <ele>233.58</ele>
        <time>2019-06-16T10:59:43Z</time>
      </trkpt>
      <trkpt lat="45.79202" lon="5.45666">
        <ele>233.825</ele>
        <time>2019-06-16T10:59:51Z</time>
      </trkpt>
      <trkpt lat="45.79194" lon="5.45646">
        <ele>233.816</ele>
        <time>2019-06-16T10:59:54Z</time>
      </trkpt>
      <trkpt lat="45.79168" lon="5.45593">
        <ele>232.63</ele>
        <time>2019-06-16T11:00:03Z</time>
      </trkpt>
      <trkpt lat="45.79157" lon="5.45577">
        <ele>232.861</ele>
        <time>2019-06-16T11:00:06Z</time>
      </trkpt>
      <trkpt lat="45.79144" lon="5.45554">
        <ele>232.124</ele>
        <time>2019-06-16T11:00:10Z</time>
      </trkpt>
      <trkpt lat="45.79132" lon="5.45521">
        <ele>231.436</ele>
        <time>2019-06-16T11:00:15Z</time>
      </trkpt>
      <trkpt lat="45.79116" lon="5.45472">
        <ele>231.391</ele>
        <time>2019-06-16T11:00:22Z</time>
      </trkpt>
      <trkpt lat="45.79089" lon="5.45398">
        <ele>230.1</ele>
        <time>2019-06-16T11:00:31Z</time>
      </trkpt>
      <trkpt lat="45.79055" lon="5.45325">
        <ele>229.253</ele>
        <time>2019-06-16T11:00:40Z</time>
      </trkpt>
      <trkpt lat="45.7903" lon="5.45272">
        <ele>228.386</ele>
        <time>2019-06-16T11:00:47Z</time>
      </trkpt>
      <trkpt lat="45.79007" lon="5.4522">
        <ele>227.565</ele>
        <time>2019-06-16T11:00:55Z</time>
      </trkpt>
      <trkpt lat="45.78999" lon="5.45212">
        <ele>227.396</ele>
        <time>2019-06-16T11:00:58Z</time>
      </trkpt>
      <trkpt lat="45.79007" lon="5.45202">
        <ele>226.028</ele>
        <time>2019-06-16T11:01:02Z</time>
      </trkpt>
      <trkpt lat="45.79036" lon="5.45182">
        <ele>226.431</ele>
        <time>2019-06-16T11:01:11Z</time>
      </trkpt>
      <trkpt lat="45.79077" lon="5.45156">
        <ele>227.23</ele>
        <time>2019-06-16T11:01:21Z</time>
      </trkpt>
      <trkpt lat="45.79126" lon="5.45125">
        <ele>226.483</ele>
        <time>2019-06-16T11:01:32Z</time>
      </trkpt>
      <trkpt lat="45.79165" lon="5.45117">
        <ele>226.155</ele>
        <time>2019-06-16T11:01:41Z</time>
      </trkpt>
      <trkpt lat="45.79198" lon="5.451">
        <ele>225.624</ele>
        <time>2019-06-16T11:01:49Z</time>
      </trkpt>
      <trkpt lat="45.79202" lon="5.45056">
        <ele>221.336</ele>
        <time>2019-06-16T11:04:48Z</time>
      </trkpt>
      <trkpt lat="45.79193" lon="5.45039">
        <ele>220.83</ele>
        <time>2019-06-16T11:04:54Z</time>
      </trkpt>
      <trkpt lat="45.79188" lon="5.45028">
        <ele>221.349</ele>
        <time>2019-06-16T11:04:58Z</time>
      </trkpt>
      <trkpt lat="45.79183" lon="5.45006">
        <ele>220.57</ele>
        <time>2019-06-16T11:05:02Z</time>
      </trkpt>
      <trkpt lat="45.79177" lon="5.44997">
        <ele>220.276</ele>
        <time>2019-06-16T11:05:05Z</time>
      </trkpt>
      <trkpt lat="45.7917" lon="5.4498">
        <ele>219.935</ele>
        <time>2019-06-16T11:05:09Z</time>
      </trkpt>
      <trkpt lat="45.79168" lon="5.44963">
        <ele>220.244</ele>
        <time>2019-06-16T11:05:14Z</time>
      </trkpt>
      <trkpt lat="45.79169" lon="5.4495">
        <ele>219.797</ele>
        <time>2019-06-16T11:05:18Z</time>
      </trkpt>
      <trkpt lat="45.79169" lon="5.44945">
        <ele>219.582</ele>
        <time>2019-06-16T11:05:20Z</time>
      </trkpt>
      <trkpt lat="45.79169" lon="5.44936">
        <ele>218.975</ele>
        <time>2019-06-16T11:05:24Z</time>
      </trkpt>
      <trkpt lat="45.79164" lon="5.44909">
        <ele>219.255</ele>
        <time>2019-06-16T11:05:30Z</time>
      </trkpt>
      <trkpt lat="45.7916" lon="5.44884">
        <ele>219.129</ele>
        <time>2019-06-16T11:05:36Z</time>
      </trkpt>
      <trkpt lat="45.79159" lon="5.44881">
        <ele>219.123</ele>
        <time>2019-06-16T11:05:37Z</time>
      </trkpt>
      <trkpt lat="45.79158" lon="5.44872">
        <ele>218.956</ele>
        <time>2019-06-16T11:05:40Z</time>
      </trkpt>
      <trkpt lat="45.79155" lon="5.44849">
        <ele>218.725</ele>
        <time>2019-06-16T11:05:47Z</time>
      </trkpt>
      <trkpt lat="45.79149" lon="5.4484">
        <ele>218.706</ele>
        <time>2019-06-16T11:05:51Z</time>
      </trkpt>
      <trkpt lat="45.79146" lon="5.44828">
        <ele>218.594</ele>
        <time>2019-06-16T11:05:54Z</time>
      </trkpt>
      <trkpt lat="45.79144" lon="5.44818">
        <ele>217.91</ele>
        <time>2019-06-16T11:05:56Z</time>
      </trkpt>
      <trkpt lat="45.79137" lon="5.44812">
        <ele>217.812</ele>
        <time>2019-06-16T11:06:00Z</time>
      </trkpt>
      <trkpt lat="45.79134" lon="5.44811">
        <ele>218.393</ele>
        <time>2019-06-16T11:06:02Z</time>
      </trkpt>
      <trkpt lat="45.79125" lon="5.44805">
        <ele>218.019</ele>
        <time>2019-06-16T11:06:06Z</time>
      </trkpt>
      <trkpt lat="45.79108" lon="5.44771">
        <ele>218.84</ele>
        <time>2019-06-16T11:06:15Z</time>
      </trkpt>
      <trkpt lat="45.79098" lon="5.44737">
        <ele>218.136</ele>
        <time>2019-06-16T11:06:22Z</time>
      </trkpt>
      <trkpt lat="45.79091" lon="5.44707">
        <ele>217.555</ele>
        <time>2019-06-16T11:06:28Z</time>
      </trkpt>
      <trkpt lat="45.79085" lon="5.4468">
        <ele>217.429</ele>
        <time>2019-06-16T11:06:34Z</time>
      </trkpt>
      <trkpt lat="45.79083" lon="5.44672">
        <ele>217.267</ele>
        <time>2019-06-16T11:06:36Z</time>
      </trkpt>
      <trkpt lat="45.79084" lon="5.44628">
        <ele>217.062</ele>
        <time>2019-06-16T11:06:44Z</time>
      </trkpt>
      <trkpt lat="45.79082" lon="5.44594">
        <ele>216.944</ele>
        <time>2019-06-16T11:06:49Z</time>
      </trkpt>
      <trkpt lat="45.79079" lon="5.44546">
        <ele>217.183</ele>
        <time>2019-06-16T11:06:56Z</time>
      </trkpt>
      <trkpt lat="45.79082" lon="5.44503">
        <ele>216.421</ele>
        <time>2019-06-16T11:07:03Z</time>
      </trkpt>
      <trkpt lat="45.79093" lon="5.44448">
        <ele>215.721</ele>
        <time>2019-06-16T11:07:13Z</time>
      </trkpt>
      <trkpt lat="45.79095" lon="5.44432">
        <ele>216.162</ele>
        <time>2019-06-16T11:07:17Z</time>
      </trkpt>
      <trkpt lat="45.79093" lon="5.44418">
        <ele>216.074</ele>
        <time>2019-06-16T11:07:24Z</time>
      </trkpt>
      <trkpt lat="45.79093" lon="5.44452">
        <ele>216.107</ele>
        <time>2019-06-16T11:07:28Z</time>
      </trkpt>
      <trkpt lat="45.79071" lon="5.44468">
        <ele>216.09</ele>
        <time>2019-06-16T11:07:58Z</time>
      </trkpt>
      <trkpt lat="45.79048" lon="5.44486">
        <ele>216.071</ele>
        <time>2019-06-16T11:08:07Z</time>
      </trkpt>
      <trkpt lat="45.79025" lon="5.44502">
        <ele>216.228</ele>
        <time>2019-06-16T11:08:15Z</time>
      </trkpt>
      <trkpt lat="45.78986" lon="5.44528">
        <ele>216.333</ele>
        <time>2019-06-16T11:08:27Z</time>
      </trkpt>
      <trkpt lat="45.78949" lon="5.44547">
        <ele>216.166</ele>
        <time>2019-06-16T11:08:38Z</time>
      </trkpt>
      <trkpt lat="45.78906" lon="5.44571">
        <ele>216.563</ele>
        <time>2019-06-16T11:08:53Z</time>
      </trkpt>
      <trkpt lat="45.78879" lon="5.44586">
        <ele>216.516</ele>
        <time>2019-06-16T11:09:02Z</time>
      </trkpt>
      <trkpt lat="45.78857" lon="5.44599">
        <ele>216.578</ele>
        <time>2019-06-16T11:09:12Z</time>
      </trkpt>
      <trkpt lat="45.78847" lon="5.44605">
        <ele>215.791</ele>
        <time>2019-06-16T11:09:21Z</time>
      </trkpt>
      <trkpt lat="45.78824" lon="5.44619">
        <ele>216.076</ele>
        <time>2019-06-16T11:09:50Z</time>
      </trkpt>
      <trkpt lat="45.788" lon="5.44635">
        <ele>215.762</ele>
        <time>2019-06-16T11:10:00Z</time>
      </trkpt>
      <trkpt lat="45.78781" lon="5.4465">
        <ele>215.645</ele>
        <time>2019-06-16T11:10:10Z</time>
      </trkpt>
      <trkpt lat="45.78758" lon="5.44673">
        <ele>215.553</ele>
        <time>2019-06-16T11:10:20Z</time>
      </trkpt>
      <trkpt lat="45.78732" lon="5.44701">
        <ele>215.901</ele>
        <time>2019-06-16T11:10:30Z</time>
      </trkpt>
      <trkpt lat="45.78708" lon="5.44728">
        <ele>215.249</ele>
        <time>2019-06-16T11:10:40Z</time>
      </trkpt>
      <trkpt lat="45.78676" lon="5.44767">
        <ele>215.381</ele>
        <time>2019-06-16T11:10:53Z</time>
      </trkpt>
      <trkpt lat="45.78649" lon="5.44809">
        <ele>215.151</ele>
        <time>2019-06-16T11:11:06Z</time>
      </trkpt>
      <trkpt lat="45.78618" lon="5.44855">
        <ele>215.703</ele>
        <time>2019-06-16T11:11:20Z</time>
      </trkpt>
      <trkpt lat="45.786" lon="5.44885">
        <ele>215.354</ele>
        <time>2019-06-16T11:11:30Z</time>
      </trkpt>
      <trkpt lat="45.78584" lon="5.44908">
        <ele>215.434</ele>
        <time>2019-06-16T11:11:39Z</time>
      </trkpt>
      <trkpt lat="45.78563" lon="5.4494">
        <ele>215.519</ele>
        <time>2019-06-16T11:11:50Z</time>
      </trkpt>
      <trkpt lat="45.78546" lon="5.44966">
        <ele>216.017</ele>
        <time>2019-06-16T11:11:59Z</time>
      </trkpt>
      <trkpt lat="45.78524" lon="5.45001">
        <ele>215.984</ele>
        <time>2019-06-16T11:12:11Z</time>
      </trkpt>
      <trkpt lat="45.78504" lon="5.45036">
        <ele>215.744</ele>
        <time>2019-06-16T11:12:23Z</time>
      </trkpt>
      <trkpt lat="45.78491" lon="5.4506">
        <ele>215.682</ele>
        <time>2019-06-16T11:12:32Z</time>
      </trkpt>
      <trkpt lat="45.7848" lon="5.45087">
        <ele>214.965</ele>
        <time>2019-06-16T11:12:41Z</time>
      </trkpt>
      <trkpt lat="45.78472" lon="5.45117">
        <ele>215.372</ele>
        <time>2019-06-16T11:12:51Z</time>
      </trkpt>
      <trkpt lat="45.78462" lon="5.45141">
        <ele>215.208</ele>
        <time>2019-06-16T11:13:01Z</time>
      </trkpt>
      <trkpt lat="45.7846" lon="5.45146">
        <ele>215.186</ele>
        <time>2019-06-16T11:13:08Z</time>
      </trkpt>
      <trkpt lat="45.78453" lon="5.45161">
        <ele>214.998</ele>
        <time>2019-06-16T11:13:47Z</time>
      </trkpt>
      <trkpt lat="45.78447" lon="5.45173">
        <ele>214.707</ele>
        <time>2019-06-16T11:14:00Z</time>
      </trkpt>
      <trkpt lat="45.78454" lon="5.45159">
        <ele>214.731</ele>
        <time>2019-06-16T11:14:04Z</time>
      </trkpt>
      <trkpt lat="45.78466" lon="5.4513">
        <ele>215.796</ele>
        <time>2019-06-16T11:14:10Z</time>
      </trkpt>
      <trkpt lat="45.78479" lon="5.45133">
        <ele>215.122</ele>
        <time>2019-06-16T11:14:14Z</time>
      </trkpt>
      <trkpt lat="45.78506" lon="5.45167">
        <ele>214.854</ele>
        <time>2019-06-16T11:14:24Z</time>
      </trkpt>
      <trkpt lat="45.78529" lon="5.45193">
        <ele>215.376</ele>
        <time>2019-06-16T11:14:32Z</time>
      </trkpt>
      <trkpt lat="45.78532" lon="5.4522">
        <ele>215.836</ele>
        <time>2019-06-16T11:14:37Z</time>
      </trkpt>
      <trkpt lat="45.7852" lon="5.45259">
        <ele>216.08</ele>
        <time>2019-06-16T11:14:45Z</time>
      </trkpt>
      <trkpt lat="45.78502" lon="5.45253">
        <ele>217.254</ele>
        <time>2019-06-16T11:14:50Z</time>
      </trkpt>
      <trkpt lat="45.78482" lon="5.45239">
        <ele>218.645</ele>
        <time>2019-06-16T11:14:56Z</time>
      </trkpt>
      <trkpt lat="45.78439" lon="5.45209">
        <ele>221.478</ele>
        <time>2019-06-16T11:15:10Z</time>
      </trkpt>
      <trkpt lat="45.78393" lon="5.45179">
        <ele>222.933</ele>
        <time>2019-06-16T11:15:24Z</time>
      </trkpt>
      <trkpt lat="45.78344" lon="5.45145">
        <ele>223.756</ele>
        <time>2019-06-16T11:15:37Z</time>
      </trkpt>
      <trkpt lat="45.78304" lon="5.45118">
        <ele>223.657</ele>
        <time>2019-06-16T11:15:45Z</time>
      </trkpt>
      <trkpt lat="45.78285" lon="5.45105">
        <ele>222.262</ele>
        <time>2019-06-16T11:15:48Z</time>
      </trkpt>
      <trkpt lat="45.78229" lon="5.45063">
        <ele>222.365</ele>
        <time>2019-06-16T11:15:57Z</time>
      </trkpt>
      <trkpt lat="45.78169" lon="5.45013">
        <ele>222.539</ele>
        <time>2019-06-16T11:16:08Z</time>
      </trkpt>
      <trkpt lat="45.78135" lon="5.44973">
        <ele>224.22</ele>
        <time>2019-06-16T11:16:17Z</time>
      </trkpt>
      <trkpt lat="45.78109" lon="5.44934">
        <ele>226.606</ele>
        <time>2019-06-16T11:16:26Z</time>
      </trkpt>
      <trkpt lat="45.78088" lon="5.44895">
        <ele>227.398</ele>
        <time>2019-06-16T11:16:34Z</time>
      </trkpt>
      <trkpt lat="45.78102" lon="5.44874">
        <ele>229.146</ele>
        <time>2019-06-16T11:16:39Z</time>
      </trkpt>
      <trkpt lat="45.78106" lon="5.44871">
        <ele>228.857</ele>
        <time>2019-06-16T11:16:40Z</time>
      </trkpt>
      <trkpt lat="45.78147" lon="5.44839">
        <ele>228.66</ele>
        <time>2019-06-16T11:16:51Z</time>
      </trkpt>
      <trkpt lat="45.78187" lon="5.44791">
        <ele>228.232</ele>
        <time>2019-06-16T11:17:01Z</time>
      </trkpt>
      <trkpt lat="45.78205" lon="5.44767">
        <ele>227.354</ele>
        <time>2019-06-16T11:17:05Z</time>
      </trkpt>
      <trkpt lat="45.78216" lon="5.44758">
        <ele>226.448</ele>
        <time>2019-06-16T11:17:07Z</time>
      </trkpt>
      <trkpt lat="45.78247" lon="5.44756">
        <ele>225.23</ele>
        <time>2019-06-16T11:17:13Z</time>
      </trkpt>
      <trkpt lat="45.78297" lon="5.44776">
        <ele>225.643</ele>
        <time>2019-06-16T11:17:24Z</time>
      </trkpt>
      <trkpt lat="45.78338" lon="5.44787">
        <ele>226.327</ele>
        <time>2019-06-16T11:17:35Z</time>
      </trkpt>
      <trkpt lat="45.78372" lon="5.44785">
        <ele>226.857</ele>
        <time>2019-06-16T11:17:44Z</time>
      </trkpt>
      <trkpt lat="45.78414" lon="5.44766">
        <ele>226.964</ele>
        <time>2019-06-16T11:17:55Z</time>
      </trkpt>
      <trkpt lat="45.78462" lon="5.44733">
        <ele>226.85</ele>
        <time>2019-06-16T11:18:07Z</time>
      </trkpt>
      <trkpt lat="45.78496" lon="5.44711">
        <ele>226.406</ele>
        <time>2019-06-16T11:18:15Z</time>
      </trkpt>
      <trkpt lat="45.78525" lon="5.44672">
        <ele>223.599</ele>
        <time>2019-06-16T11:18:24Z</time>
      </trkpt>
      <trkpt lat="45.78544" lon="5.44645">
        <ele>221.722</ele>
        <time>2019-06-16T11:18:30Z</time>
      </trkpt>
      <trkpt lat="45.78566" lon="5.44615">
        <ele>219.317</ele>
        <time>2019-06-16T11:18:37Z</time>
      </trkpt>
      <trkpt lat="45.78587" lon="5.44584">
        <ele>217.363</ele>
        <time>2019-06-16T11:18:43Z</time>
      </trkpt>
      <trkpt lat="45.78602" lon="5.44572">
        <ele>215.823</ele>
        <time>2019-06-16T11:18:46Z</time>
      </trkpt>
      <trkpt lat="45.78608" lon="5.4457">
        <ele>215.247</ele>
        <time>2019-06-16T11:18:47Z</time>
      </trkpt>
      <trkpt lat="45.78621" lon="5.44565">
        <ele>213.984</ele>
        <time>2019-06-16T11:18:49Z</time>
      </trkpt>
      <trkpt lat="45.78631" lon="5.44555">
        <ele>213.301</ele>
        <time>2019-06-16T11:18:51Z</time>
      </trkpt>
      <trkpt lat="45.78652" lon="5.44525">
        <ele>212.742</ele>
        <time>2019-06-16T11:18:58Z</time>
      </trkpt>
      <trkpt lat="45.78671" lon="5.44491">
        <ele>213.913</ele>
        <time>2019-06-16T11:19:07Z</time>
      </trkpt>
      <trkpt lat="45.78685" lon="5.44463">
        <ele>215.88</ele>
        <time>2019-06-16T11:19:16Z</time>
      </trkpt>
      <trkpt lat="45.78691" lon="5.44438">
        <ele>217.751</ele>
        <time>2019-06-16T11:19:24Z</time>
      </trkpt>
      <trkpt lat="45.7869" lon="5.44405">
        <ele>220.039</ele>
        <time>2019-06-16T11:19:35Z</time>
      </trkpt>
      <trkpt lat="45.78689" lon="5.44384">
        <ele>221.95</ele>
        <time>2019-06-16T11:19:43Z</time>
      </trkpt>
      <trkpt lat="45.78689" lon="5.44376">
        <ele>222.312</ele>
        <time>2019-06-16T11:19:46Z</time>
      </trkpt>
      <trkpt lat="45.78692" lon="5.44366">
        <ele>224.23</ele>
        <time>2019-06-16T11:19:52Z</time>
      </trkpt>
      <trkpt lat="45.78695" lon="5.44365">
        <ele>224.225</ele>
        <time>2019-06-16T11:19:53Z</time>
      </trkpt>
      <trkpt lat="45.78718" lon="5.4435">
        <ele>224.772</ele>
        <time>2019-06-16T11:20:05Z</time>
      </trkpt>
      <trkpt lat="45.7873" lon="5.44342">
        <ele>225.016</ele>
        <time>2019-06-16T11:20:12Z</time>
      </trkpt>
    </trkseg>
  </trk>
</gpx>